ftp/pub/palmer/observations_modified/2019/March/original_files/AR190313_BASE.txt
Download
Sample DateTime Unit Id WS Avg 2min WD Avg 2min WGS 10min WGD 10min Air Temp Rel Humidity Dew Point Pyranometer Quantum Air Pressure Snow Level Rainfall PW Current Visibility CBase 1 CBase 2 CBase 3 Vert Vis
2019/03/13 00:00:00 BASE 7.69 244 9.83 242 -1.5 84 -3.9 0 0 999.1 NA 0.0000 9999 2030 0 0 0
2019/03/13 00:01:00 BASE 7.14 239 9.83 242 -1.5 84 -3.9 0 0 999.1 NA 0.0000 9999 2030 0 0 0
2019/03/13 00:02:00 BASE 7.37 238 9.83 242 -1.5 84 -3.9 0 0 999.2 NA 0.0000 9999 2000 0 0 0
2019/03/13 00:03:00 BASE 7.89 237 9.83 242 -1.5 84 -3.9 0 0 999.2 NA 0.0000 9999 2030 0 0 0
2019/03/13 00:04:00 BASE 7.47 242 9.83 242 -1.5 84 -3.9 0 0 999.2 NA 0.0000 9999 2170 0 0 0
2019/03/13 00:05:00 BASE 6.73 248 9.83 242 -1.5 84 -3.9 0 0 999.3 NA 0.0000 9999 2030 0 0 0
2019/03/13 00:06:00 BASE 6.02 245 9.83 242 -1.6 84 -3.9 0 0 999.2 NA 0.0000 9999 1970 0 0 0
2019/03/13 00:07:00 BASE 5.58 241 9.83 242 -1.5 84 -4.0 0 0 999.3 NA 0.0000 9999 2000 0 0 0
2019/03/13 00:08:00 BASE 5.94 239 9.83 242 -1.5 84 -4.0 0 0 999.3 NA 0.0000 9999 1970 0 0 0
2019/03/13 00:09:00 BASE 6.81 241 8.85 228 -1.5 84 -4.0 0 0 999.3 NA 0.0000 9999 1940 0 0 0
2019/03/13 00:10:00 BASE 7.62 240 9.31 229 -1.5 84 -3.9 0 0 999.3 NA 0.0000 9999 1900 0 0 0
2019/03/13 00:11:00 BASE 7.38 240 9.31 229 -1.5 84 -3.9 0 0 999.3 NA 0.0000 9999 1940 0 0 0
2019/03/13 00:12:00 BASE 6.88 242 9.31 229 -1.5 84 -3.8 0 0 999.4 NA 0.0000 9999 1900 0 0 0
2019/03/13 00:13:00 BASE 6.84 244 9.31 229 -1.5 84 -3.8 0 0 999.4 NA 0.0000 9999 1970 0 0 0
2019/03/13 00:14:00 BASE 6.68 248 9.31 229 -1.5 84 -3.8 0 0 999.4 NA 0.0000 9999 1840 0 0 0
2019/03/13 00:15:00 BASE 7.03 242 9.31 229 -1.4 84 -3.7 0 0 999.4 NA 0.0000 9999 1840 0 0 0
2019/03/13 00:16:00 BASE 7.44 233 9.31 229 -1.4 85 -3.7 0 0 999.4 NA 0.0000 9999 1840 0 0 0
2019/03/13 00:17:00 BASE 6.68 233 9.31 229 -1.4 85 -3.6 0 0 999.4 NA 0.0000 9999 1800 0 0 0
2019/03/13 00:18:00 BASE 5.91 236 9.31 229 -1.4 85 -3.6 0 0 999.4 NA 0.0000 9999 1800 0 0 0
2019/03/13 00:19:00 BASE 6.35 244 9.31 229 -1.4 85 -3.6 0 0 999.4 NA 0.0000 9999 1940 0 0 0
2019/03/13 00:20:00 BASE 7.01 251 9.00 234 -1.4 85 -3.6 0 0 999.4 NA 0.0000 9999 1800 0 0 0
2019/03/13 00:21:00 BASE 7.06 241 9.00 234 -1.4 85 -3.5 0 0 999.4 NA 0.0000 9999 1770 0 0 0
2019/03/13 00:22:00 BASE 7.18 233 9.05 240 -1.4 86 -3.5 0 0 999.5 NA 0.0000 9999 1870 0 0 0
2019/03/13 00:23:00 BASE 7.34 232 9.05 240 -1.4 86 -3.5 0 0 999.5 NA 0.0000 9999 1940 0 0 0
2019/03/13 00:24:00 BASE 6.44 232 9.05 240 -1.4 86 -3.5 0 0 999.5 NA 0.0000 9999 1940 0 0 0
2019/03/13 00:25:00 BASE 5.07 237 9.05 240 -1.4 86 -3.5 0 0 999.5 NA 0.0000 9999 1800 0 0 0
2019/03/13 00:26:00 BASE 4.78 240 9.05 240 -1.4 86 -3.5 0 0 999.5 NA 0.0000 9999 1800 0 0 0
2019/03/13 00:27:00 BASE 6.07 244 9.05 240 -1.4 86 -3.5 0 0 999.5 NA 0.0000 9999 1740 0 0 0
2019/03/13 00:28:00 BASE 7.27 250 9.52 244 -1.4 86 -3.5 0 0 999.5 NA 0.0000 9999 1740 0 0 0
2019/03/13 00:29:00 BASE 7.14 248 9.52 244 -1.4 86 -3.4 0 0 999.5 NA 0.0000 9999 1740 0 0 0
2019/03/13 00:30:00 BASE 7.03 238 9.52 244 -1.4 86 -3.4 0 0 999.5 NA 0.0000 9999 1710 0 0 0
2019/03/13 00:31:00 BASE 7.58 234 9.52 244 -1.3 86 -3.3 0 0 999.5 NA 0.0000 9999 1740 0 0 0
2019/03/13 00:32:00 BASE 7.37 236 9.52 244 -1.3 87 -3.3 0 0 999.6 NA 0.0000 9999 1840 0 0 0
2019/03/13 00:33:00 BASE 6.86 242 9.52 244 -1.3 87 -3.2 0 0 999.5 NA 0.0000 9999 1840 0 0 0
2019/03/13 00:34:00 BASE 6.72 243 9.52 244 -1.3 87 -3.2 0 0 999.6 NA 0.0000 9999 1900 0 0 0
2019/03/13 00:35:00 BASE 5.77 243 9.52 244 -1.3 87 -3.2 0 0 999.6 NA 0.0000 9999 1800 0 0 0
2019/03/13 00:36:00 BASE 5.22 248 9.52 244 -1.3 87 -3.2 0 0 999.6 NA 0.0000 9999 1800 0 0 0
2019/03/13 00:37:00 BASE 5.56 250 9.52 244 -1.3 87 -3.2 0 0 999.6 NA 0.0000 9999 1710 0 0 0
2019/03/13 00:38:00 BASE 5.07 259 8.80 233 -1.3 87 -3.2 0 0 999.5 NA 0.0000 9999 1740 0 0 0
2019/03/13 00:39:01 BASE 4.71 272 8.80 233 -1.3 87 -3.2 0 0 999.5 NA 0.0000 9999 1740 0 0 0
2019/03/13 00:40:00 BASE 6.82 264 9.93 254 -1.3 87 -3.2 0 0 999.5 NA 0.0000 9999 1710 2130 0 0
2019/03/13 00:41:00 BASE 8.06 258 9.93 254 -1.3 87 -3.2 0 0 999.5 NA 0.0000 9999 1870 0 0 0
2019/03/13 00:42:00 BASE 7.88 261 9.93 254 -1.3 87 -3.2 0 0 999.4 NA 0.0000 9999 1800 0 0 0
2019/03/13 00:43:00 BASE 8.56 254 9.93 254 -1.3 87 -3.2 0 0 999.5 NA 0.0000 9999 1800 0 0 0
2019/03/13 00:44:00 BASE 8.57 247 9.93 254 -1.3 87 -3.2 0 0 999.5 NA 0.0000 9999 1900 0 0 0
2019/03/13 00:45:00 BASE 7.49 248 9.93 254 -1.3 87 -3.2 0 0 999.4 NA 0.0000 9999 1900 0 0 0
2019/03/13 00:46:00 BASE 6.63 251 9.93 254 -1.3 87 -3.2 0 0 999.4 NA 0.0000 9999 1800 0 0 0
2019/03/13 00:47:00 BASE 6.44 253 9.93 254 -1.3 87 -3.2 0 0 999.4 NA 0.0000 9999 1800 0 0 0
2019/03/13 00:48:00 BASE 6.68 257 9.93 254 -1.3 87 -3.2 0 0 999.4 NA 0.0000 9999 1770 0 0 0
2019/03/13 00:49:00 BASE 7.34 251 9.93 254 -1.3 87 -3.2 0 0 999.4 NA 0.0000 9999 1870 0 0 0
2019/03/13 00:50:00 BASE 7.29 242 9.72 260 -1.3 87 -3.2 0 0 999.5 NA 0.0000 9999 1900 0 0 0
2019/03/13 00:51:00 BASE 6.84 240 9.72 260 -1.3 87 -3.2 0 0 999.5 NA 0.0000 9999 1800 0 0 0
2019/03/13 00:52:00 BASE 7.11 246 9.72 260 -1.3 87 -3.2 0 0 999.5 NA 0.0000 9999 1770 0 0 0
2019/03/13 00:53:00 BASE 7.51 252 9.72 260 -1.3 87 -3.2 0 0 999.6 NA 0.0000 9999 1870 0 0 0
2019/03/13 00:54:00 BASE 6.82 255 9.72 260 -1.3 87 -3.2 0 0 999.6 NA 0.0000 9999 1840 0 0 0
2019/03/13 00:55:00 BASE 6.60 254 9.72 260 -1.3 87 -3.2 0 0 999.6 NA 0.0000 9999 1840 0 0 0
2019/03/13 00:56:00 BASE 6.74 253 9.72 260 -1.3 87 -3.2 0 0 999.6 NA 0.0000 9999 1840 0 0 0
2019/03/13 00:57:00 BASE 6.06 248 9.72 260 -1.4 87 -3.2 0 0 999.6 NA 0.0000 9999 1940 0 0 0
2019/03/13 00:58:00 BASE 6.56 241 9.62 230 -1.4 87 -3.2 0 0 999.6 NA 0.0000 9999 1900 0 0 0
2019/03/13 00:59:00 BASE 7.75 242 9.67 242 -1.4 87 -3.3 0 0 999.6 NA 0.0000 9999 1840 0 0 0
2019/03/13 01:00:00 BASE 7.67 243 9.67 242 -1.4 87 -3.3 0 0 999.6 NA 0.0000 9999 1800 0 0 0
2019/03/13 01:01:00 BASE 7.26 240 9.67 242 -1.4 87 -3.3 0 0 999.7 NA 0.0000 9999 1870 0 0 0
2019/03/13 01:02:00 BASE 6.95 237 9.67 242 -1.4 87 -3.3 0 0 999.7 NA 0.0000 9999 2000 0 0 0
2019/03/13 01:03:00 BASE 6.24 239 9.67 242 -1.4 87 -3.3 0 0 999.7 NA 0.0000 9999 1840 0 0 0
2019/03/13 01:04:00 BASE 5.71 237 9.67 242 -1.4 87 -3.3 0 0 999.7 NA 0.0000 9999 1940 0 0 0
2019/03/13 01:05:00 BASE 6.69 228 9.67 242 -1.4 87 -3.3 0 0 999.7 NA 0.0000 9999 1970 0 0 0
2019/03/13 01:06:00 BASE 7.20 223 9.67 242 -1.4 87 -3.3 0 0 999.7 NA 0.0000 9999 1870 0 0 0
2019/03/13 01:07:00 BASE 6.40 223 9.67 242 -1.4 87 -3.3 0 0 999.7 NA 0.0000 9999 1870 0 0 0
2019/03/13 01:08:00 BASE 5.54 223 9.67 242 -1.4 87 -3.3 0 0 999.7 NA 0.0000 9999 1870 0 0 0
2019/03/13 01:09:00 BASE 5.12 219 8.44 223 -1.4 87 -3.3 0 0 999.7 NA 0.0000 9999 1900 0 0 0
2019/03/13 01:10:00 BASE 5.03 217 8.44 223 -1.4 87 -3.3 0 0 999.7 NA 0.0000 9999 1940 0 0 0
2019/03/13 01:11:00 BASE 5.01 220 8.44 223 -1.4 87 -3.3 0 0 999.7 NA 0.0000 9999 1970 0 0 0
2019/03/13 01:12:00 BASE 5.39 223 8.44 223 -1.4 87 -3.3 0 0 999.7 NA 0.0000 9999 1940 0 0 0
2019/03/13 01:13:00 BASE 5.51 217 8.44 223 -1.4 87 -3.3 0 0 999.6 NA 0.0000 9999 1940 0 0 0
2019/03/13 01:14:00 BASE 5.26 215 8.44 223 -1.4 87 -3.3 0 0 999.7 NA 0.0000 9999 1900 0 0 0
2019/03/13 01:15:00 BASE 5.55 222 7.51 225 -1.4 87 -3.3 0 0 999.7 NA 0.0000 9999 2030 0 0 0
2019/03/13 01:16:00 BASE 6.52 223 7.87 229 -1.4 87 -3.3 0 0 999.7 NA 0.0000 9999 2100 0 0 0
2019/03/13 01:17:00 BASE 6.15 223 7.87 229 -1.4 87 -3.3 0 0 999.7 NA 0.0000 9999 0 0 0 0
2019/03/13 01:18:00 BASE 4.73 220 7.87 229 -1.4 87 -3.4 0 0 999.7 NA 0.0000 9999 1870 0 0 0
2019/03/13 01:19:00 BASE 4.89 218 7.87 229 -1.4 87 -3.4 0 0 999.7 NA 0.0000 9999 1870 0 0 0
2019/03/13 01:20:00 BASE 6.07 226 7.92 235 -1.4 86 -3.4 0 0 999.7 NA 0.0000 9999 1970 0 0 0
2019/03/13 01:21:00 BASE 6.20 234 7.92 235 -1.4 86 -3.4 0 0 999.7 NA 0.0000 9999 1900 0 0 0
2019/03/13 01:22:00 BASE 4.78 232 7.92 235 -1.4 86 -3.5 0 0 999.7 NA 0.0000 9999 1900 0 0 0
2019/03/13 01:23:00 BASE 3.71 232 7.92 235 -1.5 86 -3.5 0 0 999.7 NA 0.0000 9999 1970 0 0 0
2019/03/13 01:24:00 BASE 3.53 233 7.92 235 -1.5 86 -3.5 0 0 999.7 NA 0.0000 9999 1870 0 0 0
2019/03/13 01:25:00 BASE 3.27 233 7.92 235 -1.5 86 -3.5 0 0 999.8 NA 0.0000 9999 1870 0 0 0
2019/03/13 01:26:00 BASE 3.04 239 7.92 235 -1.5 86 -3.5 0 0 999.8 NA 0.0000 9999 1870 0 0 0
2019/03/13 01:27:00 BASE 3.45 246 7.92 235 -1.4 86 -3.5 0 0 999.7 NA 0.0000 9999 1840 0 0 0
2019/03/13 01:28:00 BASE 4.09 252 7.92 235 -1.4 86 -3.4 0 0 999.7 NA 0.0000 9999 1840 0 0 0
2019/03/13 01:29:00 BASE 3.78 254 7.92 235 -1.4 86 -3.4 0 0 999.7 NA 0.0000 9999 1840 0 0 0
2019/03/13 01:30:00 BASE 4.21 249 7.36 234 -1.4 86 -3.4 0 0 999.7 NA 0.0000 9999 1800 0 0 0
2019/03/13 01:31:00 BASE 5.58 241 7.05 243 -1.4 86 -3.4 0 0 999.7 NA 0.0000 9999 1970 0 0 0
2019/03/13 01:32:00 BASE 5.74 245 7.05 243 -1.4 86 -3.4 0 0 999.7 NA 0.0000 9999 2070 0 0 0
2019/03/13 01:33:00 BASE 6.02 249 7.92 250 -1.4 86 -3.4 0 0 999.7 NA 0.0000 9999 1970 0 0 0
2019/03/13 01:34:00 BASE 6.64 250 7.92 250 -1.4 86 -3.4 0 0 999.7 NA 0.0000 9999 1870 0 0 0
2019/03/13 01:35:00 BASE 5.71 253 7.92 250 -1.4 86 -3.5 0 0 999.7 NA 0.0000 9999 1900 0 0 0
2019/03/13 01:36:00 BASE 4.89 255 7.92 250 -1.4 86 -3.5 0 0 999.7 NA 0.0000 9999 1900 0 0 0
2019/03/13 01:37:00 BASE 4.29 253 7.92 250 -1.4 86 -3.5 0 0 999.7 NA 0.0000 9999 1870 0 0 0
2019/03/13 01:38:00 BASE 3.81 247 7.92 250 -1.5 86 -3.5 0 0 999.7 NA 0.0000 9999 2000 0 0 0
2019/03/13 01:39:00 BASE 3.86 243 7.92 250 -1.5 86 -3.5 0 0 999.7 NA 0.0000 9999 0 0 0 0
2019/03/13 01:40:00 BASE 3.48 231 7.92 250 -1.4 86 -3.5 0 0 999.7 NA 0.0000 9999 1940 0 0 0
2019/03/13 01:41:00 BASE 3.89 224 7.92 250 -1.4 86 -3.5 0 0 999.7 NA 0.0000 9999 1870 0 0 0
2019/03/13 01:42:00 BASE 4.35 229 7.92 250 -1.4 86 -3.5 0 0 999.7 NA 0.0000 9999 1900 0 0 0
2019/03/13 01:43:00 BASE 4.11 241 7.82 249 -1.4 86 -3.5 0 0 999.7 NA 0.0000 9999 1940 0 0 0
2019/03/13 01:44:01 BASE 3.84 249 5.81 252 -1.5 86 -3.5 0 0 999.7 NA 0.0000 9999 1970 0 0 0
2019/03/13 01:45:00 BASE 4.11 246 5.71 254 -1.5 86 -3.5 0 0 999.7 NA 0.0000 9999 0 0 0 0
2019/03/13 01:46:00 BASE 4.56 246 5.25 233 -1.5 86 -3.5 0 0 999.7 NA 0.0000 9999 0 0 0 0
2019/03/13 01:47:00 BASE 4.44 248 5.25 233 -1.5 86 -3.5 0 0 999.7 NA 0.0000 9999 0 0 0 0
2019/03/13 01:48:00 BASE 4.50 247 5.25 233 -1.5 86 -3.5 0 0 999.8 NA 0.0000 9999 0 0 0 0
2019/03/13 01:49:00 BASE 4.53 241 5.25 235 -1.5 86 -3.6 0 0 999.8 NA 0.0000 9999 0 0 0 0
2019/03/13 01:50:00 BASE 4.45 238 5.25 235 -1.5 86 -3.6 0 0 999.8 NA 0.0000 9999 2000 0 0 0
2019/03/13 01:51:00 BASE 4.75 243 6.17 249 -1.5 85 -3.6 0 0 999.9 NA 0.0000 9999 1970 0 0 0
2019/03/13 01:52:00 BASE 5.58 250 6.74 249 -1.5 85 -3.7 0 0 999.9 NA 0.0000 9999 0 0 0 0
2019/03/13 01:53:00 BASE 6.02 248 7.05 246 -1.5 85 -3.7 0 0 999.9 NA 0.0000 9999 0 0 0 0
2019/03/13 01:54:01 BASE 6.29 246 7.51 248 -1.5 85 -3.7 0 0 999.8 NA 0.0000 9999 2030 0 0 0
2019/03/13 01:55:00 BASE 6.08 250 7.51 248 -1.5 85 -3.8 0 0 999.8 NA 0.0000 9999 2430 0 0 0
2019/03/13 01:56:00 BASE 4.91 258 7.51 248 -1.5 84 -3.8 0 0 999.9 NA 0.0000 9999 2230 0 0 0
2019/03/13 01:57:00 BASE 4.17 258 7.51 248 -1.5 84 -3.8 0 0 999.9 NA 0.0000 9999 2000 0 0 0
2019/03/13 01:58:00 BASE 4.07 253 7.51 248 -1.5 84 -3.9 0 0 999.9 NA 0.0000 9999 1970 0 0 0
2019/03/13 01:59:00 BASE 3.73 249 7.51 248 -1.5 84 -3.9 0 0 999.9 NA 0.0000 9999 2000 0 0 0
2019/03/13 02:00:00 BASE 3.24 253 7.51 248 -1.5 84 -3.9 0 0 999.9 NA 0.0000 9999 0 0 0 0
2019/03/13 02:01:00 BASE 3.67 255 7.51 248 -1.5 84 -3.9 0 0 999.9 NA 0.0000 9999 2100 0 0 0
2019/03/13 02:02:00 BASE 4.74 250 7.51 248 -1.5 84 -3.9 0 0 999.9 NA 0.0000 9999 2030 0 0 0
2019/03/13 02:03:00 BASE 5.05 251 7.51 248 -1.5 84 -3.9 0 0 999.9 NA 0.0000 9999 2070 0 0 0
2019/03/13 02:04:00 BASE 5.05 254 6.33 244 -1.5 84 -3.8 0 0 1000.0 NA 0.0000 9999 0 0 0 0
2019/03/13 02:05:00 BASE 4.91 250 6.33 244 -1.5 84 -3.8 0 0 999.9 NA 0.0000 9999 2000 0 0 0
2019/03/13 02:06:00 BASE 4.50 249 6.33 244 -1.5 85 -3.8 0 0 999.9 NA 0.0000 9999 2100 0 0 0
2019/03/13 02:07:00 BASE 4.44 248 6.33 244 -1.5 85 -3.7 0 0 999.9 NA 0.0000 9999 1970 0 0 0
2019/03/13 02:08:00 BASE 5.00 244 6.84 237 -1.5 85 -3.7 0 0 999.9 NA 0.0000 9999 2000 0 0 0
2019/03/13 02:09:00 BASE 5.31 246 6.84 237 -1.5 85 -3.7 0 0 999.9 NA 0.0000 9999 1970 0 0 0
2019/03/13 02:10:00 BASE 5.39 251 6.84 237 -1.5 85 -3.7 0 0 1000.0 NA 0.0000 9999 1940 0 0 0
2019/03/13 02:11:00 BASE 5.09 250 6.84 237 -1.5 85 -3.7 0 0 999.9 NA 0.0000 9999 1940 0 0 0
2019/03/13 02:12:00 BASE 4.25 246 6.84 237 -1.5 85 -3.7 0 0 1000.0 NA 0.0000 9999 0 0 0 0
2019/03/13 02:13:00 BASE 4.15 247 6.84 237 -1.5 85 -3.7 0 0 1000.0 NA 0.0000 9999 0 0 0 0
2019/03/13 02:14:00 BASE 4.09 253 6.84 237 -1.5 85 -3.7 0 0 1000.0 NA 0.0000 9999 0 0 0 0
2019/03/13 02:15:00 BASE 5.03 256 7.15 256 -1.6 85 -3.7 0 0 1000.0 NA 0.0000 9999 0 0 0 0
2019/03/13 02:16:00 BASE 6.22 256 7.15 256 -1.6 85 -3.8 0 0 1000.0 NA 0.0000 9999 0 0 0 0
2019/03/13 02:17:00 BASE 6.07 256 7.15 256 -1.6 85 -3.8 0 0 1000.0 NA 0.0000 9999 0 0 0 0
2019/03/13 02:18:00 BASE 5.63 254 7.15 256 -1.6 85 -3.8 0 0 1000.0 NA 0.0000 9999 0 0 0 0
2019/03/13 02:19:00 BASE 5.00 253 7.15 256 -1.6 85 -3.8 0 0 999.9 NA 0.0000 9999 0 0 0 0
2019/03/13 02:20:00 BASE 3.96 257 7.15 256 -1.6 85 -3.8 0 0 1000.0 NA 0.0000 9999 0 0 0 0
2019/03/13 02:21:00 BASE 3.17 264 7.15 256 -1.6 85 -3.8 0 0 999.9 NA 0.0000 9999 0 0 0 0
2019/03/13 02:22:00 BASE 3.42 270 7.15 256 -1.6 85 -3.8 0 0 999.9 NA 0.0000 9999 0 0 0 0
2019/03/13 02:23:00 BASE 4.26 269 7.15 256 -1.5 85 -3.7 0 0 999.9 NA 0.0000 9999 0 0 0 0
2019/03/13 02:24:00 BASE 4.97 270 7.15 256 -1.5 85 -3.7 0 0 999.9 NA 0.0000 9999 0 0 0 0
2019/03/13 02:25:00 BASE 5.09 269 6.94 256 -1.5 85 -3.7 0 0 999.9 NA 0.0000 9999 0 0 0 0
2019/03/13 02:26:00 BASE 4.99 264 6.38 268 -1.5 85 -3.7 0 0 999.9 NA 0.0000 9999 0 0 0 0
2019/03/13 02:27:00 BASE 4.98 266 6.89 263 -1.5 85 -3.6 0 0 1000.0 NA 0.0000 9999 0 0 0 0
2019/03/13 02:28:00 BASE 5.05 267 6.89 263 -1.5 85 -3.6 0 0 999.9 NA 0.0000 9999 0 0 0 0
2019/03/13 02:29:00 BASE 5.22 261 6.89 263 -1.5 86 -3.6 0 0 999.9 NA 0.0000 9999 0 0 0 0
2019/03/13 02:30:00 BASE 4.42 266 6.89 263 -1.5 86 -3.6 0 0 999.9 NA 0.0000 9999 0 0 0 0
2019/03/13 02:31:00 BASE 3.82 275 6.89 263 -1.5 86 -3.6 0 0 1000.0 NA 0.0000 9999 1800 0 0 0
2019/03/13 02:32:00 BASE 4.14 275 6.89 263 -1.5 86 -3.6 0 0 1000.1 NA 0.0000 9999 1800 0 0 0
2019/03/13 02:33:00 BASE 4.35 270 6.89 263 -1.5 86 -3.6 0 0 1000.1 NA 0.0000 9999 0 0 0 0
2019/03/13 02:34:00 BASE 4.35 260 6.89 263 -1.5 86 -3.5 0 0 1000.1 NA 0.0000 9999 0 0 0 0
2019/03/13 02:35:00 BASE 4.61 259 6.89 263 -1.5 86 -3.5 0 0 1000.1 NA 0.0000 9999 1940 0 0 0
2019/03/13 02:36:00 BASE 4.48 269 6.89 263 -1.5 87 -3.4 0 0 1000.1 NA 0.0000 9999 0 0 0 0
2019/03/13 02:37:00 BASE 4.95 267 6.89 246 -1.5 87 -3.4 0 0 1000.1 NA 0.0000 9999 0 0 0 0
2019/03/13 02:38:00 BASE 6.06 257 7.46 252 -1.5 87 -3.4 0 0 1000.1 NA 0.0000 9999 0 0 0 0
2019/03/13 02:39:00 BASE 5.46 262 7.46 252 -1.5 87 -3.4 0 0 1000.1 NA 0.0000 9999 0 0 0 0
2019/03/13 02:40:00 BASE 5.15 267 7.46 252 -1.5 87 -3.4 0 0 1000.1 NA 0.0000 9999 0 0 0 0
2019/03/13 02:41:00 BASE 5.38 263 7.46 252 -1.5 87 -3.4 0 0 1000.1 NA 0.0000 9999 0 0 0 0
2019/03/13 02:42:00 BASE 4.37 260 7.46 252 -1.5 87 -3.4 0 0 1000.1 NA 0.0000 9999 1740 0 0 0
2019/03/13 02:43:00 BASE 3.01 265 7.46 252 -1.5 87 -3.4 0 0 1000.1 NA 0.0000 9999 1770 0 0 0
2019/03/13 02:44:00 BASE 3.09 276 7.46 252 -1.5 87 -3.4 0 0 1000.1 NA 0.0000 9999 0 0 0 0
2019/03/13 02:45:00 BASE 3.98 275 7.46 252 -1.5 87 -3.4 0 0 1000.1 NA 0.0000 9999 0 0 0 0
2019/03/13 02:46:00 BASE 3.98 267 7.46 252 -1.5 87 -3.4 0 0 1000.1 NA 0.0000 9999 0 0 0 0
2019/03/13 02:47:00 BASE 3.44 273 7.46 252 -1.5 87 -3.4 0 0 1000.1 NA 0.0000 9999 0 0 0 0
2019/03/13 02:48:00 BASE 3.16 275 6.69 264 -1.5 87 -3.4 0 0 1000.1 NA 0.0000 9999 0 0 0 0
2019/03/13 02:49:00 BASE 3.16 280 6.69 264 -1.5 87 -3.4 0 0 1000.1 NA 0.0000 9999 0 0 0 0
2019/03/13 02:50:00 BASE 3.20 289 5.86 262 -1.5 87 -3.4 0 0 1000.1 NA 0.0000 9999 0 0 0 0
2019/03/13 02:51:00 BASE 2.94 291 5.20 268 -1.5 87 -3.4 0 0 1000.0 NA 0.0000 9999 0 0 0 0
2019/03/13 02:52:00 BASE 2.71 295 5.20 268 -1.5 87 -3.4 0 0 999.9 NA 0.0000 9999 0 0 0 0
2019/03/13 02:53:00 BASE 3.23 295 5.20 268 -1.5 87 -3.3 0 0 999.9 NA 0.0000 9999 0 0 0 0
2019/03/13 02:54:00 BASE 3.75 295 5.09 262 -1.5 87 -3.3 0 0 999.9 NA 0.0000 9999 0 0 0 0
2019/03/13 02:55:00 BASE 3.70 299 4.78 255 -1.5 88 -3.3 0 0 999.9 NA 0.0000 9999 0 0 0 0
2019/03/13 02:56:00 BASE 3.58 299 4.48 296 -1.5 88 -3.2 0 0 999.9 NA 0.0000 9999 0 0 0 0
2019/03/13 02:57:00 BASE 3.82 299 4.63 303 -1.5 88 -3.2 0 0 999.9 NA 0.0000 9999 0 0 0 0
2019/03/13 02:58:00 BASE 4.05 298 4.99 295 -1.5 88 -3.2 0 0 1000.0 NA 0.0000 9999 0 0 0 0
2019/03/13 02:59:00 BASE 4.70 295 6.53 298 -1.5 88 -3.2 0 0 999.9 NA 0.0000 9999 0 0 0 0
2019/03/13 03:00:00 BASE 5.10 297 6.53 298 -1.5 88 -3.2 0 0 999.9 NA 0.0000 9999 0 0 0 0
2019/03/13 03:01:00 BASE 4.54 298 6.53 298 -1.5 88 -3.2 0 0 999.9 NA 0.0000 9999 0 0 0 0
2019/03/13 03:02:00 BASE 4.06 296 6.53 298 -1.5 88 -3.2 0 0 999.9 NA 0.0000 9999 0 0 0 0
2019/03/13 03:03:00 BASE 3.85 296 6.53 298 -1.5 89 -3.1 0 0 999.9 NA 0.0000 9999 0 0 0 0
2019/03/13 03:04:00 BASE 3.79 299 6.53 298 -1.4 89 -3.1 0 0 1000.0 NA 0.0000 9999 0 0 0 0
2019/03/13 03:05:00 BASE 3.84 300 6.53 298 -1.4 89 -3.0 0 0 1000.0 NA 0.0000 9999 0 0 0 0
2019/03/13 03:06:00 BASE 3.95 304 6.53 298 -1.5 89 -3.0 0 0 999.9 NA 0.0000 9999 0 0 0 0
2019/03/13 03:07:00 BASE 3.88 313 6.53 298 -1.4 89 -3.0 0 0 999.9 NA 0.0000 9999 0 0 0 0
2019/03/13 03:08:00 BASE 3.70 313 6.53 298 -1.5 89 -3.0 0 0 999.9 NA 0.0000 9999 0 0 0 0
2019/03/13 03:09:00 BASE 3.86 312 5.97 295 -1.5 89 -3.1 0 0 999.9 NA 0.0000 9999 0 0 0 0
2019/03/13 03:10:00 BASE 4.39 307 4.99 293 -1.5 89 -3.0 0 0 1000.0 NA 0.0000 9999 0 0 0 0
2019/03/13 03:11:00 BASE 4.37 297 4.99 293 -1.5 89 -3.0 0 0 1000.0 NA 0.0000 9999 0 0 0 0
2019/03/13 03:12:00 BASE 3.81 299 4.99 293 -1.5 90 -3.0 0 0 1000.0 NA 0.0000 9999 0 0 0 0
2019/03/13 03:13:00 BASE 3.46 301 4.99 293 -1.5 90 -2.9 0 0 1000.0 NA 0.0000 9999 0 0 0 0
2019/03/13 03:14:00 BASE 3.31 301 4.99 293 -1.5 90 -2.9 0 0 1000.0 NA 0.0000 9999 0 0 0 0
2019/03/13 03:15:00 BASE 3.44 303 4.99 293 -1.5 90 -2.9 0 0 1000.0 NA 0.0000 9999 0 0 0 0
2019/03/13 03:16:00 BASE 3.61 300 4.99 293 -1.5 90 -2.9 0 0 1000.0 NA 0.0000 9999 0 0 0 0
2019/03/13 03:17:00 BASE 3.62 296 4.99 293 -1.5 90 -2.9 0 0 999.9 NA 0.0000 9999 0 0 0 0
2019/03/13 03:18:00 BASE 3.64 301 4.99 293 -1.5 90 -2.9 0 0 999.9 NA 0.0000 9999 0 0 0 0
2019/03/13 03:19:00 BASE 3.79 306 4.99 293 -1.5 90 -2.9 0 0 999.9 NA 0.0000 9999 0 0 0 0
2019/03/13 03:20:00 BASE 3.85 305 4.48 300 -1.5 90 -2.9 0 0 999.9 NA 0.0000 9999 0 0 0 0
2019/03/13 03:21:00 BASE 3.82 304 4.37 299 -1.5 90 -2.9 0 0 999.9 NA 0.0000 9999 0 0 0 0
2019/03/13 03:22:00 BASE 3.71 304 4.37 299 -1.5 90 -2.9 0 0 999.9 NA 0.0000 9999 0 0 0 0
2019/03/13 03:23:00 BASE 3.12 313 4.37 299 -1.5 90 -2.9 0 0 1000.0 NA 0.0000 9999 0 0 0 0
2019/03/13 03:24:00 BASE 2.59 325 4.37 299 -1.5 90 -2.9 0 0 1000.0 NA 0.0000 9999 0 0 0 0
2019/03/13 03:25:00 BASE 2.51 327 4.37 299 -1.5 90 -2.9 0 0 1000.0 NA 0.0000 9999 0 0 0 0
2019/03/13 03:26:00 BASE 2.27 320 4.37 299 -1.5 90 -2.9 0 0 1000.0 NA 0.0000 9999 0 0 0 0
2019/03/13 03:27:00 BASE 1.68 311 4.37 299 -1.6 91 -2.8 0 0 1000.0 NA 0.0000 9999 0 0 0 0
2019/03/13 03:28:00 BASE 1.73 320 4.37 299 -1.6 92 -2.7 0 0 999.9 NA 0.0000 9999 0 0 0 0
2019/03/13 03:29:00 BASE 2.57 334 4.37 299 -1.6 92 -2.7 0 0 999.9 NA 0.0000 9999 0 0 0 0
2019/03/13 03:30:00 BASE 2.95 335 4.32 304 -1.6 93 -2.6 0 0 999.9 NA 0.0000 9999 0 0 0 0
2019/03/13 03:31:00 BASE 2.88 324 4.22 298 -1.7 93 -2.6 0 0 999.9 NA 0.0000 9999 0 0 0 0
2019/03/13 03:32:00 BASE 2.93 305 3.45 304 -1.7 94 -2.5 0 0 1000.0 NA 0.0000 9999 0 0 0 0
2019/03/13 03:33:00 BASE 3.71 297 5.14 293 -1.7 94 -2.5 0 0 1000.1 NA 0.0000 9999 0 0 0 0
2019/03/13 03:34:00 BASE 4.63 296 5.14 301 -1.6 94 -2.5 0 0 1000.1 NA 0.0000 9999 0 0 0 0
2019/03/13 03:35:00 BASE 4.71 301 5.14 301 -1.6 94 -2.4 0 0 1000.1 NA 0.0000 9999 0 0 0 0
2019/03/13 03:36:00 BASE 4.41 306 5.14 301 -1.5 94 -2.4 0 0 1000.1 NA 0.0000 9999 0 0 0 0
2019/03/13 03:37:00 BASE 4.19 304 5.14 301 -1.5 93 -2.5 0 0 1000.1 NA 0.0000 9999 0 0 0 0
2019/03/13 03:38:00 BASE 4.13 308 5.14 301 -1.5 93 -2.5 0 0 1000.0 NA 0.0000 9999 0 0 0 0
2019/03/13 03:39:00 BASE 4.24 314 5.30 308 -1.5 93 -2.5 0 0 1000.0 NA 0.0000 9999 0 0 0 0
2019/03/13 03:40:00 BASE 4.30 321 5.30 308 -1.5 92 -2.6 0 0 1000.1 NA 0.0000 9999 0 0 0 0
2019/03/13 03:41:00 BASE 4.04 326 5.30 308 -1.5 92 -2.6 0 0 1000.1 NA 0.0000 9999 0 0 0 0
2019/03/13 03:42:00 BASE 4.26 329 5.30 308 -1.5 92 -2.6 0 0 1000.1 NA 0.0000 9999 0 0 0 0
2019/03/13 03:43:00 BASE 4.30 331 5.30 308 -1.6 93 -2.6 0 0 1000.0 NA 0.0000 9999 0 0 0 0
2019/03/13 03:44:00 BASE 3.73 332 5.30 308 -1.6 93 -2.6 0 0 1000.0 NA 0.0000 9999 0 0 0 0
2019/03/13 03:45:00 BASE 3.90 335 5.30 308 -1.7 93 -2.6 0 0 999.9 NA 0.0000 9999 0 0 0 0
2019/03/13 03:46:00 BASE 4.46 337 5.30 308 -1.7 94 -2.6 0 0 999.9 NA 0.0000 9999 0 0 0 0
2019/03/13 03:47:00 BASE 4.20 337 5.30 308 -1.7 94 -2.6 0 0 999.9 NA 0.0000 9999 0 0 0 0
2019/03/13 03:48:00 BASE 3.77 332 5.30 308 -1.7 94 -2.5 0 0 999.9 NA 0.0000 9999 0 0 0 0
2019/03/13 03:49:00 BASE 3.81 332 4.99 330 -1.7 94 -2.5 0 0 999.9 NA 0.0000 9999 0 0 0 0
2019/03/13 03:50:00 BASE 3.95 334 4.99 330 -1.7 94 -2.5 0 0 999.9 NA 0.0000 9999 0 0 0 0
2019/03/13 03:51:00 BASE 3.70 338 4.99 330 -1.7 94 -2.5 0 0 999.9 NA 0.0000 9999 0 0 0 0
2019/03/13 03:52:00 BASE 3.69 340 4.99 330 -1.6 94 -2.5 0 0 999.9 NA 0.0000 9999 0 0 0 0
2019/03/13 03:53:00 BASE 4.08 335 4.99 330 -1.6 94 -2.5 0 0 999.9 NA 0.0000 9999 0 0 0 0
2019/03/13 03:54:00 BASE 4.17 331 4.99 330 -1.7 94 -2.5 0 0 999.9 NA 0.0000 9999 0 0 0 0
2019/03/13 03:55:00 BASE 4.13 329 4.99 330 -1.7 94 -2.5 0 0 1000.0 NA 0.0000 9999 0 0 0 0
2019/03/13 03:56:00 BASE 4.13 330 4.68 329 -1.7 94 -2.5 0 0 1000.0 NA 0.0000 9999 0 0 0 0
2019/03/13 03:57:00 BASE 4.23 320 5.35 306 -1.7 94 -2.5 0 0 1000.1 NA 0.0000 9999 0 0 0 0
2019/03/13 03:58:00 BASE 4.29 306 5.35 306 -1.7 94 -2.5 0 0 1000.1 NA 0.0000 9999 0 0 0 0
2019/03/13 03:59:00 BASE 4.26 300 5.35 306 -1.6 94 -2.4 0 0 1000.1 NA 0.0000 9999 0 0 0 0
2019/03/13 04:00:00 BASE 3.86 302 5.35 306 -1.6 94 -2.3 0 0 1000.1 NA 0.0000 9999 0 0 0 0
2019/03/13 04:01:00 BASE 2.96 310 5.35 306 -1.5 94 -2.3 0 0 1000.1 NA 0.0000 9999 0 0 0 0
2019/03/13 04:02:00 BASE 3.24 309 5.35 306 -1.5 94 -2.2 0 0 1000.0 NA 0.0000 9999 0 0 0 0
2019/03/13 04:03:00 BASE 4.24 308 5.35 306 -1.5 94 -2.3 0 0 1000.0 NA 0.0000 9999 0 0 0 0
2019/03/13 04:04:00 BASE 4.15 296 5.45 265 -1.4 94 -2.3 0 0 999.9 NA 0.0000 9999 0 0 0 0
2019/03/13 04:05:00 BASE 4.36 283 6.43 283 -1.4 94 -2.3 0 0 999.9 NA 0.0000 9999 0 0 0 0
2019/03/13 04:06:01 BASE 4.73 283 6.43 283 -1.4 94 -2.3 0 0 M NA 0.0000 M 0 0 0 0
2019/03/13 04:07:00 BASE 5.53 283 6.43 283 -1.4 93 -2.4 0 0 999.9 NA 0.0000 9999 0 0 0 0
2019/03/13 04:08:00 BASE 5.24 278 6.43 283 -1.4 92 -2.6 0 0 999.9 NA 0.0000 9999 0 0 0 0
2019/03/13 04:09:00 BASE 4.92 274 6.43 283 -1.3 90 -2.7 0 0 999.9 NA 0.0000 9999 0 0 0 0
2019/03/13 04:10:00 BASE 4.42 275 6.43 283 -1.3 89 -2.9 0 0 999.9 NA 0.0000 9999 0 0 0 0
2019/03/13 04:11:00 BASE 4.15 284 6.43 283 -1.3 89 -2.9 0 0 999.9 NA 0.0000 9999 0 0 0 0
2019/03/13 04:12:00 BASE 4.37 295 6.43 283 -1.2 88 -2.9 0 0 999.9 NA 0.0000 9999 0 0 0 0
2019/03/13 04:13:00 BASE 3.98 316 6.43 283 -1.2 88 -3.0 0 0 999.9 NA 0.0000 9999 0 0 0 0
2019/03/13 04:14:00 BASE 3.69 332 6.43 283 -1.3 88 -3.0 0 0 999.9 NA 0.0000 9999 0 0 0 0
2019/03/13 04:15:29 BASE 4.36 297 6.43 283 -1.3 89 -2.9 0 0 999.9 NA 0.0000 9999 0 0 0 0
2019/03/13 04:16:00 BASE 3.76 280 5.86 298 -1.4 89 -2.9 0 0 1000.0 NA 0.0000 9999 0 0 0 0
2019/03/13 04:17:00 BASE 2.68 278 5.86 298 -1.4 90 -2.8 0 0 999.9 NA 0.0000 9999 0 0 0 0
2019/03/13 04:18:00 BASE 1.74 279 5.86 298 -1.4 91 -2.7 0 0 999.9 NA 0.0000 9999 0 0 0 0
2019/03/13 04:19:00 BASE 2.06 286 5.86 298 -1.4 91 -2.7 0 0 999.9 NA 0.0000 9999 0 0 0 0
2019/03/13 04:20:00 BASE 2.68 289 5.86 298 -1.4 91 -2.7 0 0 999.9 NA 0.0000 9999 0 0 0 0
2019/03/13 04:21:00 BASE 2.30 298 5.86 298 -1.4 91 -2.7 0 0 999.9 NA 0.0000 9999 0 0 0 0
2019/03/13 04:22:00 BASE 2.35 321 5.86 298 -1.4 91 -2.7 0 0 999.8 NA 0.0000 9999 0 0 0 0
2019/03/13 04:23:00 BASE 2.97 329 5.86 298 -1.4 91 -2.7 0 0 999.8 NA 0.0000 9999 0 0 0 0
2019/03/13 04:24:00 BASE 3.78 319 5.86 298 -1.4 91 -2.7 0 0 999.8 NA 0.0000 9999 0 0 0 0
2019/03/13 04:25:00 BASE 4.24 309 5.45 316 -1.4 91 -2.6 0 0 999.8 NA 0.0000 9999 0 0 0 0
2019/03/13 04:26:00 BASE 4.88 308 5.92 310 -1.4 92 -2.6 0 0 999.7 NA 0.0000 9999 0 0 0 0
2019/03/13 04:27:00 BASE 4.99 306 5.92 310 -1.4 92 -2.5 0 0 999.8 NA 0.0000 9999 0 0 0 0
2019/03/13 04:28:00 BASE 4.07 297 5.92 310 -1.4 92 -2.5 0 0 999.8 NA 0.0000 9999 0 0 0 0
2019/03/13 04:29:00 BASE 3.79 291 5.92 310 -1.3 92 -2.5 0 0 999.8 NA 0.0000 9999 0 0 0 0
2019/03/13 04:30:00 BASE 3.92 290 5.92 310 -1.3 90 -2.7 0 0 999.7 NA 0.0000 9999 0 0 0 0
2019/03/13 04:31:00 BASE 3.76 293 5.92 310 -1.3 89 -2.9 0 0 999.8 NA 0.0000 9999 0 0 0 0
2019/03/13 04:32:00 BASE 3.63 296 5.92 310 -1.3 88 -3.0 0 0 999.8 NA 0.0000 9999 0 0 0 0
2019/03/13 04:33:00 BASE 3.55 298 5.92 310 -1.2 87 -3.1 0 0 999.8 NA 0.0000 9999 0 0 0 0
2019/03/13 04:34:00 BASE 3.87 294 5.92 310 -1.2 87 -3.1 0 0 999.8 NA 0.0000 9999 0 0 0 0
2019/03/13 04:35:00 BASE 4.37 281 5.92 310 -1.2 87 -3.1 0 0 999.8 NA 0.0000 9999 0 0 0 0
2019/03/13 04:36:00 BASE 5.14 263 6.58 247 -1.2 87 -3.1 0 0 999.8 NA 0.0000 9999 0 0 0 0
2019/03/13 04:37:00 BASE 5.23 268 6.58 247 -1.2 87 -3.1 0 0 999.8 NA 0.0000 9999 0 0 0 0
2019/03/13 04:38:00 BASE 5.00 296 6.58 247 -1.2 87 -3.1 0 0 999.8 NA 0.0000 9999 0 0 0 0
2019/03/13 04:39:00 BASE 4.86 310 6.58 247 -1.2 87 -3.1 0 0 999.8 NA 0.0000 9999 0 0 0 0
2019/03/13 04:40:00 BASE 3.97 320 6.58 247 -1.2 87 -3.0 0 0 999.8 NA 0.0000 9999 0 0 0 0
2019/03/13 04:41:00 BASE 3.03 312 6.58 247 -1.2 88 -3.0 0 0 999.9 NA 0.0000 9999 0 0 0 0
2019/03/13 04:42:00 BASE 2.86 294 6.58 247 -1.3 88 -2.9 0 0 999.9 NA 0.0000 9999 0 0 0 0
2019/03/13 04:43:00 BASE 3.16 293 6.58 247 -1.3 89 -2.9 0 0 999.8 NA 0.0000 9999 0 0 0 0
2019/03/13 04:44:00 BASE 3.27 300 6.58 247 -1.3 89 -2.8 0 0 999.8 NA 0.0000 9999 0 0 0 0
2019/03/13 04:45:00 BASE 3.73 294 6.58 247 -1.3 90 -2.8 0 0 999.9 NA 0.0000 9999 0 0 0 0
2019/03/13 04:46:00 BASE 3.99 284 5.61 312 -1.3 90 -2.7 0 0 999.9 NA 0.0000 9999 0 0 0 0
2019/03/13 04:47:00 BASE 3.80 296 5.61 312 -1.3 90 -2.8 0 0 999.9 NA 0.0000 9999 0 0 0 0
2019/03/13 04:48:00 BASE 4.22 308 7.61 318 -1.3 90 -2.8 0 0 999.9 NA 0.0000 9999 0 0 0 0
2019/03/13 04:49:00 BASE 4.09 300 7.61 318 -1.3 90 -2.7 0 0 999.9 NA 0.0000 9999 0 0 0 0
2019/03/13 04:50:00 BASE 3.91 292 7.61 318 -1.3 90 -2.8 0 0 999.9 NA 0.0000 9999 0 0 0 0
2019/03/13 04:51:00 BASE 4.19 297 7.61 318 -1.3 90 -2.7 0 0 999.9 NA 0.0000 9999 0 0 0 0
2019/03/13 04:52:01 BASE 3.28 318 7.61 318 -1.3 90 -2.7 0 0 999.9 NA 0.0000 9999 0 0 0 0
2019/03/13 04:53:01 BASE 2.44 327 7.61 318 -1.3 90 -2.7 0 0 999.9 NA 0.0000 9999 0 0 0 0
2019/03/13 04:54:00 BASE 1.97 311 7.61 318 -1.4 90 -2.7 0 0 1000.0 NA 0.0000 9999 0 0 0 0
2019/03/13 04:55:00 BASE 1.48 279 7.61 318 -1.4 91 -2.7 0 0 1000.1 NA 0.0000 9999 0 0 0 0
2019/03/13 04:56:01 BASE 2.80 260 7.61 318 -1.5 92 -2.6 0 0 1000.0 NA 0.0000 9999 0 0 0 0
2019/03/13 04:57:00 BASE 3.42 264 7.61 318 -1.5 92 -2.6 0 0 1000.0 NA 0.0000 9999 0 0 0 0
2019/03/13 04:58:00 BASE 2.52 277 5.35 260 -1.4 93 -2.5 0 0 1000.0 NA 0.0000 9999 0 0 0 0
2019/03/13 04:59:00 BASE 3.14 282 5.35 260 -1.4 92 -2.4 0 0 1000.0 NA 0.0000 9999 0 0 0 0
2019/03/13 05:00:01 BASE 3.16 278 5.35 260 -1.3 92 -2.4 0 0 1000.0 NA 0.0000 9999 0 0 0 0
2019/03/13 05:01:01 BASE 2.64 284 5.35 260 -1.2 91 -2.5 0 0 1000.1 NA 0.0000 9999 0 0 0 0
2019/03/13 05:02:00 BASE 3.01 283 5.35 260 -1.2 91 -2.5 0 0 1000.1 NA 0.0000 9999 0 0 0 0
2019/03/13 05:03:00 BASE 2.87 300 5.35 260 -1.1 90 -2.6 0 0 1000.1 NA 0.0000 9999 0 0 0 0
2019/03/13 05:04:00 BASE 2.17 332 5.35 260 -1.2 90 -2.6 0 0 1000.1 NA 0.0000 9999 0 0 0 0
2019/03/13 05:05:00 BASE 1.51 335 5.35 260 -1.2 90 -2.7 0 0 1000.1 NA 0.0000 9999 0 0 0 0
2019/03/13 05:06:00 BASE 1.79 329 4.73 274 -1.3 90 -2.7 0 0 1000.1 NA 0.0000 9999 0 0 0 0
2019/03/13 05:07:00 BASE 2.58 329 4.73 274 -1.3 90 -2.7 0 0 1000.1 NA 0.0000 9999 0 0 0 0
2019/03/13 05:08:01 BASE 3.04 322 4.73 274 -1.4 91 -2.7 0 0 1000.2 NA 0.0000 9999 0 0 0 0
2019/03/13 05:09:00 BASE 3.39 313 4.53 304 -1.4 91 -2.7 0 0 1000.2 NA 0.0000 9999 0 0 0 0
2019/03/13 05:10:00 BASE 3.73 316 4.78 312 -1.4 92 -2.6 0 0 1000.2 NA 0.0000 9999 0 0 0 0
2019/03/13 05:11:01 BASE 3.32 309 4.78 312 -1.4 92 -2.5 0 0 1000.2 NA 0.0000 9999 0 0 0 0
2019/03/13 05:12:00 BASE 2.69 272 4.78 312 -1.3 92 -2.5 0 0 1000.2 NA 0.0000 9999 2720 0 0 0
2019/03/13 05:13:00 BASE 1.37 266 4.78 312 -1.3 91 -2.5 0 0 1000.2 NA 0.0000 9999 0 0 0 0
2019/03/13 05:14:01 BASE 0.35 314 4.78 312 -1.2 91 -2.6 0 0 1000.2 NA 0.0000 9999 0 0 0 0
2019/03/13 05:15:00 BASE 1.03 355 4.78 312 -1.2 90 -2.7 0 0 1000.2 NA 0.0000 9999 0 0 0 0
2019/03/13 05:16:00 BASE 0.93 343 4.78 312 -1.3 90 -2.7 0 0 1000.2 NA 0.0000 9999 0 0 0 0
2019/03/13 05:17:00 BASE 0.61 328 4.78 312 -1.3 90 -2.7 0 0 1000.2 NA 0.0000 9999 0 0 0 0
2019/03/13 05:18:00 BASE 0.59 313 4.78 312 -1.3 90 -2.7 0 0 1000.2 NA 0.0000 9999 0 0 0 0
2019/03/13 05:19:00 BASE 0.44 303 4.78 312 -1.3 90 -2.6 0 0 1000.3 NA 0.0000 9999 0 0 0 0
2019/03/13 05:20:00 BASE 1.33 311 3.91 331 -1.2 91 -2.5 0 0 1000.2 NA 0.0000 9999 0 0 0 0
2019/03/13 05:21:00 BASE 2.28 329 3.24 237 -1.2 91 -2.5 0 0 1000.2 NA 0.0000 9999 2620 0 0 0
2019/03/13 05:22:01 BASE 2.10 342 2.88 328 -1.2 91 -2.5 0 0 1000.3 NA 0.0000 9999 2620 0 0 0
2019/03/13 05:23:01 BASE 1.56 349 2.88 328 -1.1 90 -2.5 0 0 1000.3 NA 0.0000 9999 2590 0 0 0
2019/03/13 05:24:00 BASE 1.49 0 2.88 328 -1.2 90 -2.6 0 0 1000.2 NA 0.0000 9999 2590 0 0 0
2019/03/13 05:25:00 BASE 1.63 12 2.88 328 -1.2 90 -2.6 0 0 1000.3 NA 0.0000 9999 2620 0 0 0
2019/03/13 05:26:00 BASE 1.23 9 2.88 328 -1.3 91 -2.6 0 0 1000.3 NA 0.0000 9999 2620 0 0 0
2019/03/13 05:27:00 BASE 1.17 19 2.88 328 -1.3 91 -2.6 0 0 1000.2 NA 0.0000 9999 2660 0 0 0
2019/03/13 05:28:00 BASE 1.60 33 2.88 328 -1.4 92 -2.6 0 0 1000.2 NA 0.0000 9999 2560 0 0 0
2019/03/13 05:29:00 BASE 1.53 32 2.88 328 -1.4 92 -2.5 0 0 1000.2 NA 0.0000 9999 2560 0 0 0
2019/03/13 05:30:00 BASE 1.18 31 2.68 353 -1.5 93 -2.5 0 0 1000.2 NA 0.0000 9999 2560 0 0 0
2019/03/13 05:31:01 BASE 1.41 34 2.68 353 -1.5 93 -2.5 0 0 1000.2 NA 0.0000 9999 2560 0 0 0
2019/03/13 05:32:00 BASE 2.51 34 3.45 33 -1.5 93 -2.5 0 0 1000.1 NA 0.0000 9999 2560 0 0 0
2019/03/13 05:33:00 BASE 3.22 21 3.65 4 -1.5 93 -2.5 0 0 1000.1 NA 0.0000 9999 2590 0 0 0
2019/03/13 05:34:00 BASE 2.84 16 3.65 4 -1.4 93 -2.5 0 0 1000.1 NA 0.0000 9999 2590 0 0 0
2019/03/13 05:35:00 BASE 2.47 26 3.65 4 -1.4 92 -2.5 0 0 1000.1 NA 0.0000 9999 2560 0 0 0
2019/03/13 05:36:00 BASE 2.08 30 3.65 4 -1.3 92 -2.5 0 0 1000.1 NA 0.0000 9999 2560 0 0 0
2019/03/13 05:37:00 BASE 1.88 33 3.65 4 -1.3 91 -2.5 0 0 1000.2 NA 0.0000 9999 2590 0 0 0
2019/03/13 05:38:00 BASE 1.66 34 3.65 4 -1.3 91 -2.6 0 0 1000.2 NA 0.0000 9999 2620 0 0 0
2019/03/13 05:39:00 BASE 1.23 22 3.65 4 -1.3 90 -2.6 0 0 1000.2 NA 0.0000 9999 2560 0 0 0
2019/03/13 05:40:00 BASE 1.53 18 3.65 4 -1.3 90 -2.7 0 0 1000.2 NA 0.0000 9999 2590 0 0 0
2019/03/13 05:41:00 BASE 1.30 27 3.65 4 -1.3 90 -2.7 0 0 1000.2 NA 0.0000 9999 2590 0 0 0
2019/03/13 05:42:01 BASE 0.68 49 3.65 4 -1.3 90 -2.7 0 0 1000.2 NA 0.0000 9999 2590 0 0 0
2019/03/13 05:43:01 BASE 1.03 52 3.14 32 -1.2 90 -2.7 0 0 1000.2 NA 0.0000 9999 2590 0 0 0
2019/03/13 05:44:00 BASE 1.62 37 3.14 32 -1.2 90 -2.7 0 0 1000.2 NA 0.0000 9999 2530 0 0 0
2019/03/13 05:45:00 BASE 1.95 30 2.78 31 -1.2 90 -2.7 0 0 1000.2 NA 0.0000 9999 2560 0 0 0
2019/03/13 05:46:01 BASE 1.72 23 2.78 31 -1.2 89 -2.7 0 0 1000.3 NA 0.0000 9999 2560 0 0 0
2019/03/13 05:47:00 BASE 1.53 33 2.78 31 -1.2 89 -2.7 0 0 1000.3 NA 0.0000 9999 2530 0 0 0
2019/03/13 05:48:00 BASE 1.55 43 2.78 31 -1.2 89 -2.7 0 0 1000.3 NA 0.0000 9999 2560 0 0 0
2019/03/13 05:49:00 BASE 1.49 46 2.78 31 -1.2 89 -2.7 0 0 1000.3 NA 0.0000 9999 2560 0 0 0
2019/03/13 05:50:00 BASE 1.72 41 2.78 31 -1.2 89 -2.7 0 0 1000.3 NA 0.0000 9999 2560 0 0 0
2019/03/13 05:51:00 BASE 1.79 34 2.78 31 -1.2 89 -2.7 0 0 1000.3 NA 0.0000 9999 2590 0 0 0
2019/03/13 05:52:00 BASE 2.07 40 2.78 31 -1.2 89 -2.8 0 0 1000.3 NA 0.0000 9999 2560 0 0 0
2019/03/13 05:53:00 BASE 2.34 44 2.78 31 -1.2 89 -2.8 0 0 1000.3 NA 0.0000 9999 2560 0 0 0
2019/03/13 05:54:00 BASE 2.47 46 2.83 48 -1.2 89 -2.8 0 0 1000.2 NA 0.0000 9999 2490 0 0 0
2019/03/13 05:55:00 BASE 2.69 50 2.93 58 -1.2 89 -2.8 0 0 1000.3 NA 0.0000 9999 2400 0 0 0
2019/03/13 05:56:00 BASE 2.75 43 3.09 36 -1.2 89 -2.8 0 0 1000.3 NA 0.0000 9999 2360 0 0 0
2019/03/13 05:57:00 BASE 2.64 36 3.19 35 -1.2 89 -2.7 0 0 1000.3 NA 0.0000 9999 2400 0 0 0
2019/03/13 05:58:00 BASE 2.30 37 3.19 35 -1.2 89 -2.7 0 0 1000.3 NA 0.0000 9999 2360 0 0 0
2019/03/13 05:59:00 BASE 2.52 41 3.76 53 -1.1 89 -2.7 0 0 1000.3 NA 0.0000 9999 2460 0 0 0
2019/03/13 06:00:00 BASE 3.10 41 3.76 53 -1.1 89 -2.7 0 0 1000.3 NA 0.0000 9999 2530 0 0 0
2019/03/13 06:01:00 BASE 3.07 31 3.76 53 -1.1 89 -2.7 0 0 1000.3 NA 0.0000 9999 2490 0 0 0
2019/03/13 06:02:00 BASE 2.75 29 3.76 53 -1.0 88 -2.7 0 0 1000.3 NA 0.0000 9999 2460 0 0 0
2019/03/13 06:03:00 BASE 2.81 35 3.76 53 -1.0 88 -2.7 0 0 1000.3 NA 0.0000 9999 2490 0 0 0
2019/03/13 06:04:00 BASE 2.92 44 3.76 53 -1.1 88 -2.8 0 0 1000.3 NA 0.0000 9999 2490 0 0 0
2019/03/13 06:05:00 BASE 2.90 53 3.76 53 -1.1 88 -2.8 0 0 1000.2 NA 0.0000 9999 2490 0 0 0
2019/03/13 06:06:00 BASE 2.96 63 3.76 53 -1.1 88 -2.8 0 0 1000.2 NA 0.0000 9999 2460 0 0 0
2019/03/13 06:07:00 BASE 2.72 70 3.76 53 -1.1 88 -2.8 0 0 1000.2 NA 0.0000 9999 2430 0 0 0
2019/03/13 06:08:00 BASE 2.13 81 3.76 53 -1.1 88 -2.8 0 0 1000.2 NA 0.0000 9999 2400 0 0 0
2019/03/13 06:09:00 BASE 1.10 91 3.55 60 -1.1 88 -2.8 0 0 1000.3 NA 0.0000 9999 2490 0 0 0
2019/03/13 06:10:00 BASE 0.45 106 3.55 60 -1.0 88 -2.8 0 0 1000.3 NA 0.0000 9999 2490 0 0 0
2019/03/13 06:11:00 BASE 0.23 93 3.55 60 -1.0 88 -2.8 0 0 1000.3 NA 0.0000 9999 2490 0 0 0
2019/03/13 06:12:00 BASE 0.00 353 3.55 60 -1.1 88 -2.8 0 0 1000.3 NA 0.0000 9999 2490 0 0 0
2019/03/13 06:13:00 BASE 0.00 252 3.55 60 -1.1 88 -2.8 0 0 1000.3 NA 0.0000 9999 2360 0 0 0
2019/03/13 06:14:00 BASE 0.00 222 3.55 60 -1.1 88 -2.8 0 0 1000.3 NA 0.0000 9999 2430 0 0 0
2019/03/13 06:15:00 BASE 0.00 283 3.55 60 -1.1 89 -2.8 0 0 1000.3 NA 0.0000 9999 2490 0 0 0
2019/03/13 06:16:00 BASE 0.00 330 2.98 72 -1.1 89 -2.7 0 0 1000.3 NA 0.0000 9999 2430 0 0 0
2019/03/13 06:17:00 BASE 0.00 324 2.21 91 -1.1 89 -2.6 0 0 1000.3 NA 0.0000 9999 2530 0 0 0
2019/03/13 06:18:00 BASE 0.00 323 1.49 82 -1.1 89 -2.6 0 0 1000.3 NA 0.0000 9999 2490 0 0 0
2019/03/13 06:19:00 BASE 0.00 315 1.18 134 -1.0 89 -2.6 0 0 1000.4 NA 0.0000 9999 2560 0 0 0
2019/03/13 06:20:00 BASE 0.00 260 M M -1.0 89 -2.6 0 0 1000.4 NA 0.0000 9999 2490 0 0 0
2019/03/13 06:21:00 BASE 0.00 232 M M -0.9 88 -2.6 0 0 1000.4 NA 0.0000 9999 2560 0 0 0
2019/03/13 06:22:00 BASE 0.00 232 M M -0.9 88 -2.6 0 0 1000.4 NA 0.0000 9999 2560 0 0 0
2019/03/13 06:23:00 BASE 0.00 233 M M -0.9 88 -2.7 0 0 1000.4 NA 0.0000 9999 2490 0 0 0
2019/03/13 06:24:00 BASE 0.00 234 M M -0.9 88 -2.7 0 0 1000.4 NA 0.0000 9999 2430 0 0 0
2019/03/13 06:25:00 BASE 0.00 234 M M -1.0 88 -2.7 0 0 1000.4 NA 0.0000 9999 2530 0 0 0
2019/03/13 06:26:00 BASE 0.00 238 M M -1.0 88 -2.7 0 0 1000.4 NA 0.0000 9999 2530 0 0 0
2019/03/13 06:27:00 BASE 0.00 249 M M -1.0 89 -2.6 0 0 1000.4 NA 0.0000 9999 2430 0 0 0
2019/03/13 06:28:00 BASE 0.00 250 M M -1.0 89 -2.6 0 0 1000.4 NA 0.0000 9999 2460 0 0 0
2019/03/13 06:29:00 BASE 0.00 243 M M -1.0 89 -2.6 0 0 1000.4 NA 0.0000 9999 2430 0 0 0
2019/03/13 06:30:00 BASE 0.00 250 M M -1.0 89 -2.5 0 0 1000.4 NA 0.0000 9999 2490 0 0 0
2019/03/13 06:31:00 BASE 0.23 266 1.18 275 -1.0 89 -2.5 0 0 1000.4 NA 0.0000 9999 2490 0 0 0
2019/03/13 06:32:00 BASE 0.29 256 1.49 243 -1.0 89 -2.5 0 0 1000.4 NA 0.0000 9999 2490 0 0 0
2019/03/13 06:33:00 BASE 0.88 238 1.90 237 -0.9 89 -2.5 0 0 1000.5 NA 0.0000 9999 2490 0 0 0
2019/03/13 06:34:01 BASE 1.75 246 2.16 260 -0.9 89 -2.5 0 0 1000.5 NA 0.0000 9999 2460 0 0 0
2019/03/13 06:35:00 BASE 1.84 252 2.88 269 -0.9 89 -2.5 0 0 1000.5 NA 0.0000 9999 2460 0 0 0
2019/03/13 06:36:00 BASE 1.91 264 2.88 257 -0.9 89 -2.5 0 0 1000.5 NA 0.0000 9999 2490 0 0 0
2019/03/13 06:37:00 BASE 1.74 281 2.88 257 -0.9 89 -2.4 0 0 1000.5 NA 0.0000 9999 2530 0 0 0
2019/03/13 06:38:00 BASE 1.49 282 2.88 257 -0.9 89 -2.4 0 0 1000.6 NA 0.0000 9999 2560 0 0 0
2019/03/13 06:39:00 BASE 1.34 289 2.88 257 -0.9 90 -2.4 0 0 1000.6 NA 0.0000 9999 2460 0 0 0
2019/03/13 06:40:01 BASE 0.59 312 2.88 257 -0.9 90 -2.4 0 0 1000.6 NA 0.0000 9999 2490 0 0 0
2019/03/13 06:41:00 BASE 0.00 317 2.88 257 -0.9 89 -2.4 0 0 1000.5 NA 0.0000 9999 2460 0 0 0
2019/03/13 06:42:01 BASE 0.00 302 2.88 257 -0.9 89 -2.4 0 0 1000.6 NA 0.0000 9999 2560 0 0 0
2019/03/13 06:43:00 BASE 0.00 284 2.88 257 -0.9 89 -2.4 0 0 1000.7 NA 0.0000 9999 2530 0 0 0
2019/03/13 06:44:00 BASE 0.00 271 2.88 257 -0.9 89 -2.5 0 0 1000.6 NA 0.0000 9999 2490 0 0 0
2019/03/13 06:45:01 BASE 0.00 252 2.88 257 -0.9 89 -2.5 0 0 1000.5 NA 0.0000 9999 2400 0 0 0
2019/03/13 06:46:01 BASE 0.05 245 2.31 271 -0.9 89 -2.4 0 0 1000.5 NA 0.0000 9999 2460 0 0 0
2019/03/13 06:47:00 BASE 0.31 248 2.31 271 -0.9 89 -2.4 0 0 1000.5 NA 0.0000 9999 2330 0 0 0
2019/03/13 06:48:00 BASE 0.99 254 1.95 287 -0.9 90 -2.4 0 0 1000.6 NA 0.0000 9999 2460 0 0 0
2019/03/13 06:49:00 BASE 1.17 262 1.70 274 -0.9 90 -2.4 0 0 1000.5 NA 0.0000 9999 2460 0 0 0
2019/03/13 06:50:00 BASE 0.95 258 1.70 274 -0.9 90 -2.3 0 0 1000.5 NA 0.0000 9999 2460 0 0 0
2019/03/13 06:51:00 BASE 1.34 258 2.06 264 -0.9 90 -2.3 0 0 1000.6 NA 0.0000 9999 2430 0 0 0
2019/03/13 06:52:01 BASE 1.90 265 2.52 272 -0.9 90 -2.3 0 0 1000.7 NA 0.0000 9999 2460 0 0 0
2019/03/13 06:53:00 BASE 2.01 269 2.52 272 -0.9 90 -2.3 0 0 1000.7 NA 0.0000 9999 2460 0 0 0
2019/03/13 06:54:00 BASE 2.19 265 3.14 269 -0.9 90 -2.3 0 0 1000.7 NA 0.0000 9999 2490 0 0 0
2019/03/13 06:55:00 BASE 2.60 264 3.45 253 -0.8 90 -2.3 0 0 1000.7 NA 0.0000 9999 2490 0 0 0
2019/03/13 06:56:00 BASE 2.40 266 3.45 253 -0.8 90 -2.3 0 0 1000.7 NA 0.0000 9999 2560 0 0 0
2019/03/13 06:57:00 BASE 2.36 268 3.45 253 -0.8 90 -2.2 0 0 1000.7 NA 0.0000 9999 2490 0 0 0
2019/03/13 06:58:00 BASE 2.73 261 3.45 253 -0.8 90 -2.2 0 0 1000.7 NA 0.0000 9999 2130 0 0 0
2019/03/13 06:59:00 BASE 2.80 259 3.45 253 -0.8 90 -2.3 0 0 1000.7 NA 0.0000 9999 2400 0 0 0
2019/03/13 07:00:00 BASE 2.58 265 3.45 253 -0.8 90 -2.3 0 0 1000.7 NA 0.0000 9999 2330 0 0 0
2019/03/13 07:01:00 BASE 2.21 260 3.45 253 -0.9 90 -2.3 0 0 1000.7 NA 0.0000 9999 2400 0 0 0
2019/03/13 07:02:00 BASE 2.30 258 3.45 253 -0.9 90 -2.3 0 0 1000.8 NA 0.0000 9999 2400 0 0 0
2019/03/13 07:03:00 BASE 2.34 265 3.45 253 -0.9 90 -2.3 0 0 1000.8 NA 0.0000 9999 2430 0 0 0
2019/03/13 07:04:00 BASE 2.04 265 3.45 253 -0.9 90 -2.3 0 0 1000.7 NA 0.0000 9999 2400 0 0 0
2019/03/13 07:05:00 BASE 1.80 264 3.34 256 -0.9 90 -2.4 0 0 1000.7 NA 0.0000 9999 2360 0 0 0
2019/03/13 07:06:00 BASE 1.65 266 3.34 256 -0.9 90 -2.4 0 0 1000.7 NA 0.0000 9999 2400 0 0 0
2019/03/13 07:07:00 BASE 1.86 272 3.14 259 -0.9 90 -2.4 0 0 1000.7 NA 0.0000 9999 2100 0 0 0
2019/03/13 07:08:00 BASE 2.01 278 3.04 257 -0.9 90 -2.4 0 0 1000.7 NA 0.0000 9999 2330 0 0 0
2019/03/13 07:09:01 BASE 1.80 280 3.04 257 -0.9 89 -2.4 0 0 1000.7 NA 0.0000 9999 2360 0 0 0
2019/03/13 07:10:00 BASE 1.99 277 3.04 257 -0.9 89 -2.4 0 0 1000.7 NA 0.0000 9999 2030 0 0 0
2019/03/13 07:11:00 BASE 2.19 269 3.04 257 -0.9 90 -2.4 0 0 1000.7 NA 0.0000 9999 2430 0 0 0
2019/03/13 07:12:00 BASE 1.83 262 2.83 279 -0.9 89 -2.4 0 0 1000.7 NA 0.0000 9999 2360 0 0 0
2019/03/13 07:13:00 BASE 1.87 265 2.83 279 -0.9 89 -2.4 0 0 1000.7 NA 0.0000 9999 2100 0 0 0
2019/03/13 07:14:00 BASE 1.81 274 2.83 279 -0.9 89 -2.4 0 0 1000.7 NA 0.0000 9999 2330 0 0 0
2019/03/13 07:15:00 BASE 0.99 286 2.83 279 -0.9 89 -2.4 0 0 1000.7 NA 0.0000 9999 2170 0 0 0
2019/03/13 07:16:00 BASE 0.98 291 2.83 279 -0.9 89 -2.5 0 0 1000.6 NA 0.0000 9999 1900 0 0 0
2019/03/13 07:17:00 BASE 1.51 293 2.83 279 -0.9 89 -2.5 0 0 1000.5 NA 0.0000 9999 2400 0 0 0
2019/03/13 07:18:01 BASE 2.01 298 2.83 293 -0.9 89 -2.5 0 0 1000.5 NA 0.0000 9999 2100 0 0 0
2019/03/13 07:19:01 BASE 2.58 296 2.88 295 -0.9 89 -2.5 0 0 1000.5 NA 0.0000 9999 2400 0 0 0
2019/03/13 07:20:01 BASE 2.36 296 2.88 295 -0.9 89 -2.5 0 0 1000.5 NA 0.0000 9999 2360 0 0 0
2019/03/13 07:21:01 BASE 2.21 298 2.88 295 -0.9 89 -2.5 0 0 1000.5 NA 0.0000 9999 2330 0 0 0
2019/03/13 07:22:01 BASE 2.27 295 2.88 295 -0.9 89 -2.5 0 0 1000.5 NA 0.0000 9999 2360 0 0 0
2019/03/13 07:23:01 BASE 2.10 293 2.88 295 -0.9 88 -2.6 0 0 1000.5 NA 0.0000 9999 2230 0 0 0
2019/03/13 07:24:01 BASE 1.82 295 2.88 295 -0.9 88 -2.6 0 0 1000.5 NA 0.0000 9999 2330 0 0 0
2019/03/13 07:25:01 BASE 1.52 298 2.88 295 -0.9 88 -2.6 0 0 1000.5 NA 0.0000 9999 2330 0 0 0
2019/03/13 07:26:01 BASE 1.34 305 2.88 295 -0.9 88 -2.6 0 0 1000.5 NA 0.0000 9999 2330 0 0 0
2019/03/13 07:27:01 BASE 1.18 312 2.88 295 -0.9 88 -2.6 0 0 1000.4 NA 0.0000 9999 2490 0 0 0
2019/03/13 07:28:00 BASE 0.87 316 2.88 295 -0.9 88 -2.6 0 0 1000.4 NA 0.0000 9999 2690 0 0 0
2019/03/13 07:29:00 BASE 0.31 320 2.47 302 -0.9 88 -2.6 0 0 1000.4 NA 0.0000 9999 2430 2850 0 0
2019/03/13 07:30:01 BASE 0.00 328 2.47 302 -0.9 88 -2.6 0 0 1000.4 NA 0.0000 9999 2400 0 0 0
2019/03/13 07:31:00 BASE 0.07 358 2.31 299 -0.9 89 -2.6 0 0 1000.4 NA 0.0000 9999 2360 0 0 0
2019/03/13 07:32:00 BASE 0.77 33 2.21 292 -0.9 89 -2.5 0 0 1000.4 NA 0.0000 9999 2360 0 0 0
2019/03/13 07:33:00 BASE 1.30 45 1.80 54 -1.0 90 -2.4 0 0 1000.4 NA 0.0000 9999 2360 0 0 0
2019/03/13 07:34:00 BASE 1.15 46 1.80 54 -1.0 91 -2.3 0 0 1000.4 NA 0.0000 9999 2400 0 0 0
2019/03/13 07:35:00 BASE 1.04 44 1.80 54 -1.1 92 -2.2 0 0 1000.4 NA 0.0000 9999 2530 0 0 0
2019/03/13 07:36:00 BASE 1.15 46 1.80 54 -1.1 93 -2.1 0 0 1000.4 NA 0.0000 9999 2530 0 0 0
2019/03/13 07:37:00 BASE 0.91 47 1.80 54 -1.1 93 -2.0 0 0 1000.4 NA 0.0000 9999 2460 0 0 0
2019/03/13 07:38:00 BASE 0.61 54 1.80 54 -1.1 94 -2.0 0 0 1000.4 NA 0.0000 9999 2400 0 0 0
2019/03/13 07:39:00 BASE 0.80 67 1.80 54 -1.1 94 -1.9 0 0 1000.4 NA 0.0000 9999 2400 0 0 0
2019/03/13 07:40:00 BASE 0.43 72 1.80 54 -1.1 94 -1.9 0 0 1000.4 NA 0.0000 9999 2400 0 0 0
2019/03/13 07:41:00 BASE 0.04 72 1.80 54 -1.1 94 -1.9 0 0 1000.4 NA 0.0000 9999 2360 0 0 0
2019/03/13 07:42:00 BASE 0.09 63 1.54 51 -1.1 94 -1.9 0 0 1000.4 NA 0.0000 9999 2300 0 0 0
2019/03/13 07:43:00 BASE 0.23 53 1.49 49 -1.1 94 -1.9 0 0 1000.4 NA 0.0000 9999 2360 0 0 0
2019/03/13 07:44:00 BASE 0.54 50 1.49 49 -1.1 94 -1.9 0 0 1000.4 NA 0.0000 9999 2400 0 0 0
2019/03/13 07:45:00 BASE 0.72 51 1.49 49 -1.1 95 -1.9 0 0 1000.5 NA 0.0000 9999 2460 0 0 0
2019/03/13 07:46:00 BASE 0.67 56 1.39 47 -1.1 95 -1.9 0 0 1000.5 NA 0.0000 9999 2560 0 0 0
2019/03/13 07:47:00 BASE 0.40 60 1.39 47 -1.1 95 -1.8 0 0 1000.5 NA 0.0000 9999 2530 0 0 0
2019/03/13 07:48:00 BASE 0.09 65 1.39 47 -1.1 95 -1.9 0 0 1000.5 NA 0.0000 9999 2560 0 0 0
2019/03/13 07:49:01 BASE 0.00 62 1.39 47 -1.2 95 -1.9 0 0 1000.5 NA 0.0000 9999 2620 0 0 0
2019/03/13 07:50:01 BASE 0.04 59 1.39 47 -1.2 95 -1.9 0 0 1000.5 NA 0.0000 9999 2490 0 0 0
2019/03/13 07:51:01 BASE 0.09 50 1.39 47 -1.2 95 -1.9 0 0 1000.5 NA 0.0000 9999 2490 0 0 0
2019/03/13 07:52:01 BASE 0.13 37 1.39 47 -1.2 95 -1.9 0 0 1000.5 NA 0.0000 9999 2490 0 0 0
2019/03/13 07:53:01 BASE 0.45 37 1.39 42 -1.2 95 -1.9 0 0 1000.5 NA 0.0000 9999 2460 0 0 0
2019/03/13 07:54:01 BASE 0.93 37 1.39 38 -1.2 95 -1.9 0 0 1000.4 NA 0.0000 9999 2430 0 0 0
2019/03/13 07:55:01 BASE 1.17 36 1.39 30 -1.2 95 -1.9 0 0 1000.4 NA 0.0000 9999 2400 0 0 0
2019/03/13 07:56:01 BASE 1.32 44 1.65 49 -1.2 95 -1.9 0 0 1000.4 NA 0.0000 9999 2460 0 0 0
2019/03/13 07:57:01 BASE 1.49 49 1.70 47 -1.2 94 -2.0 0 0 1000.4 NA 0.0000 9999 2560 0 0 0
2019/03/13 07:58:01 BASE 1.61 48 1.80 47 -1.2 94 -2.0 0 0 1000.4 NA 0.0000 9999 2490 0 0 0
2019/03/13 07:59:01 BASE 1.65 48 1.80 47 -1.2 94 -2.0 0 0 1000.4 NA 0.0000 9999 0 0 0 0
2019/03/13 08:00:01 BASE 1.68 50 1.90 57 -1.2 94 -2.0 0 0 1000.3 NA 0.0000 9999 0 0 0 0
2019/03/13 08:01:01 BASE 1.68 51 1.90 57 -1.2 94 -2.0 0 0 1000.3 NA 0.0000 9999 2590 0 0 0
2019/03/13 08:02:01 BASE 1.59 48 1.90 57 -1.2 95 -2.0 0 0 1000.3 NA 0.0000 9999 2530 0 0 0
2019/03/13 08:03:01 BASE 1.54 47 1.90 57 -1.2 95 -1.9 0 0 1000.3 NA 0.0000 9999 2490 0 0 0
2019/03/13 08:04:01 BASE 1.54 49 1.90 57 -1.2 95 -1.9 0 0 1000.3 NA 0.0000 9999 2490 0 0 0
2019/03/13 08:05:01 BASE 1.50 55 1.90 57 -1.2 95 -1.9 0 0 1000.3 NA 0.0000 9999 2490 0 0 0
2019/03/13 08:06:01 BASE 1.39 61 1.90 57 -1.2 95 -1.9 0 0 1000.3 NA 0.0000 9999 2490 0 0 0
2019/03/13 08:07:00 BASE 1.33 68 1.90 57 -1.2 95 -1.9 0 0 1000.3 NA 0.0000 9999 2460 0 0 0
2019/03/13 08:08:00 BASE 1.24 68 1.90 57 -1.2 95 -1.9 0 0 1000.3 NA 0.0000 9999 2460 0 0 0
2019/03/13 08:09:00 BASE 0.83 63 1.90 57 -1.2 95 -1.9 0 0 1000.3 NA 0.0000 9999 2530 0 0 0
2019/03/13 08:10:01 BASE 0.65 63 1.80 52 -1.2 95 -1.9 0 0 1000.3 NA 0.0000 9999 2430 0 0 0
2019/03/13 08:11:00 BASE 0.67 65 1.80 52 -1.2 95 -1.9 0 0 1000.3 NA 0.0000 9999 2400 0 0 0
2019/03/13 08:12:01 BASE 0.52 68 1.70 52 -1.3 95 -2.0 0 0 1000.3 NA 0.0000 9999 2400 0 0 0
2019/03/13 08:13:00 BASE 0.29 66 1.70 52 -1.3 95 -2.0 0 0 1000.3 NA 0.0000 9999 2430 0 0 0
2019/03/13 08:14:00 BASE 0.05 63 1.65 58 -1.3 95 -2.0 0 0 1000.3 NA 0.0000 9999 2400 0 0 0
2019/03/13 08:15:00 BASE 0.04 62 1.44 71 -1.2 95 -1.9 0 0 1000.3 NA 0.0000 9999 2330 0 0 0
2019/03/13 08:16:00 BASE 0.04 62 1.44 71 -1.2 95 -1.9 0 0 1000.3 NA 0.0000 9999 2330 0 0 0
2019/03/13 08:17:00 BASE 0.00 62 1.39 61 -1.2 94 -2.0 0 0 1000.3 NA 0.0000 9999 2360 0 0 0
2019/03/13 08:18:00 BASE 0.41 66 1.39 61 -1.1 94 -2.0 0 0 1000.3 NA 0.0000 9999 2360 0 0 0
2019/03/13 08:19:00 BASE 1.01 73 1.34 74 -1.1 94 -2.0 0 0 1000.3 NA 0.0000 9999 2400 0 0 0
2019/03/13 08:20:01 BASE 1.18 76 1.34 74 -1.1 93 -2.1 0 0 1000.3 NA 0.0000 9999 2330 0 0 0
2019/03/13 08:21:00 BASE 0.85 78 1.34 74 -1.1 93 -2.1 0 0 1000.3 NA 0.0000 9999 2330 0 0 0
2019/03/13 08:22:01 BASE 0.54 81 1.34 74 -1.2 93 -2.1 0 0 1000.3 NA 0.0000 9999 2300 0 0 0
2019/03/13 08:23:01 BASE 0.84 82 1.34 74 -1.2 93 -2.2 0 0 1000.3 NA 0.0000 9999 2330 0 0 0
2019/03/13 08:24:01 BASE 1.16 78 1.34 74 -1.1 93 -2.2 0 0 1000.3 NA 0.0000 9999 2300 0 0 0
2019/03/13 08:25:01 BASE 1.26 74 1.39 73 -1.1 92 -2.2 0 0 1000.3 NA 0.0000 9999 2260 0 0 0
2019/03/13 08:26:01 BASE 1.29 73 1.39 73 -1.0 92 -2.2 0 0 1000.3 NA 0.0000 9999 2300 0 0 0
2019/03/13 08:27:00 BASE 1.20 73 1.39 73 -1.0 91 -2.3 0 0 1000.3 NA 0.0000 9999 2360 0 0 0
2019/03/13 08:28:00 BASE 1.17 73 1.39 73 -1.0 91 -2.3 0 0 1000.3 NA 0.0000 9999 2400 3150 0 0
2019/03/13 08:29:00 BASE 1.10 80 1.39 73 -1.0 90 -2.4 0 0 1000.3 NA 0.0000 9999 2260 0 0 0
2019/03/13 08:30:00 BASE 0.51 86 1.39 73 -1.0 90 -2.5 0 0 1000.3 NA 0.0000 9999 2300 0 0 0
2019/03/13 08:31:00 BASE 0.09 82 1.39 73 -1.0 89 -2.5 0 0 1000.3 NA 0.0000 9999 2300 0 0 0
2019/03/13 08:32:00 BASE 0.42 78 1.39 73 -1.0 89 -2.6 0 0 1000.3 NA 0.0000 9999 2300 0 0 0
2019/03/13 08:33:00 BASE 0.33 82 1.39 73 -1.0 89 -2.6 0 0 1000.3 NA 0.0000 9999 2200 0 0 0
2019/03/13 08:34:00 BASE 0.00 87 1.39 73 -1.0 89 -2.6 0 0 1000.3 NA 0.0000 9999 2170 0 0 0
2019/03/13 08:35:01 BASE 0.05 89 1.29 74 -1.0 89 -2.6 0 0 1000.3 NA 0.0000 9999 2230 0 0 0
2019/03/13 08:36:01 BASE 0.05 80 1.29 74 -1.0 89 -2.6 0 0 1000.3 NA 0.0000 9999 2170 0 0 0
2019/03/13 08:37:01 BASE 0.00 69 1.29 74 -1.0 89 -2.6 0 0 1000.3 NA 0.0000 9999 2260 0 0 0
2019/03/13 08:38:01 BASE 0.00 63 1.18 84 -1.0 89 -2.6 0 0 1000.3 NA 0.0000 9999 2230 0 0 0
2019/03/13 08:39:01 BASE 0.00 61 1.18 84 -0.9 89 -2.6 0 0 1000.3 NA 0.0000 9999 2200 0 0 0
2019/03/13 08:40:01 BASE 0.00 61 1.18 84 -0.9 88 -2.6 0 0 1000.3 NA 0.0000 9999 2200 0 0 0
2019/03/13 08:41:01 BASE 0.00 61 1.18 84 -0.9 88 -2.6 0 0 1000.3 NA 0.0000 9999 2300 0 0 0
2019/03/13 08:42:01 BASE 0.00 61 1.08 91 -0.9 88 -2.7 0 0 1000.3 NA 0.0000 9999 2230 0 0 0
2019/03/13 08:43:01 BASE 0.00 62 1.08 91 -0.9 88 -2.7 0 0 1000.3 NA 0.0000 9999 2200 0 0 0
2019/03/13 08:44:01 BASE 0.00 63 1.08 91 -0.9 88 -2.7 0 0 1000.3 NA 0.0000 9999 2260 0 0 0
2019/03/13 08:45:01 BASE 0.00 60 M M -0.9 88 -2.7 0 0 1000.3 NA 0.0000 9999 2200 0 0 0
2019/03/13 08:46:01 BASE 0.00 57 M M -0.9 88 -2.7 0 0 1000.2 NA 0.0000 9999 2230 0 0 0
2019/03/13 08:47:00 BASE 0.00 57 M M -0.9 88 -2.7 0 0 1000.3 NA 0.0000 9999 2230 0 0 0
2019/03/13 08:48:01 BASE 0.00 57 M M -0.9 88 -2.6 0 0 1000.2 NA 0.0000 9999 2230 0 0 0
2019/03/13 08:49:01 BASE 0.00 57 M M -0.9 88 -2.6 0 0 1000.2 NA 0.0000 9999 2100 0 0 0
2019/03/13 08:50:01 BASE 0.00 65 M M -0.9 88 -2.7 0 0 1000.2 NA 0.0000 9999 2100 0 0 0
2019/03/13 08:51:01 BASE 0.00 88 M M -0.9 88 -2.7 0 0 1000.2 NA 0.0000 9999 2170 0 0 0
2019/03/13 08:52:00 BASE 0.00 103 M M -0.9 88 -2.7 0 0 1000.2 NA 0.0000 9999 2170 0 0 0
2019/03/13 08:53:00 BASE 0.00 100 M M -1.0 88 -2.7 0 0 1000.2 NA 0.0000 9999 2170 0 0 0
2019/03/13 08:54:01 BASE 0.00 87 M M -1.0 88 -2.7 0 0 1000.2 NA 0.0000 9999 2170 0 0 0
2019/03/13 08:55:01 BASE 0.00 76 M M -1.0 89 -2.6 0 0 1000.2 NA 0.0000 9999 2130 0 0 0
2019/03/13 08:56:01 BASE 0.00 73 M M -1.0 89 -2.5 0 0 1000.2 NA 0.0000 9999 2200 0 0 0
2019/03/13 08:57:00 BASE 0.00 73 M M -1.0 90 -2.5 0 0 1000.2 NA 0.0000 9999 2200 0 0 0
2019/03/13 08:58:00 BASE 0.00 73 M M -0.9 90 -2.4 0 0 1000.2 NA 0.0000 9999 2200 0 0 0
2019/03/13 08:59:00 BASE 0.00 75 M M -0.9 89 -2.4 0 0 1000.2 NA 0.0000 9999 2130 0 0 0
2019/03/13 09:00:00 BASE 0.00 85 M M -0.9 89 -2.5 0 0 1000.1 NA 0.0000 9999 2100 0 0 0
2019/03/13 09:01:00 BASE 0.00 92 M M -0.9 89 -2.5 0 0 1000.1 NA 0.0000 9999 2170 0 0 0
2019/03/13 09:02:00 BASE 0.00 91 M M -1.0 89 -2.5 0 0 1000.2 NA 0.0000 9999 2230 0 0 0
2019/03/13 09:03:00 BASE 0.00 91 M M -1.0 89 -2.5 0 0 1000.2 NA 0.0000 9999 2260 0 0 0
2019/03/13 09:04:00 BASE 0.00 90 M M -1.0 90 -2.5 0 0 1000.1 NA 0.0000 9999 2300 0 0 0
2019/03/13 09:05:00 BASE 0.05 80 1.08 68 -1.0 90 -2.5 0 0 1000.1 NA 0.0000 9999 2300 0 0 0
2019/03/13 09:06:00 BASE 0.23 68 1.18 67 -1.0 90 -2.4 0 0 1000.1 NA 0.0000 9999 2230 0 0 0
2019/03/13 09:07:00 BASE 0.19 66 1.18 67 -1.0 90 -2.4 0 0 1000.1 NA 0.0000 9999 2260 0 0 0
2019/03/13 09:08:00 BASE 0.00 68 1.18 67 -1.0 90 -2.4 0 0 1000.1 NA 0.0000 9999 2170 0 0 0
2019/03/13 09:09:00 BASE 0.00 68 1.18 67 -1.0 90 -2.5 0 0 1000.1 NA 0.0000 9999 2230 0 0 0
2019/03/13 09:10:00 BASE 0.22 68 1.18 67 -1.0 90 -2.5 0 0 1000.1 NA 0.0000 9999 2430 0 0 0
2019/03/13 09:11:00 BASE 0.26 70 1.18 67 -1.0 89 -2.5 0 0 1000.1 NA 0.0000 9999 2300 0 0 0
2019/03/13 09:12:00 BASE 0.18 71 1.18 67 -1.0 89 -2.5 0 0 1000.1 NA 0.0000 9999 2400 0 0 0
2019/03/13 09:13:00 BASE 0.59 69 1.18 69 -0.9 89 -2.5 0 0 1000.1 NA 0.0000 9999 2400 0 0 0
2019/03/13 09:14:00 BASE 1.10 68 1.54 66 -0.9 89 -2.5 0 0 1000.0 NA 0.0000 9999 2300 0 0 0
2019/03/13 09:15:01 BASE 1.38 65 1.54 62 -1.0 89 -2.5 0 0 1000.0 NA 0.0000 9999 2260 0 0 0
2019/03/13 09:16:01 BASE 1.46 63 1.54 62 -1.0 89 -2.5 0 0 1000.1 NA 0.0000 9999 2260 0 0 0
2019/03/13 09:17:01 BASE 1.08 63 1.54 62 -1.0 90 -2.5 0 0 1000.1 NA 0.0000 9999 2260 0 0 0
2019/03/13 09:18:01 BASE 0.71 68 1.54 62 -1.0 90 -2.5 0 0 1000.1 NA 0.0000 9999 2230 0 0 0
2019/03/13 09:19:01 BASE 1.03 69 1.54 62 -1.0 90 -2.4 0 0 1000.1 NA 0.0000 9999 2260 0 0 0
2019/03/13 09:20:01 BASE 1.40 67 1.54 67 -1.0 90 -2.4 0 0 1000.1 NA 0.0000 9999 2200 0 0 0
2019/03/13 09:21:01 BASE 1.49 68 1.59 70 -1.0 90 -2.4 0 0 1000.0 NA 0.0000 9999 2200 0 0 0
2019/03/13 09:22:01 BASE 1.58 73 1.70 77 -1.0 90 -2.4 0 0 1000.0 NA 0.0000 9999 2200 0 0 0
2019/03/13 09:23:01 BASE 1.68 78 1.85 85 -1.0 90 -2.4 0 0 999.9 NA 0.0000 9999 2170 0 0 0
2019/03/13 09:24:01 BASE 1.84 82 2.11 81 -1.0 90 -2.4 0 0 999.9 NA 0.0000 9999 5280 0 0 0
2019/03/13 09:25:01 BASE 1.92 84 2.11 81 -1.0 90 -2.4 0 0 999.9 NA 0.0000 9999 0 0 0 0
2019/03/13 09:26:01 BASE 1.85 83 2.11 81 -1.0 90 -2.4 0 0 999.9 NA 0.0000 9999 0 0 0 0
2019/03/13 09:27:01 BASE 1.80 82 2.11 81 -1.0 90 -2.4 0 0 999.9 NA 0.0000 9999 0 0 0 0
2019/03/13 09:28:01 BASE 1.78 82 2.11 81 -1.0 90 -2.4 0 0 999.9 NA 0.0000 9999 0 0 0 0
2019/03/13 09:29:01 BASE 1.81 81 2.11 81 -1.0 91 -2.3 0 0 999.9 NA 0.0000 9999 0 0 0 0
2019/03/13 09:30:01 BASE 1.83 78 2.11 81 -1.0 91 -2.3 0 0 999.9 NA 0.0000 9999 0 0 0 0
2019/03/13 09:31:00 BASE 1.88 75 2.11 75 -1.0 91 -2.3 0 0 999.9 NA 0.0000 9999 0 0 0 0
2019/03/13 09:32:00 BASE 2.03 75 2.11 75 -1.1 91 -2.3 0 0 999.8 NA 0.0000 9999 0 0 0 0
2019/03/13 09:33:00 BASE 2.02 76 2.11 75 -1.1 91 -2.4 0 0 999.8 NA 0.0000 9999 0 0 0 0
2019/03/13 09:34:00 BASE 2.02 77 2.37 75 -1.1 91 -2.3 0 0 999.8 NA 0.0000 9999 0 0 0 0
2019/03/13 09:35:00 BASE 2.08 78 2.37 75 -1.1 91 -2.3 0 0 999.8 NA 0.0000 9999 0 0 0 0
2019/03/13 09:36:00 BASE 1.98 76 2.37 75 -1.1 92 -2.3 0 0 999.8 NA 0.0000 9999 4720 0 0 0
2019/03/13 09:37:00 BASE 1.81 73 2.37 75 -1.1 92 -2.3 0 0 999.8 NA 0.0000 9999 5020 0 0 0
2019/03/13 09:38:00 BASE 1.69 72 2.37 75 -1.1 92 -2.3 0 0 999.8 NA 0.0000 9999 4660 0 0 0
2019/03/13 09:39:00 BASE 1.71 75 2.37 75 -1.1 92 -2.3 0 0 999.8 NA 0.0000 9999 4460 0 0 0
2019/03/13 09:40:00 BASE 1.67 77 2.37 75 -1.1 92 -2.3 0 0 999.8 NA 0.0000 9999 4360 0 0 0
2019/03/13 09:41:00 BASE 1.57 73 2.37 75 -1.1 91 -2.3 1 0 999.8 NA 0.0000 9999 4100 0 0 0
2019/03/13 09:42:00 BASE 1.53 72 2.37 75 -1.1 91 -2.3 1 0 999.8 NA 0.0000 9999 3970 0 0 0
2019/03/13 09:43:00 BASE 1.50 71 2.37 75 -1.1 91 -2.4 1 0 999.8 NA 0.0000 9999 3810 0 0 0
2019/03/13 09:44:00 BASE 1.63 71 2.31 81 -1.1 91 -2.4 1 0 999.8 NA 0.0000 9999 3640 0 0 0
2019/03/13 09:45:00 BASE 1.84 74 2.21 78 -1.0 91 -2.4 1 0 999.8 NA 0.0000 9999 3540 0 0 0
2019/03/13 09:46:00 BASE 2.03 80 2.37 91 -1.0 90 -2.4 1 0 999.8 NA 0.0000 9999 3510 0 0 0
2019/03/13 09:47:00 BASE 2.26 82 2.47 80 -1.0 90 -2.4 1 0 999.8 NA 0.0000 9999 3410 0 0 0
2019/03/13 09:48:00 BASE 2.25 76 2.47 75 -1.0 90 -2.4 1 0 999.8 NA 0.0000 9999 0 0 0 3970
2019/03/13 09:49:00 BASE 2.02 74 2.47 75 -1.0 90 -2.4 1 0 999.8 NA 0.0000 9999 0 0 0 3840
2019/03/13 09:50:00 BASE 2.03 76 2.47 75 -1.0 90 -2.4 1 0 999.8 NA 0.0000 9999 0 0 0 3670
2019/03/13 09:51:00 BASE 2.05 79 2.47 75 -0.9 90 -2.4 1 0 999.8 NA 0.0000 9999 0 0 0 3540
2019/03/13 09:52:00 BASE 2.16 87 2.98 97 -1.0 90 -2.4 1 0 999.8 NA 0.0000 9999 0 0 0 3380
2019/03/13 09:53:01 BASE 2.55 93 3.04 91 -1.0 90 -2.4 1 0 999.8 NA 0.0000 9999 0 0 0 3310
2019/03/13 09:54:01 BASE 2.83 98 3.34 109 -1.0 90 -2.4 1 0 999.8 NA 0.0000 UP 9999 0 0 0 3220
2019/03/13 09:55:01 BASE 2.70 106 3.34 109 -1.0 90 -2.4 1 0 999.8 NA 0.0000 UP 9999 0 0 0 3150
2019/03/13 09:56:01 BASE 2.48 107 3.34 109 -1.0 90 -2.4 1 0 999.8 NA 0.0000 UP 9000 0 0 0 3050
2019/03/13 09:57:01 BASE 2.23 106 3.34 109 -1.0 91 -2.3 1 0 999.8 NA 0.0000 UP 7000 0 0 0 2990
2019/03/13 09:58:01 BASE 1.83 103 3.34 109 -1.0 91 -2.3 1 0 999.8 NA 0.0000 -SN 7000 0 0 0 2950
2019/03/13 09:59:01 BASE 1.86 95 3.34 109 -1.0 91 -2.3 1 0 999.8 NA 0.0000 -SN BR 5000 0 0 0 2890
2019/03/13 10:00:01 BASE 2.13 89 3.34 109 -1.0 91 -2.3 1 0 999.8 NA 0.0000 -SN BR 5000 0 0 0 2850
2019/03/13 10:01:01 BASE 2.13 93 3.34 109 -1.1 91 -2.3 2 0 999.8 NA 0.0000 -SN BR 4600 0 0 0 2720
2019/03/13 10:02:01 BASE 2.22 106 3.34 109 -1.1 92 -2.2 2 0 999.7 NA 0.0000 -SN BR 5000 0 0 0 2720
2019/03/13 10:03:00 BASE 2.36 116 3.34 109 -1.1 92 -2.2 2 0 999.7 NA 0.0000 -SN BR 4600 0 0 0 2660
2019/03/13 10:04:00 BASE 2.19 123 2.78 100 -1.1 93 -2.1 2 0 999.7 NA 0.0000 -SN BR 3800 0 0 0 2760
2019/03/13 10:05:00 BASE 1.84 128 2.78 100 -1.1 93 -2.1 2 0 999.7 NA 0.0000 -SN BR 3600 0 0 0 2850
2019/03/13 10:06:00 BASE 0.83 132 2.68 104 -1.2 94 -2.0 2 0 999.7 NA 0.0000 -SN BR 3500 0 0 0 3510
2019/03/13 10:07:00 BASE 0.05 144 2.68 104 -1.2 94 -2.0 2 0 999.7 NA 0.0000 -SN BR 3400 0 0 0 3540
2019/03/13 10:08:00 BASE 0.00 161 2.68 104 -1.2 95 -2.0 3 0 999.7 NA 0.0000 -SN BR 2100 0 0 0 3580
2019/03/13 10:09:00 BASE 0.00 172 2.68 104 -1.2 95 -1.9 3 0 999.7 NA 0.0000 -SN BR 2200 0 0 0 3580
2019/03/13 10:10:00 BASE 0.00 165 2.68 104 -1.2 95 -1.9 4 0 999.7 NA 0.0000 -SN BR 2300 0 0 0 3540
2019/03/13 10:11:00 BASE 0.00 147 2.68 104 -1.2 95 -1.8 4 0 999.7 NA 0.0000 -SN BR 2500 0 0 0 5580
2019/03/13 10:12:00 BASE 0.00 138 2.62 126 -1.2 96 -1.8 4 0 999.7 NA 0.0000 -SN BR 2500 0 0 0 5610
2019/03/13 10:13:00 BASE 0.00 138 2.62 126 -1.2 96 -1.8 4 0 999.7 NA 0.0000 -SN BR 2800 0 0 0 5380
2019/03/13 10:14:00 BASE 0.00 136 1.85 126 -1.2 96 -1.8 5 0 999.7 NA 0.0000 -SN BR 3300 0 0 0 5710
2019/03/13 10:15:00 BASE 0.00 128 1.08 129 -1.3 96 -1.7 5 0 999.7 NA 0.0000 -SN BR 4000 0 0 0 5610
2019/03/13 10:16:00 BASE 0.00 121 M M -1.3 97 -1.7 5 0 999.7 NA 0.0000 -SN BR 3200 0 0 0 5640
2019/03/13 10:17:00 BASE 0.00 124 M M -1.3 97 -1.7 6 0 999.7 NA 0.0000 -SN BR 5000 0 0 0 6430
2019/03/13 10:18:00 BASE 0.00 139 M M -1.3 98 -1.6 6 0 999.7 NA 0.0000 -SN BR 4900 0 0 0 6300
2019/03/13 10:19:00 BASE 0.00 153 M M -1.3 98 -1.6 6 0 999.7 NA 0.0000 -SN BR 4100 0 0 0 6200
2019/03/13 10:20:00 BASE 0.00 152 M M -1.3 98 -1.5 7 0 999.7 NA 0.0000 -SN BR 4100 0 0 0 6140
2019/03/13 10:21:00 BASE 0.00 151 M M -1.3 99 -1.5 7 0 999.7 NA 0.0000 -SN BR 5000 0 0 0 6040
2019/03/13 10:22:00 BASE 0.00 152 M M -1.4 99 -1.5 7 0 999.7 NA 0.0000 -SN BR 5000 0 0 0 6300
2019/03/13 10:23:00 BASE 0.00 153 M M -1.4 99 -1.4 8 0 999.7 NA 0.0000 -SN BR 6000 0 0 0 6270
2019/03/13 10:24:00 BASE 0.00 153 M M -1.4 100 -1.4 8 0 999.7 NA 0.0000 -SN BR 6000 0 0 0 6300
2019/03/13 10:25:00 BASE 0.00 157 M M -1.4 100 -1.4 8 0 999.7 NA 0.0000 -SN BR 6000 0 0 0 6300
2019/03/13 10:26:00 BASE 0.00 161 M M -1.4 100 -1.4 9 0 999.7 NA 0.0000 -SN BR 5000 0 0 0 5810
2019/03/13 10:27:00 BASE 0.00 162 M M -1.4 100 -1.4 9 0 999.7 NA 0.0000 -SN BR 4300 0 0 0 5740
2019/03/13 10:28:00 BASE 0.00 165 M M -1.5 100 -1.5 9 0 999.7 NA 0.0000 -SN BR 3700 0 0 0 5320
2019/03/13 10:29:00 BASE 0.00 169 M M -1.5 100 -1.5 10 0 999.7 NA 0.0000 -SN BR 3100 0 0 0 5180
2019/03/13 10:30:00 BASE 0.00 170 M M -1.5 100 -1.5 10 0 999.7 NA 0.0000 -SN BR 3300 0 0 0 5510
2019/03/13 10:31:00 BASE 0.00 170 M M -1.5 100 -1.5 11 0 999.7 NA 0.0000 -SN BR 3700 0 0 0 5050
2019/03/13 10:32:00 BASE 0.00 170 M M -1.5 100 -1.5 12 0 999.7 NA 0.0000 -SN BR 4900 0 0 0 4950
2019/03/13 10:33:00 BASE 0.00 170 M M -1.5 100 -1.5 12 0 999.7 NA 0.0000 -SN BR 7000 0 0 0 4920
2019/03/13 10:34:00 BASE 0.00 170 M M -1.5 100 -1.5 13 0 999.7 NA 0.0000 -SN BR 8000 0 0 0 4790
2019/03/13 10:35:01 BASE 0.05 171 1.08 173 -1.5 100 -1.5 13 0 999.7 NA 0.0000 -SN BR 8000 0 0 0 4660
2019/03/13 10:36:01 BASE 0.05 173 1.08 173 -1.5 100 -1.5 14 0 999.7 NA 0.0000 -SN BR 9000 0 0 0 4300
2019/03/13 10:37:01 BASE 0.09 173 1.13 173 -1.5 100 -1.5 15 0 999.7 NA 0.0000 -SN BR 9000 0 0 0 4130
2019/03/13 10:38:01 BASE 0.18 173 1.13 173 -1.5 100 -1.5 15 0 999.7 NA 0.0000 -SN BR 9999 0 0 0 4040
2019/03/13 10:39:06 BASE 0.14 173 1.13 173 -1.5 100 -1.5 16 0 999.7 NA 0.0000 -SN BR 9999 0 0 0 3900
2019/03/13 10:40:01 BASE 0.19 173 1.13 173 -1.5 100 -1.5 17 0 999.7 NA 0.0000 -SN BR 9999 0 0 0 3770
2019/03/13 10:41:01 BASE 0.49 173 1.29 173 -1.5 100 -1.5 17 0 999.7 NA 0.0000 -SN BR 7000 0 0 0 3740
2019/03/13 10:42:01 BASE 0.99 173 1.34 172 -1.6 100 -1.6 18 0 999.7 NA 0.0000 -SN BR 8000 0 0 0 3540
2019/03/13 10:43:01 BASE 1.33 171 1.49 170 -1.6 100 -1.6 19 0 999.7 NA 0.0000 -SN BR 5000 0 0 0 3580
2019/03/13 10:44:01 BASE 0.96 170 1.49 170 -1.6 100 -1.6 20 0 999.7 NA 0.0000 -SN BR 2600 0 0 0 3610
2019/03/13 10:45:01 BASE 0.26 170 1.49 170 -1.6 100 -1.6 21 0 999.7 NA 0.0000 -SN BR 2600 0 0 0 3510
2019/03/13 10:46:01 BASE 0.00 170 1.49 170 -1.6 100 -1.6 22 0 999.7 NA 0.0000 -SN BR 2600 0 0 0 3250
2019/03/13 10:47:01 BASE 0.00 170 1.49 170 -1.6 100 -1.6 23 0 999.7 NA 0.0000 -SN BR 2600 0 0 0 4170
2019/03/13 10:48:01 BASE 0.00 180 1.49 170 -1.6 100 -1.6 24 0 999.7 NA 0.0000 -SN BR 3000 0 0 0 4100
2019/03/13 10:49:01 BASE 0.00 193 1.49 170 -1.6 100 -1.6 24 0 999.7 NA 0.0000 -SN BR 2600 0 0 0 4230
2019/03/13 10:50:01 BASE 0.00 194 1.49 170 -1.6 100 -1.6 24 0 999.7 NA 0.0000 -SN BR 2600 0 0 0 4170
2019/03/13 10:51:01 BASE 0.00 190 1.49 170 -1.6 100 -1.6 25 0 999.7 NA 0.0000 -SN BR 2800 0 0 0 4200
2019/03/13 10:52:01 BASE 0.00 181 1.49 170 -1.6 100 -1.6 25 0 999.7 NA 0.0000 -SN BR 3500 0 0 0 4130
2019/03/13 10:53:01 BASE 0.09 170 1.29 170 -1.6 100 -1.6 24 0 999.7 NA 0.0000 -SN BR 3300 0 0 0 4130
2019/03/13 10:54:01 BASE 0.09 165 1.08 165 -1.6 100 -1.6 24 0 999.7 NA 0.0000 -SN BR 2600 0 0 0 3940
2019/03/13 10:55:01 BASE 0.00 166 1.08 165 -1.6 100 -1.6 23 0 999.7 NA 0.0000 -SN BR 2700 0 0 0 5120
2019/03/13 10:56:00 BASE 0.00 167 1.08 165 -1.6 100 -1.6 22 0 999.7 NA 0.0000 -SN BR 3300 0 0 0 5250
2019/03/13 10:57:00 BASE 0.00 168 1.08 165 -1.6 100 -1.6 22 0 999.7 NA 0.0000 -SN BR 4300 0 0 0 5220
2019/03/13 10:58:01 BASE 0.09 173 1.08 165 -1.6 100 -1.6 22 0 999.7 NA 0.0000 -SN BR 4900 0 0 0 5250
2019/03/13 10:59:00 BASE 0.09 179 1.08 165 -1.6 100 -1.6 21 0 999.7 NA 0.0000 -SN BR 5000 0 0 0 5220
2019/03/13 11:00:01 BASE 0.13 180 1.08 180 -1.7 100 -1.7 21 0 999.7 NA 0.0000 -SN BR 6000 0 0 0 5120
2019/03/13 11:01:00 BASE 0.22 180 1.08 180 -1.7 100 -1.7 20 0 999.7 NA 0.0000 -SN BR 8000 0 0 0 4890
2019/03/13 11:02:00 BASE 0.13 179 1.08 180 -1.7 100 -1.7 20 0 999.7 NA 0.0000 -SN BR 9000 0 0 0 4890
2019/03/13 11:03:00 BASE 0.04 179 1.08 180 -1.7 100 -1.7 20 0 999.7 NA 0.0000 -SN BR 7000 0 0 0 5120
2019/03/13 11:04:01 BASE 0.00 179 1.08 180 -1.7 100 -1.7 21 0 999.7 NA 0.0000 -SN BR 9000 0 0 0 5050
2019/03/13 11:05:00 BASE 0.00 179 1.08 180 -1.7 100 -1.7 23 0 999.7 NA 0.0000 -SN BR 9999 0 0 0 4820
2019/03/13 11:06:00 BASE 0.00 177 1.08 180 -1.7 100 -1.7 25 0 999.7 NA 0.0000 -SN BR 9999 0 0 0 4660
2019/03/13 11:07:00 BASE 0.00 175 1.08 180 -1.7 100 -1.7 29 0 999.7 NA 0.0000 -SN BR 9999 0 0 0 4530
2019/03/13 11:08:00 BASE 0.00 171 1.08 180 -1.7 100 -1.7 33 0 999.7 NA 0.0000 -SN BR 9999 0 0 0 4430
2019/03/13 11:09:01 BASE 0.00 168 1.08 180 -1.7 100 -1.7 38 0 999.7 NA 0.0000 -SN BR 9999 0 0 0 4460
2019/03/13 11:10:01 BASE 0.05 168 1.18 166 -1.7 100 -1.7 44 0 999.7 NA 0.0000 -SN 9999 0 0 0 4400
2019/03/13 11:11:01 BASE 0.38 167 1.18 166 -1.7 100 -1.7 48 0 999.7 NA 0.0000 -SN 9999 0 0 0 4230
2019/03/13 11:12:01 BASE 0.33 166 1.18 166 -1.7 100 -1.7 52 0 999.7 NA 0.0000 -SN 9999 7420 0 0 0
2019/03/13 11:13:01 BASE 0.26 167 1.18 166 -1.7 100 -1.7 53 0 999.7 NA 0.0000 -SN 9999 7250 0 0 0
2019/03/13 11:14:00 BASE 0.26 169 1.18 166 -1.7 100 -1.7 54 0 999.7 NA 0.0000 -SN 9999 7250 0 0 0
2019/03/13 11:15:00 BASE 0.00 170 1.18 166 -1.6 100 -1.6 54 0 999.7 NA 0.0000 -SN 9999 7090 0 0 0
2019/03/13 11:16:00 BASE 0.00 170 1.18 166 -1.6 100 -1.6 54 0 999.7 NA 0.0000 -SN 9999 7090 0 0 0
2019/03/13 11:17:00 BASE 0.00 170 1.18 166 -1.7 100 -1.7 53 0 999.7 NA 0.0000 -SN 9999 6960 0 0 0
2019/03/13 11:18:00 BASE 0.17 170 1.18 166 -1.7 100 -1.7 53 0 999.7 NA 0.0000 -SN 9999 6920 0 0 0
2019/03/13 11:19:00 BASE 0.44 165 1.18 166 -1.7 100 -1.7 52 0 999.7 NA 0.0000 -SN 9999 6960 0 0 0
2019/03/13 11:20:00 BASE 0.86 156 1.29 152 -1.7 100 -1.7 51 0 999.7 NA 0.0000 -SN 9999 6920 0 0 0
2019/03/13 11:21:00 BASE 1.21 149 1.29 144 -1.7 100 -1.7 50 0 999.7 NA 0.0000 -SN 9999 6920 0 0 0
2019/03/13 11:22:00 BASE 1.17 140 1.39 132 -1.8 100 -1.8 49 0 999.7 NA 0.0000 -SN 9999 7090 0 0 0
2019/03/13 11:23:00 BASE 1.29 134 1.54 134 -1.8 100 -1.8 48 0 999.7 NA 0.0000 -SN 9999 6960 0 0 0
2019/03/13 11:24:00 BASE 1.49 136 1.65 135 -1.8 100 -1.8 49 0 999.6 NA 0.0000 9999 6890 0 0 0
2019/03/13 11:25:00 BASE 1.56 138 1.70 138 -1.8 100 -1.8 50 0 999.6 NA 0.0000 9999 0 0 0 0
2019/03/13 11:26:00 BASE 1.52 135 1.70 138 -1.8 100 -1.8 52 0 999.7 NA 0.0000 -SN 9999 0 0 0 0
2019/03/13 11:27:00 BASE 1.27 133 1.70 138 -1.8 100 -1.8 55 0 999.7 NA 0.0000 -SN 9999 6920 0 0 0
2019/03/13 11:28:00 BASE 0.54 135 1.70 138 -1.8 100 -1.8 60 0 999.7 NA 0.0000 -SN 9999 6790 0 0 0
2019/03/13 11:29:00 BASE 0.00 137 1.70 138 -1.8 100 -1.8 66 0 999.7 NA 0.0000 -SN 9999 4990 6860 0 0
2019/03/13 11:30:00 BASE 0.00 138 1.70 138 -1.7 100 -1.7 72 0 999.7 NA 0.0000 -SN 9999 5020 0 0 0
2019/03/13 11:31:00 BASE 0.00 139 1.70 138 -1.7 100 -1.7 74 0 999.7 NA 0.0000 -SN 9999 4990 0 0 0
2019/03/13 11:32:00 BASE 0.00 139 1.70 138 -1.6 100 -1.6 75 0 999.7 NA 0.0000 -SN 9999 4990 0 0 0
2019/03/13 11:33:00 BASE 0.00 139 1.70 138 -1.6 100 -1.6 76 0 999.7 NA 0.0000 -SN 9999 4990 0 0 0
2019/03/13 11:34:00 BASE 0.00 139 1.70 138 -1.6 100 -1.6 77 0 999.7 NA 0.0000 -SN 9999 4950 0 0 0
2019/03/13 11:35:00 BASE 0.00 163 1.59 134 -1.6 100 -1.6 82 0 999.7 NA 0.0000 -SN 9999 4950 0 0 0
2019/03/13 11:36:00 BASE 0.00 195 1.29 128 -1.6 100 -1.6 89 0 999.7 NA 0.0000 9999 4890 0 0 0
2019/03/13 11:37:00 BASE 0.00 202 M M -1.6 100 -1.6 99 0 999.7 NA 0.0000 9999 4860 0 0 0
2019/03/13 11:38:00 BASE 0.00 202 M M -1.6 100 -1.6 108 0 999.7 NA 0.0000 9999 4820 6460 0 0
2019/03/13 11:39:00 BASE 0.00 202 M M -1.6 100 -1.6 113 0 999.7 NA 0.0000 9999 4820 0 0 0
2019/03/13 11:40:00 BASE 0.00 183 M M -1.5 100 -1.5 110 0 999.7 NA 0.0000 9999 4820 6500 0 0
2019/03/13 11:41:00 BASE 0.00 67 M M -1.6 100 -1.6 104 0 999.7 NA 0.0000 9999 4820 0 0 0
2019/03/13 11:42:00 BASE 0.00 36 M M -1.6 100 -1.6 97 0 999.7 NA 0.0000 9999 4760 0 0 0
2019/03/13 11:43:01 BASE 0.00 30 M M -1.6 100 -1.6 93 0 999.7 NA 0.0000 9999 4760 0 0 0
2019/03/13 11:44:01 BASE 0.00 37 M M -1.7 100 -1.7 93 0 999.7 NA 0.0000 9999 4690 0 0 0
2019/03/13 11:45:01 BASE 0.00 44 M M -1.7 100 -1.7 97 0 999.7 NA 0.0000 9999 4690 0 0 0
2019/03/13 11:46:01 BASE 0.00 42 M M -1.7 100 -1.7 102 0 999.7 NA 0.0000 9999 4690 0 0 0
2019/03/13 11:47:01 BASE 0.00 32 M M -1.7 100 -1.7 107 0 999.7 NA 0.0000 9999 4720 0 0 0
2019/03/13 11:48:01 BASE 0.00 23 M M -1.7 100 -1.7 112 0 999.7 NA 0.0000 9999 4690 0 0 0
2019/03/13 11:49:01 BASE 0.00 17 M M -1.7 100 -1.7 115 0 999.7 NA 0.0000 9999 1800 4720 0 0
2019/03/13 11:50:01 BASE 0.00 15 M M -1.7 100 -1.7 112 0 999.8 NA 0.0000 9999 1900 4690 0 0
2019/03/13 11:51:01 BASE 0.00 17 M M -1.7 100 -1.7 102 0 999.8 NA 0.0000 9999 1870 4690 0 0
2019/03/13 11:52:01 BASE 0.04 21 1.03 24 -1.7 100 -1.7 89 0 999.8 NA 0.0000 9999 4630 0 0 0
2019/03/13 11:53:01 BASE 0.42 24 1.23 25 -1.7 100 -1.7 78 0 999.8 NA 0.0000 9999 4630 0 0 0
2019/03/13 11:54:01 BASE 0.64 25 1.23 25 -1.7 100 -1.7 75 0 999.8 NA 0.0000 9999 4630 0 0 0
2019/03/13 11:55:01 BASE 0.50 26 1.23 25 -1.6 100 -1.6 74 0 999.8 NA 0.0000 9999 4630 0 0 0
2019/03/13 11:56:01 BASE 0.27 19 1.23 25 -1.6 100 -1.6 71 0 999.8 NA 0.0000 9999 4660 0 0 0
2019/03/13 11:57:01 BASE 0.04 6 1.23 25 -1.6 100 -1.6 69 0 999.8 NA 0.0000 9999 4660 0 0 0
2019/03/13 11:58:01 BASE 0.00 14 1.23 25 -1.7 100 -1.7 67 0 999.7 NA 0.0000 9999 4690 0 0 0
2019/03/13 11:59:01 BASE 0.04 26 1.23 25 -1.7 100 -1.7 68 0 999.7 NA 0.0000 9999 4660 0 0 0
2019/03/13 12:00:01 BASE 0.37 19 1.34 26 -1.7 100 -1.7 71 0 999.7 NA 0.0000 9999 4630 0 0 0
2019/03/13 12:01:01 BASE 1.01 14 1.59 19 -1.7 100 -1.7 74 0 999.7 NA 0.0000 9999 0 0 0 0
2019/03/13 12:02:01 BASE 1.43 12 1.59 10 -1.7 100 -1.7 79 0 999.7 NA 0.0000 9999 0 0 0 0
2019/03/13 12:03:01 BASE 1.55 12 1.80 18 -1.7 100 -1.7 85 0 999.7 NA 0.0000 9999 0 0 0 0
2019/03/13 12:04:01 BASE 1.61 8 1.80 18 -1.7 100 -1.7 94 0 999.7 NA 0.0000 9999 0 0 0 0
2019/03/13 12:05:01 BASE 1.40 3 1.80 18 -1.7 100 -1.7 106 0 999.7 NA 0.0000 9999 0 0 0 0
2019/03/13 12:06:01 BASE 1.02 358 1.80 18 -1.7 100 -1.7 122 0 999.7 NA 0.0000 9999 17450 0 0 0
2019/03/13 12:07:01 BASE 0.87 349 1.80 18 -1.8 100 -1.8 139 0 999.7 NA 0.0000 9999 0 0 0 0
2019/03/13 12:08:01 BASE 0.56 347 1.80 18 -1.8 100 -1.8 146 0 999.7 NA 0.0000 9999 0 0 0 0
2019/03/13 12:09:01 BASE 0.09 352 1.80 18 -1.7 100 -1.7 134 0 999.7 NA 0.0000 9999 17550 0 0 0
2019/03/13 12:10:01 BASE 0.00 359 1.80 18 -1.8 100 -1.8 129 0 999.7 NA 0.0000 9999 16040 0 0 0
2019/03/13 12:11:00 BASE 0.00 360 1.80 18 -1.7 100 -1.7 140 0 999.7 NA 0.0000 9999 17520 0 0 0
2019/03/13 12:12:00 BASE 0.00 353 1.80 18 -1.7 100 -1.7 161 0 999.7 NA 0.0000 9999 17520 0 0 0
2019/03/13 12:13:01 BASE 0.00 351 1.65 360 -1.7 100 -1.7 165 0 999.7 NA 0.0000 9999 0 0 0 0
2019/03/13 12:14:01 BASE 0.00 353 1.54 4 -1.7 100 -1.7 205 0 999.7 NA 0.0000 9999 0 0 0 0
2019/03/13 12:15:14 BASE 0.00 352 1.44 348 -1.7 100 -1.7 202 0 999.7 NA 0.0000 9999 0 0 0 0
2019/03/13 12:16:00 BASE 0.00 346 1.44 348 -1.7 100 -1.7 184 0 999.7 NA 0.0000 9999 0 0 0 0
2019/03/13 12:17:01 BASE 0.05 337 1.03 331 -1.6 100 -1.6 164 0 999.7 NA 0.0000 9999 17260 0 0 0
2019/03/13 12:18:00 BASE 0.28 332 1.23 329 -1.6 100 -1.6 200 0 999.7 NA 0.0000 9999 0 0 0 0
2019/03/13 12:19:01 BASE 0.80 333 1.39 334 -1.6 100 -1.6 198 0 999.7 NA 0.0000 9999 0 0 0 0
2019/03/13 12:20:01 BASE 1.29 336 1.70 332 -1.6 100 -1.6 137 0 999.7 NA 0.0000 9999 0 0 0 0
2019/03/13 12:21:01 BASE 1.63 339 2.01 340 -1.6 100 -1.6 172 0 999.7 NA 0.0000 9999 0 0 0 0
2019/03/13 12:22:01 BASE 1.84 342 2.01 342 -1.6 100 -1.6 185 0 999.7 NA 0.0000 9999 12500 0 0 0
2019/03/13 12:25:00 BASE M M M M -1.6 100 -1.6 198 0 M NA 0.0000 9999 12630 0 0 0
2019/03/13 12:26:00 BASE 1.82 355 M M -1.6 100 -1.6 196 0 999.7 NA 0.0000 9999 12730 0 0 0
2019/03/13 12:27:00 BASE 1.70 359 M M -1.6 100 -1.6 214 0 999.7 NA 0.0000 9999 12760 0 0 0
2019/03/13 12:28:00 BASE 1.48 1 M M -1.6 100 -1.6 248 0 999.7 NA 0.0000 9999 12830 0 0 0
2019/03/13 12:29:00 BASE 1.04 358 M M -1.6 100 -1.6 319 0 999.7 NA 0.0000 9999 0 0 0 0
2019/03/13 12:30:01 BASE 0.40 356 M M -1.6 100 -1.6 224 0 999.7 NA 0.0000 9999 4430 0 0 0
2019/03/13 12:31:00 BASE 0.15 4 M M -1.6 100 -1.6 190 0 999.7 NA 0.0000 9999 5380 16770 0 0
2019/03/13 12:32:00 BASE 0.25 9 M M -1.6 100 -1.6 204 0 999.7 NA 0.0000 9999 5250 16670 0 0
2019/03/13 12:33:00 BASE 0.49 10 2.01 1 -1.6 100 -1.6 259 0 999.7 NA 0.0000 9999 16700 0 0 0
2019/03/13 12:34:00 BASE 0.89 13 2.01 1 -1.6 100 -1.6 202 0 999.7 NA 0.0000 9999 5280 0 0 0
2019/03/13 12:35:00 BASE 1.21 15 2.01 1 -1.6 100 -1.6 207 0 999.7 NA 0.0000 9999 5380 0 0 0
2019/03/13 12:36:00 BASE 1.38 19 1.85 354 -1.5 100 -1.6 199 0 999.7 NA 0.0000 9999 5280 0 0 0
2019/03/13 12:37:00 BASE 1.59 22 2.01 35 -1.5 100 -1.5 184 0 999.7 NA 0.0000 9999 5350 6460 0 0
2019/03/13 12:38:00 BASE 1.84 15 2.16 3 -1.5 100 -1.5 200 0 999.7 NA 0.0000 9999 5320 6400 0 0
2019/03/13 12:39:00 BASE 1.91 9 2.31 10 -1.5 100 -1.5 168 0 999.7 NA 0.0000 9999 5350 6330 0 0
2019/03/13 12:40:00 BASE 1.97 10 2.31 8 -1.5 100 -1.5 159 0 999.7 NA 0.0000 9999 5350 6230 0 0
2019/03/13 12:41:00 BASE 2.05 12 2.31 26 -1.5 100 -1.5 163 0 999.7 NA 0.0000 9999 5220 6200 0 0
2019/03/13 12:42:01 BASE 1.97 18 2.31 26 -1.5 100 -1.5 166 0 999.7 NA 0.0000 9999 5090 6230 0 0
2019/03/13 12:43:00 BASE 1.79 28 2.31 26 -1.5 100 -1.5 169 0 999.7 NA 0.0000 9999 6040 0 0 0
2019/03/13 12:44:00 BASE 1.77 29 2.31 26 -1.5 100 -1.5 169 0 999.7 NA 0.0000 9999 5970 0 0 0
2019/03/13 12:45:00 BASE 1.58 16 2.31 26 -1.5 100 -1.5 167 0 999.7 NA 0.0000 9999 5970 0 0 0
2019/03/13 12:46:00 BASE 0.83 6 2.31 26 -1.5 100 -1.5 171 0 999.7 NA 0.0000 9999 5840 0 0 0
2019/03/13 12:47:00 BASE 0.44 8 2.31 26 -1.5 100 -1.5 186 0 999.7 NA 0.0000 9999 5710 0 0 0
2019/03/13 12:48:00 BASE 0.46 13 2.31 26 -1.6 100 -1.6 178 0 999.7 NA 0.0000 9999 5680 0 0 0
2019/03/13 12:49:00 BASE 0.78 7 2.31 26 -1.6 100 -1.6 173 0 999.7 NA 0.0000 9999 5710 0 0 0
2019/03/13 12:50:00 BASE 1.18 1 2.31 26 -1.6 100 -1.6 160 0 999.7 NA 0.0000 9999 5610 0 0 0
2019/03/13 12:51:01 BASE 0.98 3 2.21 28 -1.6 100 -1.6 146 0 999.7 NA 0.0000 9999 5380 0 0 0
2019/03/13 12:52:01 BASE 0.78 7 2.21 28 -1.6 100 -1.6 139 0 999.7 NA 0.0000 9999 5350 0 0 0
2019/03/13 12:53:01 BASE 0.53 17 2.21 28 -1.6 100 -1.6 133 0 999.7 NA 0.0000 9999 5120 0 0 0
2019/03/13 12:54:01 BASE 0.28 28 1.65 354 -1.5 100 -1.5 129 0 999.7 NA 0.0000 9999 5090 0 0 0
2019/03/13 12:55:00 BASE 0.18 33 1.65 354 -1.5 100 -1.5 130 0 999.7 NA 0.0000 9999 5050 0 0 0
2019/03/13 12:56:00 BASE 0.23 24 1.65 354 -1.5 100 -1.5 133 0 999.7 NA 0.0000 9999 4890 0 0 0
2019/03/13 12:57:00 BASE 0.32 17 1.39 1 -1.5 100 -1.5 133 0 999.7 NA 0.0000 9999 4950 0 0 0
2019/03/13 12:58:00 BASE 0.13 17 1.39 1 -1.4 100 -1.4 131 0 999.7 NA 0.0000 9999 4890 0 0 0
2019/03/13 12:59:00 BASE 0.13 14 1.39 1 -1.4 100 -1.4 128 0 999.7 NA 0.0000 9999 4890 0 0 0
2019/03/13 13:00:00 BASE 0.13 16 1.39 1 -1.5 100 -1.5 126 0 999.7 NA 0.0000 9999 4990 0 0 0
2019/03/13 13:01:00 BASE 0.00 27 1.39 1 -1.4 100 -1.4 126 0 999.7 NA 0.0000 9999 4820 0 0 0
2019/03/13 13:02:00 BASE 0.05 47 1.18 24 -1.4 100 -1.4 128 0 999.7 NA 0.0000 9999 4820 0 0 0
2019/03/13 13:03:00 BASE 0.80 58 2.06 63 -1.4 100 -1.4 134 0 999.7 NA 0.0000 9999 4820 0 0 0
2019/03/13 13:04:00 BASE 1.40 62 2.06 63 -1.3 100 -1.3 140 0 999.7 NA 0.0000 9999 4820 0 0 0
2019/03/13 13:05:00 BASE 0.79 49 2.06 63 -1.3 100 -1.3 144 0 999.6 NA 0.0000 9999 4860 0 0 0
2019/03/13 13:06:00 BASE 0.57 33 2.06 63 -1.3 100 -1.3 148 0 999.6 NA 0.0000 9999 4920 5710 0 0
2019/03/13 13:07:00 BASE 1.00 33 2.06 63 -1.2 100 -1.2 153 0 999.6 NA 0.0000 9999 4950 0 0 0
2019/03/13 13:08:00 BASE 0.67 30 2.06 63 -1.2 100 -1.2 155 0 999.6 NA 0.0000 9999 5020 0 0 0
2019/03/13 13:09:00 BASE 0.09 30 2.06 63 -1.1 100 -1.1 164 0 999.6 NA 0.0000 9999 5510 0 0 0
2019/03/13 13:10:00 BASE 0.00 30 2.06 63 -1.1 100 -1.1 173 0 999.6 NA 0.0000 9999 5580 6530 0 0
2019/03/13 13:11:00 BASE 0.00 29 2.06 63 -1.0 100 -1.0 187 0 999.5 NA 0.0000 9999 5540 0 0 0
2019/03/13 13:12:00 BASE 0.00 33 2.06 63 -1.0 100 -1.0 198 0 999.5 NA 0.0000 9999 5610 6400 0 0
2019/03/13 13:13:00 BASE 0.00 43 1.75 25 -0.9 100 -0.9 198 0 999.6 NA 0.0000 9999 6330 0 0 0
2019/03/13 13:14:00 BASE 0.00 51 1.75 25 -0.8 100 -0.8 202 0 999.5 NA 0.0000 9999 6200 0 0 0
2019/03/13 13:15:00 BASE 0.00 51 1.75 25 -0.7 100 -0.7 188 0 999.5 NA 0.0000 9999 6170 0 0 0
2019/03/13 13:16:00 BASE 0.00 51 1.75 25 -0.6 100 -0.6 189 0 999.5 NA 0.0000 9999 6170 0 0 0
2019/03/13 13:17:00 BASE 0.00 51 1.13 29 -0.6 100 -0.6 195 0 999.5 NA 0.0000 9999 6070 0 0 0
2019/03/13 13:18:00 BASE 0.00 51 M M -0.6 100 -0.6 201 0 999.5 NA 0.0000 9999 5510 6040 0 0
2019/03/13 13:19:00 BASE 0.00 50 M M -0.6 100 -0.6 197 0 999.5 NA 0.0000 9999 5540 5970 0 0
2019/03/13 13:20:00 BASE 0.00 53 M M -0.6 100 -0.6 190 0 999.5 NA 0.0000 9999 5940 0 0 0
2019/03/13 13:21:00 BASE 0.00 219 M M -0.7 100 -0.7 181 0 999.5 NA 0.0000 9999 5870 0 0 0
2019/03/13 13:22:00 BASE 0.54 234 1.75 252 -0.7 100 -0.7 178 0 999.5 NA 0.0000 9999 5740 0 0 0
2019/03/13 13:23:00 BASE 1.43 248 2.06 262 -0.7 100 -0.7 178 0 999.5 NA 0.0000 9999 5940 0 0 0
2019/03/13 13:24:00 BASE 1.88 259 2.16 261 -0.7 100 -0.7 169 0 999.5 NA 0.0000 9999 5050 6070 0 0
2019/03/13 13:25:00 BASE 1.81 266 2.16 261 -0.7 100 -0.7 161 0 999.6 NA 0.0000 9999 5050 6040 0 0
2019/03/13 13:26:00 BASE 1.66 273 2.16 261 -0.7 100 -0.7 161 0 999.5 NA 0.0000 9999 4990 6200 0 0
2019/03/13 13:27:00 BASE 1.91 290 2.57 302 -0.7 100 -0.7 165 0 999.5 NA 0.0000 9999 4990 6140 0 0
2019/03/13 13:28:00 BASE 2.05 299 2.57 302 -0.7 100 -0.7 167 0 999.5 NA 0.0000 9999 6200 0 0 0
2019/03/13 13:29:00 BASE 2.17 301 2.73 303 -0.7 100 -0.7 168 0 999.5 NA 0.0000 9999 6200 21000 0 0
2019/03/13 13:30:00 BASE 2.31 306 2.73 303 -0.7 100 -0.7 166 0 999.5 NA 0.0000 9999 6170 0 0 0
2019/03/13 13:31:00 BASE 2.09 309 2.73 303 -0.7 100 -0.7 165 0 999.5 NA 0.0000 9999 6170 0 0 0
2019/03/13 13:32:00 BASE 2.19 305 2.73 303 -0.8 100 -0.8 166 0 999.6 NA 0.0000 9999 6170 0 0 0
2019/03/13 13:33:00 BASE 2.21 300 2.73 303 -0.8 100 -0.8 170 0 999.6 NA 0.0000 9999 6140 22540 24210 0
2019/03/13 13:34:00 BASE 1.81 304 2.73 303 -0.8 100 -0.8 175 0 999.6 NA 0.0000 9999 6170 0 0 0
2019/03/13 13:35:00 BASE 0.94 318 2.73 303 -0.9 100 -0.9 178 0 999.6 NA 0.0000 9999 6170 0 0 0
2019/03/13 13:36:00 BASE 0.14 346 2.73 303 -0.9 100 -0.9 178 0 999.6 NA 0.0000 9999 6200 0 0 0
2019/03/13 13:37:00 BASE 0.00 3 2.73 303 -0.8 100 -0.8 177 0 999.6 NA 0.0000 9999 6140 0 0 0
2019/03/13 13:38:00 BASE 0.00 3 2.73 303 -0.8 100 -0.8 174 0 999.6 NA 0.0000 9999 6070 0 0 0
2019/03/13 13:39:00 BASE 0.00 11 2.57 303 -0.7 100 -0.7 169 0 999.6 NA 0.0000 9999 6170 0 0 0
2019/03/13 13:40:00 BASE 0.00 16 2.57 303 -0.7 100 -0.7 164 0 999.6 NA 0.0000 9999 6140 0 0 0
2019/03/13 13:41:00 BASE 0.00 22 2.57 303 -0.6 100 -0.6 164 0 999.6 NA 0.0000 9999 6140 0 0 0
2019/03/13 13:42:00 BASE 0.00 59 2.21 296 -0.6 100 -0.6 165 0 999.6 NA 0.0000 9999 6140 0 0 0
2019/03/13 13:43:00 BASE 0.00 113 1.90 304 -0.6 100 -0.6 170 0 999.6 NA 0.0000 9999 6170 22840 0 0
2019/03/13 13:44:00 BASE 0.00 134 1.13 322 -0.6 100 -0.6 173 0 999.7 NA 0.0000 9999 6140 0 0 0
2019/03/13 13:45:00 BASE 0.00 133 M M -0.6 100 -0.6 172 0 999.7 NA 0.0000 9999 6140 0 0 0
2019/03/13 13:46:00 BASE 0.09 65 1.18 354 -0.5 100 -0.5 171 0 999.7 NA 0.0000 9999 6140 0 0 0
2019/03/13 13:47:00 BASE 0.27 1 1.18 15 -0.5 100 -0.5 171 0 999.7 NA 0.0000 9999 6040 0 0 0
2019/03/13 13:48:00 BASE 0.23 18 1.18 15 -0.5 100 -0.5 169 0 999.7 NA 0.0000 9999 6140 0 0 0
2019/03/13 13:49:00 BASE 0.05 27 1.18 15 -0.5 100 -0.5 164 0 999.7 NA 0.0000 9999 6230 0 0 0
2019/03/13 13:50:00 BASE 0.00 63 1.18 15 -0.6 100 -0.6 158 0 999.7 NA 0.0000 9999 6100 0 0 0
2019/03/13 13:51:00 BASE 0.00 105 1.18 15 -0.6 100 -0.6 157 0 999.6 NA 0.0000 9999 6230 0 0 0
2019/03/13 13:52:00 BASE 0.00 115 1.18 15 -0.6 100 -0.6 162 0 999.7 NA 0.0000 9999 6230 22700 0 0
2019/03/13 13:53:00 BASE 0.00 111 1.18 15 -0.5 100 -0.5 175 0 999.7 NA 0.0000 9999 6230 23300 0 0
2019/03/13 13:54:00 BASE 0.00 115 1.18 15 -0.4 100 -0.4 210 0 999.7 NA 0.0000 9999 6170 0 0 0
2019/03/13 13:55:00 BASE 0.00 124 1.18 15 -0.4 100 -0.4 240 0 999.7 NA 0.0000 9999 6170 0 0 0
2019/03/13 13:56:00 BASE 0.00 105 1.18 15 -0.3 100 -0.3 466 0 999.7 NA 0.0000 9999 6200 0 0 0
2019/03/13 13:57:00 BASE 0.00 67 1.18 15 -0.2 100 -0.2 253 0 999.7 NA 0.0000 9999 3610 6170 0 0
2019/03/13 13:58:00 BASE 0.00 52 M M -0.2 100 -0.2 234 0 999.7 NA 0.0000 9999 3610 6200 0 0
2019/03/13 13:59:00 BASE 0.00 40 M M -0.2 100 -0.2 254 0 999.7 NA 0.0000 9999 3580 6140 0 0
2019/03/13 14:00:00 BASE 0.00 332 M M -0.1 100 -0.1 225 0 999.7 NA 0.0000 9999 6070 0 0 0
2019/03/13 14:01:00 BASE 0.00 258 M M -0.1 100 -0.1 455 0 999.7 NA 0.0000 9999 6040 0 0 0
2019/03/13 14:02:00 BASE 0.00 248 M M -0.1 100 -0.1 250 0 999.7 NA 0.0000 9999 6070 0 0 0
2019/03/13 14:03:00 BASE 0.00 243 M M -0.1 100 -0.1 232 0 999.6 NA 0.0000 9999 6000 0 0 0
2019/03/13 14:04:00 BASE 0.00 217 M M -0.1 100 -0.1 283 0 999.7 NA 0.0000 9999 7120 0 0 0
2019/03/13 14:05:00 BASE 0.00 188 M M -0.1 100 -0.1 479 0 999.7 NA 0.0000 9999 7020 0 0 0
2019/03/13 14:06:00 BASE 0.00 167 M M -0.1 100 -0.1 324 0 999.7 NA 0.0000 9999 3710 6920 0 0
2019/03/13 14:07:00 BASE 0.00 163 M M -0.0 100 -0.0 273 0 999.7 NA 0.0000 9999 3640 6960 0 0
2019/03/13 14:08:00 BASE 0.00 180 M M -0.0 100 -0.0 239 0 999.7 NA 0.0000 9999 3710 4360 0 0
2019/03/13 14:09:00 BASE 0.00 189 M M 0.0 100 -0.0 219 0 999.7 NA 0.0000 9999 3640 0 0 0
2019/03/13 14:10:00 BASE 0.00 190 M M 0.0 100 0.0 224 0 999.7 NA 0.0000 9999 3900 6920 0 0
2019/03/13 14:11:00 BASE 0.00 130 M M 0.0 100 0.0 225 0 999.7 NA 0.0000 9999 3870 6820 0 0
2019/03/13 14:12:00 BASE 0.00 66 M M -0.0 100 -0.0 226 0 999.7 NA 0.0000 9999 3900 6730 0 0
2019/03/13 14:13:00 BASE 0.00 78 M M -0.0 100 -0.0 226 0 999.7 NA 0.0000 9999 6690 0 0 0
2019/03/13 14:14:00 BASE 0.00 90 M M 0.0 100 0.0 238 0 999.6 NA 0.0000 9999 6690 0 0 0
2019/03/13 14:15:00 BASE 0.00 101 M M 0.0 100 0.0 233 0 999.7 NA 0.0000 9999 6730 0 0 0
2019/03/13 14:16:00 BASE 0.00 121 M M 0.1 100 0.1 226 0 999.7 NA 0.0000 9999 3840 6790 0 0
2019/03/13 14:17:00 BASE 0.00 164 M M 0.2 100 0.2 215 0 999.7 NA 0.0000 9999 3770 6860 0 0
2019/03/13 14:18:00 BASE 0.00 245 M M 0.3 100 0.3 208 0 999.7 NA 0.0000 9999 3710 6920 0 0
2019/03/13 14:19:00 BASE 0.00 255 M M 0.3 100 0.3 203 0 999.7 NA 0.0000 9999 3670 0 0 0
2019/03/13 14:20:00 BASE 0.00 265 M M 0.3 100 0.3 207 0 999.7 NA 0.0000 9999 3710 0 0 0
2019/03/13 14:21:00 BASE 0.00 289 M M 0.3 100 0.3 217 0 999.7 NA 0.0000 9999 3670 0 0 0
2019/03/13 14:22:00 BASE 0.00 302 M M 0.2 100 0.2 219 0 999.7 NA 0.0000 9999 3640 0 0 0
2019/03/13 14:23:00 BASE 0.00 300 M M 0.2 100 0.2 216 0 999.7 NA 0.0000 9999 3610 0 0 0
2019/03/13 14:24:00 BASE 0.00 297 M M 0.2 100 0.2 221 0 999.7 NA 0.0000 9999 3640 0 0 0
2019/03/13 14:25:00 BASE 0.00 297 M M 0.2 100 0.2 230 0 999.7 NA 0.0000 9999 3610 0 0 0
2019/03/13 14:26:00 BASE 0.00 271 M M 0.3 100 0.3 242 0 999.7 NA 0.0000 9999 3610 19720 0 0
2019/03/13 14:27:00 BASE 0.00 188 M M 0.3 100 0.3 293 0 999.7 NA 0.0000 9999 3610 0 0 0
2019/03/13 14:28:00 BASE 0.00 166 M M 0.3 100 0.3 269 0 999.7 NA 0.0000 9999 3540 0 0 0
2019/03/13 14:29:00 BASE 0.00 167 M M 0.3 100 0.3 281 0 999.7 NA 0.0000 9999 3580 0 0 0
2019/03/13 14:30:00 BASE 0.46 169 1.95 173 0.3 100 0.3 276 0 999.7 NA 0.0000 9999 3540 22280 23000 0
2019/03/13 14:31:00 BASE 1.70 168 3.24 160 0.3 100 0.3 283 0 999.8 NA 0.0000 9999 3540 0 0 0
2019/03/13 14:32:00 BASE 2.71 164 3.34 168 0.3 100 0.3 269 0 999.8 NA 0.0000 9999 3580 0 0 0
2019/03/13 14:33:00 BASE 2.91 166 3.34 168 0.3 100 0.3 256 0 999.8 NA 0.0000 9999 3540 0 0 0
2019/03/13 14:34:00 BASE 2.77 160 3.34 168 0.3 100 0.3 255 0 999.8 NA 0.0000 9999 3540 0 0 0
2019/03/13 14:35:00 BASE 2.87 151 3.34 154 0.2 100 0.2 260 0 999.8 NA 0.0000 9999 3510 0 0 0
2019/03/13 14:36:00 BASE 2.95 151 3.34 154 0.1 100 0.1 253 0 999.8 NA 0.0000 9999 3480 0 0 0
2019/03/13 14:37:00 BASE 2.84 154 3.34 154 0.1 100 0.1 262 0 999.8 NA 0.0000 9999 3450 0 0 0
2019/03/13 14:38:00 BASE 2.96 154 3.34 154 0.1 100 0.1 278 0 999.7 NA 0.0000 9999 3450 0 0 0
2019/03/13 14:39:00 BASE 2.99 154 3.34 154 0.1 100 0.1 302 0 999.7 NA 0.0000 9999 3410 0 0 0
2019/03/13 14:40:00 BASE 2.75 153 3.34 154 0.2 100 0.2 297 0 999.7 NA 0.0000 9999 3410 6730 0 0
2019/03/13 14:41:00 BASE 2.43 154 3.34 154 0.2 100 0.2 289 0 999.8 NA 0.0000 9999 3450 0 0 0
2019/03/13 14:42:00 BASE 2.13 156 3.34 154 0.3 100 0.3 268 0 999.8 NA 0.0000 9999 3450 0 0 0
2019/03/13 14:43:00 BASE 2.05 164 3.34 154 0.3 100 0.3 272 0 999.9 NA 0.0000 9999 3380 0 0 0
2019/03/13 14:44:00 BASE 2.27 171 3.34 154 0.3 100 0.3 261 0 999.9 NA 0.0000 9999 3310 0 0 0
2019/03/13 14:45:00 BASE 2.86 167 4.58 136 0.3 100 0.3 247 0 999.9 NA 0.0000 9999 3280 0 0 0
2019/03/13 14:46:00 BASE 3.56 144 4.58 136 0.3 100 0.3 244 0 999.9 NA 0.0000 9999 3280 0 0 0
2019/03/13 14:47:00 BASE 3.48 124 4.58 136 0.3 100 0.3 238 0 999.8 NA 0.0000 9999 3250 0 0 0
2019/03/13 14:48:00 BASE 3.12 119 4.58 136 0.2 100 0.2 233 0 999.9 NA 0.0000 9999 3250 0 0 0
2019/03/13 14:49:00 BASE 2.75 123 4.58 136 0.2 100 0.2 231 0 999.8 NA 0.0000 9999 3250 0 0 0
2019/03/13 14:50:00 BASE 2.33 124 4.58 136 0.1 100 0.1 236 0 999.8 NA 0.0000 9999 3180 0 0 0
2019/03/13 14:51:00 BASE 2.17 124 4.58 136 0.2 100 0.2 246 0 999.8 NA 0.0000 9999 3180 0 0 0
2019/03/13 14:52:00 BASE 2.38 128 4.58 136 0.2 100 0.2 263 0 999.8 NA 0.0000 9999 3280 0 0 0
2019/03/13 14:53:00 BASE 2.65 132 4.58 136 0.2 100 0.2 266 0 999.7 NA 0.0000 9999 3280 5450 0 0
2019/03/13 14:54:00 BASE 2.86 134 4.58 136 0.2 100 0.2 259 0 999.7 NA 0.0000 9999 3220 3940 6730 0
2019/03/13 14:55:00 BASE 2.59 132 4.42 122 0.2 100 0.2 249 0 999.7 NA 0.0000 9999 3220 3940 5540 0
2019/03/13 14:56:00 BASE 1.54 128 3.76 121 0.2 100 0.2 247 0 999.7 NA 0.0000 9999 3280 4040 0 0
2019/03/13 14:57:00 BASE 0.82 118 3.76 121 0.2 100 0.2 247 0 999.7 NA 0.0000 9999 3250 3970 0 0
2019/03/13 14:58:00 BASE 1.08 122 3.55 131 0.2 100 0.2 247 0 999.7 NA 0.0000 9999 3250 4040 0 0
2019/03/13 14:59:00 BASE 1.50 142 3.55 131 0.2 100 0.2 243 0 999.7 NA 0.0000 9999 3180 4000 0 0
2019/03/13 15:00:00 BASE 1.59 147 3.55 131 0.3 100 0.3 237 0 999.7 NA 0.0000 9999 3150 4000 0 0
2019/03/13 15:01:00 BASE 1.82 149 3.55 131 0.3 100 0.3 237 0 999.7 NA 0.0000 9999 3150 3970 0 0
2019/03/13 15:02:00 BASE 2.03 155 3.55 131 0.3 100 0.3 239 0 999.7 NA 0.0000 9999 3180 4000 0 0
2019/03/13 15:03:00 BASE 2.78 148 4.12 137 0.4 100 0.4 243 0 999.7 NA 0.0000 9999 3150 3970 0 0
2019/03/13 15:04:00 BASE 3.78 134 5.04 133 0.5 100 0.5 245 0 999.7 NA 0.0000 9999 3150 3940 5540 0
2019/03/13 15:05:00 BASE 3.99 127 5.04 133 0.5 100 0.5 245 0 999.7 NA 0.0000 9999 3150 5480 0 0
2019/03/13 15:06:00 BASE 3.84 127 5.04 133 0.5 100 0.5 242 0 999.7 NA 0.0000 9999 3080 3900 5450 0
2019/03/13 15:07:00 BASE 3.68 129 5.04 133 0.5 100 0.5 236 0 999.7 NA 0.0000 9999 5450 23070 0 0
2019/03/13 15:08:00 BASE 3.73 129 5.04 133 0.4 100 0.4 230 0 999.7 NA 0.0000 9999 5450 0 0 0
2019/03/13 15:09:00 BASE 3.85 132 5.04 133 0.4 100 0.4 229 0 999.6 NA 0.0000 9999 5450 0 0 0
2019/03/13 15:10:00 BASE 3.75 137 5.04 133 0.3 100 0.3 228 0 999.7 NA 0.0000 9999 5380 0 0 0
2019/03/13 15:11:00 BASE 3.90 139 5.04 133 0.3 100 0.3 220 0 999.7 NA 0.0000 9999 5350 0 0 0
2019/03/13 15:12:00 BASE 4.12 141 5.04 133 0.3 100 0.3 209 0 999.7 NA 0.0000 9999 5350 0 0 0
2019/03/13 15:13:00 BASE 4.30 140 5.20 138 0.3 100 0.3 198 0 999.7 NA 0.0000 9999 5350 0 0 0
2019/03/13 15:14:00 BASE 4.41 137 5.20 138 0.3 100 0.3 191 0 999.7 NA 0.0000 9999 3180 3940 0 0
2019/03/13 15:15:00 BASE 4.54 137 5.20 138 0.3 100 0.3 187 0 999.8 NA 0.0000 9999 3150 0 0 0
2019/03/13 15:16:00 BASE 4.65 138 5.20 138 0.2 100 0.2 182 0 999.8 NA 0.0000 9999 3120 0 0 0
2019/03/13 15:17:00 BASE 4.47 139 5.20 138 0.2 100 0.2 178 0 999.8 NA 0.0000 9999 3080 3900 0 0
2019/03/13 15:18:00 BASE 4.05 139 5.20 138 0.2 100 0.2 177 0 999.8 NA 0.0000 9999 3120 3900 0 0
2019/03/13 15:19:00 BASE 3.84 139 5.20 138 0.2 100 0.2 180 0 999.8 NA 0.0000 9999 3180 3940 0 0
2019/03/13 15:20:00 BASE 3.84 137 5.20 138 0.2 100 0.2 178 0 999.8 NA 0.0000 9999 3220 3970 0 0
2019/03/13 15:21:00 BASE 3.95 136 5.20 138 0.2 100 0.2 170 0 999.8 NA 0.0000 9999 3180 4000 0 0
2019/03/13 15:22:00 BASE 4.25 135 5.20 138 0.2 100 0.2 163 0 999.8 NA 0.0000 9999 3220 0 0 0
2019/03/13 15:23:00 BASE 4.28 136 5.14 138 0.2 100 0.2 159 0 999.8 NA 0.0000 9999 3180 0 0 0
2019/03/13 15:24:00 BASE 4.49 138 5.30 138 0.1 100 0.1 157 0 999.8 NA 0.0000 9999 3150 0 0 0
2019/03/13 15:25:00 BASE 4.78 137 5.30 138 0.1 100 0.1 157 0 999.8 NA 0.0000 9999 3250 0 0 0
2019/03/13 15:26:00 BASE 4.97 137 5.56 134 0.1 100 0.1 161 0 999.8 NA 0.0000 9999 3250 0 0 0
2019/03/13 15:27:00 BASE 5.24 135 5.76 133 0.1 100 0.1 167 0 999.8 NA 0.0000 9999 3280 0 0 0
2019/03/13 15:28:00 BASE 5.52 134 6.17 133 0.1 100 0.1 171 0 999.7 NA 0.0000 9999 3220 0 0 0
2019/03/13 15:29:00 BASE 5.65 134 6.17 133 0.1 100 0.1 172 0 999.7 NA 0.0000 9999 3220 0 0 0
2019/03/13 15:30:00 BASE 5.49 133 6.17 133 0.1 100 0.1 166 0 999.7 NA 0.0000 9999 3220 0 0 0
2019/03/13 15:31:00 BASE 5.21 132 6.17 133 0.1 100 0.1 168 0 999.7 NA 0.0000 9999 3220 0 0 0
2019/03/13 15:32:00 BASE 5.08 130 6.17 133 0.1 100 0.1 176 0 999.7 NA 0.0000 9999 3180 0 0 0
2019/03/13 15:33:00 BASE 4.48 126 6.17 133 0.1 100 0.1 171 0 999.8 NA 0.0000 9999 3220 0 0 0
2019/03/13 15:34:00 BASE 3.65 122 6.17 133 0.1 100 0.1 162 0 999.8 NA 0.0000 9999 3180 0 0 0
2019/03/13 15:35:00 BASE 4.00 122 6.17 133 0.1 100 0.1 161 0 999.8 NA 0.0000 9999 3150 0 0 0
2019/03/13 15:36:12 BASE 4.80 121 6.17 112 0.1 100 0.1 161 0 999.7 NA 0.0000 9999 3150 0 0 0
2019/03/13 15:37:00 BASE 5.25 117 6.22 112 0.1 100 0.1 174 0 999.8 NA 0.0000 9999 3120 0 0 0
2019/03/13 15:38:00 BASE 5.41 113 6.58 111 0.2 100 0.2 188 0 999.7 NA 0.0000 9999 3050 0 0 0
2019/03/13 15:39:00 BASE 5.57 113 6.58 111 0.2 100 0.2 194 0 999.7 NA 0.0000 9999 3050 0 0 0
2019/03/13 15:40:00 BASE 5.68 109 6.79 104 0.2 100 0.2 201 0 999.6 NA 0.0000 9999 3020 0 0 0
2019/03/13 15:41:00 BASE 6.00 106 6.89 105 0.2 100 0.2 212 0 999.6 NA 0.0000 9999 2990 0 0 0
2019/03/13 15:42:00 BASE 5.60 107 6.89 105 0.2 100 0.2 228 0 999.6 NA 0.0000 9999 3080 0 0 0
2019/03/13 15:43:00 BASE 4.98 107 6.89 105 0.3 100 0.3 244 0 999.6 NA 0.0000 9999 3050 0 0 0
2019/03/13 15:44:00 BASE 5.71 109 6.89 105 0.3 100 0.3 262 0 999.6 NA 0.0000 9999 2950 0 0 0
2019/03/13 15:45:00 BASE 5.89 112 6.89 105 0.3 100 0.3 285 0 999.5 NA 0.0000 9999 2950 0 0 0
2019/03/13 15:46:00 BASE 4.42 113 6.89 105 0.3 100 0.3 296 0 999.6 NA 0.0000 9999 2920 0 0 0
2019/03/13 15:47:00 BASE 3.48 113 6.89 105 0.3 100 0.3 279 0 999.6 NA 0.0000 9999 2920 0 0 0
2019/03/13 15:48:00 BASE 4.12 115 6.89 105 0.3 100 0.3 265 0 999.6 NA 0.0000 9999 2920 0 0 0
2019/03/13 15:49:00 BASE 5.10 111 6.89 105 0.3 100 0.3 268 0 999.6 NA 0.0000 9999 2920 0 0 0
2019/03/13 15:50:00 BASE 5.04 110 6.89 105 0.3 100 0.3 280 0 999.6 NA 0.0000 9999 2890 0 0 0
2019/03/13 15:51:00 BASE 4.67 112 6.69 110 0.4 100 0.4 289 0 999.6 NA 0.0000 9999 2920 0 0 0
2019/03/13 15:52:00 BASE 5.24 113 6.69 110 0.4 100 0.4 282 0 999.6 NA 0.0000 9999 2850 0 0 0
2019/03/13 15:53:00 BASE 5.46 117 6.69 110 0.5 100 0.5 271 0 999.6 NA 0.0000 9999 2820 0 0 0
2019/03/13 15:54:00 BASE 5.24 124 6.58 113 0.4 100 0.4 264 0 999.6 NA 0.0000 9999 2790 0 0 0
2019/03/13 15:55:00 BASE 4.77 137 6.38 105 0.4 100 0.4 253 0 999.6 NA 0.0000 9999 2790 0 0 0
2019/03/13 15:56:00 BASE 4.21 133 6.38 105 0.4 100 0.4 242 0 999.5 NA 0.0000 9999 2760 0 0 0
2019/03/13 15:57:00 BASE 3.42 112 6.38 105 0.4 100 0.4 240 0 999.5 NA 0.0000 9999 2720 3250 0 0
2019/03/13 15:58:00 BASE 2.79 104 6.38 105 0.4 100 0.4 238 0 999.6 NA 0.0000 9999 2760 0 0 0
2019/03/13 15:59:00 BASE 2.57 106 6.33 118 0.5 100 0.5 236 0 999.6 NA 0.0000 9999 2760 0 0 0
2019/03/13 16:00:00 BASE 2.51 116 6.33 118 0.5 100 0.5 250 0 999.6 NA 0.0000 9999 2820 0 0 0
2019/03/13 16:01:00 BASE 2.65 125 6.33 118 0.6 100 0.6 267 0 999.6 NA 0.0000 9999 2850 0 0 0
2019/03/13 16:02:00 BASE 2.12 131 6.17 117 0.5 100 0.5 267 0 999.6 NA 0.0000 9999 2760 0 0 0
2019/03/13 16:03:00 BASE 1.58 139 5.56 119 0.5 100 0.5 260 0 999.6 NA 0.0000 9999 2760 0 0 0
2019/03/13 16:04:00 BASE 1.50 138 4.78 136 0.5 100 0.5 255 0 999.6 NA 0.0000 9999 2790 0 0 0
2019/03/13 16:05:00 BASE 1.65 141 4.73 132 0.5 100 0.5 254 0 999.6 NA 0.0000 9999 2760 0 0 0
2019/03/13 16:06:00 BASE 2.02 154 4.12 95 0.5 100 0.5 250 0 999.6 NA 0.0000 9999 2760 0 0 0
2019/03/13 16:07:00 BASE 2.34 154 3.81 101 0.6 100 0.6 244 0 999.6 NA 0.0000 9999 2760 0 0 0
2019/03/13 16:08:00 BASE 2.78 140 3.65 130 0.6 100 0.6 245 0 999.6 NA 0.0000 9999 2760 0 0 0
2019/03/13 16:09:00 BASE 2.46 137 3.65 130 0.5 100 0.5 250 0 999.6 NA 0.0000 9999 2690 22340 0 0
2019/03/13 16:10:00 BASE 1.23 138 3.65 130 0.5 100 0.5 260 0 999.6 NA 0.0000 9999 2720 0 0 0
2019/03/13 16:11:00 BASE 0.32 144 3.65 130 0.5 100 0.5 262 0 999.6 NA 0.0000 9999 2690 22080 0 0
2019/03/13 16:12:00 BASE 0.30 155 3.65 130 0.5 100 0.5 245 0 999.6 NA 0.0000 9999 2720 0 0 0
2019/03/13 16:13:00 BASE 1.35 165 3.65 130 0.6 100 0.6 231 0 999.7 NA 0.0000 9999 2760 0 0 0
2019/03/13 16:14:00 BASE 2.36 174 3.65 130 0.6 100 0.6 226 0 999.7 NA 0.0000 9999 2720 0 0 0
2019/03/13 16:15:00 BASE 2.49 170 3.65 130 0.6 100 0.6 231 0 999.6 NA 0.0000 9999 2720 0 0 0
2019/03/13 16:16:00 BASE 2.73 149 3.65 130 0.5 100 0.5 254 0 999.6 NA 0.0000 9999 2720 0 0 0
2019/03/13 16:17:00 BASE 2.79 122 3.65 130 0.5 100 0.5 278 0 999.5 NA 0.0000 9999 2720 0 0 0
2019/03/13 16:18:00 BASE 2.23 100 3.45 145 0.5 100 0.5 278 0 999.5 NA 0.0000 9999 2720 0 0 0
2019/03/13 16:19:00 BASE 1.24 50 3.45 145 0.4 100 0.4 264 0 999.5 NA 0.0000 9999 2690 0 0 0
2019/03/13 16:20:00 BASE 0.50 18 3.45 145 0.5 100 0.5 252 0 999.5 NA 0.0000 9999 2690 0 0 0
2019/03/13 16:21:00 BASE 1.14 30 3.45 145 0.5 100 0.5 247 0 999.4 NA 0.0000 9999 2890 4590 0 0
2019/03/13 16:22:00 BASE 1.72 58 3.45 145 0.4 100 0.4 250 0 999.4 NA 0.0000 9999 2920 4630 0 0
2019/03/13 16:23:00 BASE 2.34 83 3.65 78 0.5 100 0.5 263 0 999.4 NA 0.0000 9999 2920 4590 0 0
2019/03/13 16:24:00 BASE 2.92 86 3.65 78 0.5 100 0.5 275 0 999.3 NA 0.0000 9999 2920 4590 0 0
2019/03/13 16:25:00 BASE 3.12 94 4.48 104 0.6 100 0.6 274 0 999.2 NA 0.0000 9999 2890 4590 0 0
2019/03/13 16:26:00 BASE 4.19 110 5.56 114 0.6 100 0.6 270 0 999.2 NA 0.0000 9999 4560 0 0 0
2019/03/13 16:27:00 BASE 4.58 111 5.56 114 0.6 100 0.6 270 0 999.2 NA 0.0000 9999 4530 0 0 0
2019/03/13 16:28:00 BASE 4.49 113 5.56 114 0.6 100 0.6 268 0 999.2 NA 0.0000 9999 4530 0 0 0
2019/03/13 16:29:00 BASE 4.72 119 5.56 114 0.5 100 0.5 266 0 999.2 NA 0.0000 9999 4560 0 0 0
2019/03/13 16:30:00 BASE 4.73 124 5.56 114 0.4 100 0.4 261 0 999.2 NA 0.0000 9999 4560 0 0 0
2019/03/13 16:31:00 BASE 5.28 124 6.58 130 0.3 100 0.3 250 0 999.2 NA 0.0000 9999 4530 18730 19330 0
2019/03/13 16:32:00 BASE 5.85 124 6.94 130 0.2 100 0.2 232 0 999.2 NA 0.0000 9999 4530 0 0 0
2019/03/13 16:33:00 BASE 6.29 125 7.56 123 0.2 100 0.2 218 0 999.1 NA 0.0000 9999 4490 0 0 0
2019/03/13 16:34:00 BASE 6.83 123 7.97 127 0.1 100 0.1 216 0 999.1 NA 0.0000 9999 4460 0 0 0
2019/03/13 16:35:00 BASE 6.26 125 7.97 127 0.1 100 0.1 218 0 999.1 NA 0.0000 9999 4460 0 0 0
2019/03/13 16:36:00 BASE 5.26 125 7.97 127 0.1 100 0.1 213 0 999.1 NA 0.0000 9999 4460 0 0 0
2019/03/13 16:37:00 BASE 5.17 124 7.97 127 0.0 100 0.0 195 0 999.2 NA 0.0000 9999 4430 0 0 0
2019/03/13 16:38:00 BASE 5.86 128 7.97 127 0.0 100 0.0 175 0 999.2 NA 0.0000 9999 4400 0 0 0
2019/03/13 16:39:00 BASE 6.45 130 7.97 127 0.0 100 0.0 160 0 999.2 NA 0.0000 9999 4400 0 0 0
2019/03/13 16:40:00 BASE 6.69 129 9.00 130 0.0 100 0.0 153 0 999.2 NA 0.0000 9999 4040 0 0 0
2019/03/13 16:41:00 BASE 7.02 129 9.00 130 -0.0 100 -0.0 162 0 999.2 NA 0.0000 9999 4230 0 0 0
2019/03/13 16:42:00 BASE 6.11 128 9.00 130 -0.1 100 -0.1 174 0 999.2 NA 0.0000 9999 4000 0 0 0
2019/03/13 16:43:00 BASE 6.40 124 9.00 130 -0.1 100 -0.1 181 0 999.3 NA 0.0000 9999 4000 0 0 0
2019/03/13 16:44:00 BASE 6.87 127 9.00 130 -0.1 100 -0.1 181 0 999.3 NA 0.0000 9999 3970 4360 0 0
2019/03/13 16:45:00 BASE 5.31 135 9.00 130 -0.1 100 -0.1 177 0 999.4 NA 0.0000 9999 3900 0 0 0
2019/03/13 16:46:00 BASE 4.77 133 9.00 130 -0.1 100 -0.1 173 0 999.4 NA 0.0000 9999 3940 0 0 0
2019/03/13 16:47:00 BASE 4.83 130 9.00 130 -0.1 100 -0.1 171 0 999.4 NA 0.0000 9999 3900 0 0 0
2019/03/13 16:48:00 BASE 5.84 124 9.00 130 -0.1 100 -0.1 171 0 999.5 NA 0.0000 9999 3870 0 0 0
2019/03/13 16:49:00 BASE 6.49 125 9.00 130 -0.1 100 -0.1 165 0 999.5 NA 0.0000 9999 3870 0 0 0
2019/03/13 16:50:00 BASE 6.34 123 8.49 129 -0.1 100 -0.1 154 0 999.4 NA 0.0000 9999 3840 0 0 0
2019/03/13 16:51:00 BASE 6.53 116 8.28 129 -0.2 100 -0.2 143 0 999.4 NA 0.0000 9999 3810 0 0 0
2019/03/13 16:52:00 BASE 6.02 117 8.28 129 -0.3 100 -0.3 133 0 999.4 NA 0.0000 9999 3770 0 0 0
2019/03/13 16:53:00 BASE 6.07 114 7.61 110 -0.3 100 -0.3 126 0 999.4 NA 0.0000 9999 3770 0 0 0
2019/03/13 16:54:00 BASE 6.18 114 7.61 110 -0.3 100 -0.3 124 0 999.4 NA 0.0000 9999 3740 0 0 0
2019/03/13 16:55:00 BASE 4.70 120 7.61 110 -0.3 100 -0.3 126 0 999.4 NA 0.0000 9999 3770 0 0 0
2019/03/13 16:56:00 BASE 3.12 117 7.61 110 -0.3 100 -0.3 132 0 999.4 NA 0.0000 9999 3770 0 0 0
2019/03/13 16:57:00 BASE 3.12 112 7.61 110 -0.2 100 -0.2 143 0 999.4 NA 0.0000 9999 3770 0 0 0
2019/03/13 16:58:00 BASE 3.53 111 7.61 110 -0.2 100 -0.2 155 0 999.4 NA 0.0000 9999 3740 0 0 0
2019/03/13 16:59:00 BASE 3.49 112 7.61 110 -0.1 100 -0.1 168 0 999.4 NA 0.0000 9999 3710 0 0 0
2019/03/13 17:00:00 BASE 3.68 115 7.51 123 -0.1 100 -0.1 185 0 999.4 NA 0.0000 9999 3710 0 0 0
2019/03/13 17:01:00 BASE 4.56 118 7.05 116 -0.1 100 -0.1 200 0 999.4 NA 0.0000 9999 3670 0 0 0
2019/03/13 17:02:00 BASE 4.66 114 7.05 116 -0.1 100 -0.1 208 0 999.4 NA 0.0000 9999 3670 0 0 0
2019/03/13 17:03:00 BASE 3.93 109 6.84 119 -0.1 100 -0.1 212 0 999.4 NA 0.0000 9999 3640 0 0 0
2019/03/13 17:04:00 BASE 3.95 107 5.86 128 -0.1 100 -0.1 207 0 999.4 NA 0.0000 9999 3540 0 0 0
2019/03/13 17:05:00 BASE 4.22 108 5.86 128 -0.1 100 -0.1 200 0 999.4 NA 0.0000 9999 3540 0 0 0
2019/03/13 17:06:00 BASE 4.29 111 5.86 128 -0.1 100 -0.1 195 0 999.4 NA 0.0000 9999 3610 0 0 0
2019/03/13 17:07:00 BASE 3.87 113 5.86 128 -0.1 100 -0.1 182 0 999.4 NA 0.0000 9999 3510 0 0 0
2019/03/13 17:08:00 BASE 3.57 118 5.86 128 -0.2 100 -0.2 166 0 999.4 NA 0.0000 9999 3540 0 0 0
2019/03/13 17:09:00 BASE 3.08 123 5.86 128 -0.2 100 -0.2 153 0 999.4 NA 0.0000 9999 3540 0 0 0
2019/03/13 17:10:00 BASE 2.19 128 5.86 128 -0.2 100 -0.2 141 0 999.4 NA 0.0000 9999 3540 0 0 0
2019/03/13 17:11:00 BASE 1.57 127 5.25 126 -0.2 100 -0.2 133 0 999.4 NA 0.0000 9999 3540 0 0 0
2019/03/13 17:12:00 BASE 1.26 127 5.20 108 -0.2 100 -0.2 132 0 999.3 NA 0.0000 9999 3540 0 0 0
2019/03/13 17:13:00 BASE 1.38 132 5.04 116 -0.2 100 -0.2 135 0 999.2 NA 0.0000 9999 3510 0 0 0
2019/03/13 17:14:00 BASE 1.66 129 5.04 116 -0.1 100 -0.1 137 0 999.2 NA 0.0000 9999 3480 21460 0 0
2019/03/13 17:15:00 BASE 1.53 123 4.73 113 -0.0 100 -0.0 140 0 999.2 NA 0.0000 9999 3410 0 0 0
2019/03/13 17:16:00 BASE 1.68 124 4.12 124 -0.0 100 -0.0 140 0 999.2 NA 0.0000 9999 3410 0 0 0
2019/03/13 17:17:00 BASE 2.02 123 4.12 124 0.0 100 0.0 132 0 999.2 NA 0.0000 9999 3350 0 0 0
2019/03/13 17:18:00 BASE 1.61 116 3.60 126 0.0 100 0.0 118 0 999.2 NA 0.0000 9999 3350 0 0 0
2019/03/13 17:19:00 BASE 0.64 101 2.57 133 0.0 100 0.0 104 0 999.2 NA 0.0000 9999 3350 0 0 0
2019/03/13 17:20:00 BASE 0.15 62 2.37 126 0.1 100 0.1 91 0 999.3 NA 0.0000 9999 3350 0 0 0
2019/03/13 17:21:00 BASE 0.34 30 2.37 126 0.2 100 0.2 84 0 999.4 NA 0.0000 9999 3280 0 0 0
2019/03/13 17:22:00 BASE 0.24 23 2.37 126 0.3 100 0.3 77 0 999.4 NA 0.0000 9999 3250 0 0 0
2019/03/13 17:23:00 BASE 0.22 19 2.37 126 0.3 100 0.3 72 0 999.4 NA 0.0000 9999 3180 0 0 0
2019/03/13 17:24:00 BASE 0.45 15 2.37 126 0.4 100 0.4 64 0 999.4 NA 0.0000 9999 3150 0 0 0
2019/03/13 17:25:00 BASE 0.56 16 2.37 126 0.4 100 0.4 59 0 999.4 NA 0.0000 9999 3120 0 0 0
2019/03/13 17:26:00 BASE 0.41 16 2.26 109 0.3 100 0.3 57 0 999.5 NA 0.0000 9999 3150 0 0 0
2019/03/13 17:27:00 BASE 0.17 5 1.75 116 0.3 100 0.3 56 0 999.5 NA 0.0000 9999 3120 0 0 0
2019/03/13 17:28:00 BASE 0.05 351 1.29 37 0.3 100 0.3 55 0 999.5 NA 0.0000 9999 3080 0 0 0
2019/03/13 17:29:00 BASE 0.00 351 1.29 37 0.2 100 0.2 56 0 999.5 NA 0.0000 9999 3080 0 0 0
2019/03/13 17:30:00 BASE 0.00 355 1.29 37 0.2 100 0.2 56 0 999.5 NA 0.0000 9999 3080 0 0 0
2019/03/13 17:31:00 BASE 0.00 354 1.18 32 0.2 100 0.2 56 0 999.5 NA 0.0000 9999 3020 0 0 0
2019/03/13 17:32:00 BASE 0.00 168 1.18 32 0.2 100 0.2 58 0 999.5 NA 0.0000 9999 2990 0 0 0
2019/03/13 17:33:00 BASE 0.04 156 1.18 32 0.2 100 0.2 63 0 999.5 NA 0.0000 9999 2990 0 0 0
2019/03/13 17:34:00 BASE 0.60 150 1.95 153 0.2 100 0.2 69 0 999.5 NA 0.0000 9999 2990 0 0 0
2019/03/13 17:35:00 BASE 1.85 154 3.04 155 0.3 100 0.3 77 0 999.5 NA 0.0000 9999 2990 0 0 0
2019/03/13 17:36:00 BASE 2.87 155 3.29 151 0.3 100 0.3 86 0 999.4 NA 0.0000 9999 2890 0 0 0
2019/03/13 17:37:00 BASE 3.05 154 3.29 151 0.3 100 0.3 94 0 999.4 NA 0.0000 9999 2890 0 0 0
2019/03/13 17:38:00 BASE 2.95 150 3.29 151 0.2 100 0.2 100 0 999.4 NA 0.0000 9999 2890 0 0 0
2019/03/13 17:39:00 BASE 2.87 149 3.29 151 0.2 100 0.2 103 0 999.4 NA 0.0000 9999 2820 0 0 0
2019/03/13 17:40:00 BASE 3.01 145 3.86 143 0.1 100 0.1 107 0 999.4 NA 0.0000 9999 2820 0 0 0
2019/03/13 17:41:00 BASE 3.51 140 4.06 142 0.1 100 0.1 113 0 999.4 NA 0.0000 9999 2820 0 0 0
2019/03/13 17:42:00 BASE 3.66 137 4.06 142 0.0 100 0.0 115 0 999.4 NA 0.0000 9999 2850 0 0 0
2019/03/13 17:43:00 BASE 3.57 137 4.17 142 -0.0 100 -0.0 114 0 999.4 NA 0.0000 9999 2890 0 0 0
2019/03/13 17:44:00 BASE 3.94 138 4.68 138 -0.1 100 -0.1 113 0 999.4 NA 0.0000 9999 2890 0 0 0
2019/03/13 17:45:00 BASE 4.63 137 5.35 136 -0.1 100 -0.1 113 0 999.4 NA 0.0000 9999 2850 0 0 0
2019/03/13 17:46:00 BASE 5.28 135 6.12 136 -0.2 100 -0.2 114 0 999.3 NA 0.0000 9999 2820 0 0 0
2019/03/13 17:47:00 BASE 6.05 134 6.84 139 -0.2 100 -0.2 120 0 999.2 NA 0.0000 9999 2760 0 0 0
2019/03/13 17:48:00 BASE 6.38 134 6.84 139 -0.3 100 -0.3 131 0 999.2 NA 0.0000 9999 2760 0 0 0
2019/03/13 17:49:00 BASE 6.08 130 6.84 139 -0.3 100 -0.3 143 0 999.2 NA 0.0000 9999 2690 0 0 0
2019/03/13 17:50:00 BASE 5.80 129 6.84 139 -0.3 100 -0.3 148 0 999.2 NA 0.0000 9999 2620 0 0 0
2019/03/13 17:51:00 BASE 5.94 131 7.10 135 -0.4 100 -0.4 142 0 999.2 NA 0.0000 9999 2590 0 0 0
2019/03/13 17:52:00 BASE 6.06 130 7.10 135 -0.4 100 -0.4 138 0 999.2 NA 0.0000 9999 2560 0 0 0
2019/03/13 17:53:00 BASE 6.24 130 7.25 135 -0.4 100 -0.4 141 0 999.2 NA 0.0000 9999 2590 0 0 0
2019/03/13 17:54:00 BASE 6.61 137 7.31 142 -0.4 100 -0.4 153 0 999.2 NA 0.0000 9999 2620 0 0 0
2019/03/13 17:55:00 BASE 6.59 137 7.46 133 -0.4 100 -0.4 154 0 999.2 NA 0.0000 9999 2620 0 0 0
2019/03/13 17:56:00 BASE 6.94 129 8.54 122 -0.4 100 -0.4 148 0 999.2 NA 0.0000 9999 790 0 0 0
2019/03/13 17:57:00 BASE 7.46 124 8.54 122 -0.4 100 -0.4 141 0 999.2 NA 0.0000 9999 2560 0 0 0
2019/03/13 17:58:00 BASE 7.23 125 8.54 122 -0.4 100 -0.4 135 0 999.3 NA 0.0000 UP 9999 2590 0 0 0
2019/03/13 17:59:00 BASE 6.97 127 8.54 122 -0.4 100 -0.4 133 0 999.4 NA 0.0000 UP 9000 2560 0 0 0
2019/03/13 18:00:00 BASE 6.48 124 8.54 122 -0.4 100 -0.4 133 0 999.4 NA 0.0000 UP 7000 2560 0 0 0
2019/03/13 18:01:00 BASE 5.47 125 8.54 122 -0.4 100 -0.4 132 0 999.5 NA 0.0000 UP 6000 2560 0 0 0
2019/03/13 18:02:00 BASE 5.17 125 8.54 122 -0.4 100 -0.4 126 0 999.4 NA 0.0000 UP BR 6000 2560 0 0 0
2019/03/13 18:03:00 BASE 5.96 122 8.54 122 -0.4 100 -0.4 120 0 999.4 NA 0.0000 UP BR 6000 2530 0 0 0
2019/03/13 18:04:00 BASE 6.80 120 8.54 122 -0.4 100 -0.4 116 0 999.4 NA 0.0000 UP BR 6000 2530 0 0 0
2019/03/13 18:05:00 BASE 6.64 122 8.54 122 -0.4 100 -0.4 116 0 999.4 NA 0.0000 UP BR 8000 690 0 0 0
2019/03/13 18:06:00 BASE 5.71 125 8.49 122 -0.4 100 -0.4 117 0 999.5 NA 0.0000 UP BR 8000 2530 0 0 0
2019/03/13 18:07:00 BASE 5.83 124 7.82 121 -0.4 100 -0.4 117 0 999.5 NA 0.0000 UP BR 7000 2560 0 0 0
2019/03/13 18:08:00 BASE 6.45 121 7.82 121 -0.5 100 -0.5 113 0 999.5 NA 0.0000 UP BR 6000 2560 0 0 0
2019/03/13 18:09:00 BASE 5.83 127 7.82 121 -0.5 100 -0.5 110 0 999.5 NA 0.0000 UP BR 7000 1800 2430 0 0
2019/03/13 18:10:00 BASE 4.72 132 7.82 121 -0.5 100 -0.5 110 0 999.5 NA 0.0000 UP BR 8000 1740 2460 0 0
2019/03/13 18:11:00 BASE 4.99 126 7.82 121 -0.5 100 -0.5 108 0 999.6 NA 0.0000 UP BR 9000 1710 2430 0 0
2019/03/13 18:12:00 BASE 5.99 119 7.82 121 -0.5 100 -0.5 107 0 999.6 NA 0.0000 UP BR 9000 750 2330 0 0
2019/03/13 18:13:00 BASE 6.15 118 7.82 121 -0.5 100 -0.5 107 0 999.5 NA 0.0000 UP BR 9000 690 0 0 0
2019/03/13 18:14:00 BASE 6.09 118 7.10 107 -0.5 100 -0.5 106 0 999.6 NA 0.0000 UP BR 9000 2430 0 0 0
2019/03/13 18:15:00 BASE 6.05 117 7.10 107 -0.5 100 -0.5 103 0 999.5 NA 0.0000 UP BR 9000 2430 0 0 0
2019/03/13 18:16:00 BASE 6.00 116 7.10 107 -0.5 100 -0.5 103 0 999.6 NA 0.0000 UP BR 8000 2430 0 0 0
2019/03/13 18:17:00 BASE 5.84 116 7.05 115 -0.5 100 -0.5 111 0 999.5 NA 0.0000 UP BR 7000 2430 0 0 0
2019/03/13 18:18:00 BASE 6.29 119 7.05 118 -0.5 100 -0.5 125 0 999.5 NA 0.0000 UP BR 7000 1710 2260 0 0
2019/03/13 18:19:00 BASE 6.11 118 7.05 118 -0.5 100 -0.5 132 0 999.5 NA 0.0000 BR 8000 2400 0 0 0
2019/03/13 18:20:00 BASE 5.81 116 7.41 120 -0.5 100 -0.5 136 0 999.5 NA 0.0000 BR 9000 720 0 0 0
2019/03/13 18:21:00 BASE 6.04 117 7.41 120 -0.5 100 -0.5 140 0 999.5 NA 0.0000 BR 9999 2360 0 0 0
2019/03/13 18:22:00 BASE 6.48 116 7.41 120 -0.5 100 -0.5 140 0 999.5 NA 0.0000 BR 9999 2130 0 0 0
2019/03/13 18:23:00 BASE 6.73 115 7.41 120 -0.5 100 -0.5 134 0 999.5 NA 0.0000 BR 9999 1640 2430 0 0
2019/03/13 18:24:00 BASE 6.02 117 7.41 120 -0.5 100 -0.5 132 0 999.5 NA 0.0000 BR 9999 1840 2430 0 0
2019/03/13 18:25:00 BASE 5.78 110 7.41 120 -0.5 100 -0.5 141 0 999.5 NA 0.0000 BR 9999 1770 2460 0 0
2019/03/13 18:26:00 BASE 5.61 107 7.41 120 -0.5 100 -0.5 149 0 999.5 NA 0.0000 BR 9999 1800 2460 0 0
2019/03/13 18:27:00 BASE 5.08 112 7.41 120 -0.5 100 -0.5 137 0 999.5 NA 0.0000 9999 1740 2460 0 0
2019/03/13 18:28:00 BASE 4.96 114 7.41 120 -0.5 100 -0.5 116 0 999.5 NA 0.0000 9999 1670 0 0 0
2019/03/13 18:29:00 BASE 5.30 109 7.41 120 -0.4 100 -0.4 102 0 999.5 NA 0.0000 9999 1640 0 0 0
2019/03/13 18:30:00 BASE 5.17 106 7.31 116 -0.4 100 -0.4 101 0 999.5 NA 0.0000 9999 1610 0 0 0
2019/03/13 18:31:00 BASE 4.52 115 7.31 116 -0.4 100 -0.4 104 0 999.5 NA 0.0000 9999 1570 0 0 0
2019/03/13 18:32:00 BASE 3.65 121 7.15 116 -0.4 100 -0.4 103 0 999.5 NA 0.0000 9999 1570 0 0 0
2019/03/13 18:33:00 BASE 3.50 113 6.89 114 -0.3 100 -0.3 100 0 999.5 NA 0.0000 9999 1610 0 0 0
2019/03/13 18:34:00 BASE 4.20 113 6.58 107 -0.3 100 -0.3 101 0 999.5 NA 0.0000 9999 1640 0 0 0
2019/03/13 18:35:00 BASE 4.22 108 6.53 99 -0.3 100 -0.3 105 0 999.5 NA 0.0000 9999 1570 0 0 0
2019/03/13 18:36:00 BASE 3.84 107 6.53 99 -0.2 100 -0.2 113 0 999.5 NA 0.0000 9999 1670 0 0 0
2019/03/13 18:37:00 BASE 3.74 118 6.53 99 -0.2 100 -0.2 118 0 999.5 NA 0.0000 9999 1710 0 0 0
2019/03/13 18:38:00 BASE 3.24 120 6.53 99 -0.2 100 -0.2 123 0 999.5 NA 0.0000 9999 1640 21880 22150 0
2019/03/13 18:39:00 BASE 1.80 109 5.45 127 -0.2 100 -0.2 130 0 999.6 NA 0.0000 9999 1640 0 0 0
2019/03/13 18:40:00 BASE 1.15 93 5.45 127 -0.2 100 -0.2 133 0 999.5 NA 0.0000 9999 1510 0 0 0
2019/03/13 18:41:00 BASE 0.92 75 5.14 129 -0.2 100 -0.2 134 0 999.5 NA 0.0000 9999 1410 0 0 0
2019/03/13 18:42:00 BASE 0.20 75 5.14 129 -0.2 100 -0.2 134 0 999.5 NA 0.0000 9999 1440 0 0 0
2019/03/13 18:43:00 BASE 0.20 116 5.14 129 -0.1 100 -0.1 136 0 999.5 NA 0.0000 9999 1540 0 0 0
2019/03/13 18:44:00 BASE 0.34 135 4.84 100 -0.0 100 -0.0 139 0 999.6 NA 0.0000 9999 1280 0 0 0
2019/03/13 18:45:00 BASE 0.58 96 4.37 109 0.1 100 0.1 148 0 999.6 NA 0.0000 9999 1250 0 0 0
2019/03/13 18:46:00 BASE 0.43 74 4.37 109 0.1 100 0.1 172 0 999.6 NA 0.0000 9999 1210 0 0 0
2019/03/13 18:47:00 BASE 0.05 87 3.55 115 0.2 100 0.2 179 0 999.5 NA 0.0000 9999 1180 24310 0 0
2019/03/13 18:48:00 BASE 0.05 114 1.75 77 0.3 100 0.3 157 0 999.5 NA 0.0000 9999 1080 0 0 0
2019/03/13 18:49:00 BASE 0.00 105 1.75 77 0.3 100 0.3 141 0 999.5 NA 0.0000 9999 1180 0 0 0
2019/03/13 18:50:00 BASE 0.00 66 1.75 77 0.3 100 0.3 133 0 999.5 NA 0.0000 9999 1050 0 0 0
2019/03/13 18:51:00 BASE 0.21 12 1.75 77 0.3 100 0.3 115 0 999.5 NA 0.0000 9999 1050 0 0 0
2019/03/13 18:52:00 BASE 0.21 328 1.75 77 0.4 100 0.4 94 0 999.5 NA 0.0000 9999 1050 0 0 0
2019/03/13 18:53:00 BASE 0.00 339 1.75 77 0.4 100 0.4 81 0 999.5 NA 0.0000 9999 1050 0 0 0
2019/03/13 18:54:00 BASE 0.00 350 1.75 77 0.3 100 0.3 74 0 999.5 NA 0.0000 9999 1150 0 0 0
2019/03/13 18:55:00 BASE 0.00 334 1.39 315 0.4 100 0.4 70 0 999.5 NA 0.0000 9999 1380 0 0 0
2019/03/13 18:56:00 BASE 0.00 336 1.39 315 0.3 100 0.3 68 0 999.5 NA 0.0000 9999 1380 0 0 0
2019/03/13 18:57:00 BASE 0.00 344 1.39 315 0.3 100 0.3 70 0 999.5 NA 0.0000 9999 1380 0 0 0
2019/03/13 18:58:00 BASE 0.43 337 1.39 315 0.3 100 0.3 73 0 999.6 NA 0.0000 9999 1410 0 0 0
2019/03/13 18:59:00 BASE 0.98 331 1.70 323 0.3 100 0.3 77 0 999.6 NA 0.0000 9999 1380 0 0 0
2019/03/13 19:00:00 BASE 1.11 325 1.70 323 0.3 100 0.3 79 0 999.6 NA 0.0000 9999 1350 0 0 0
2019/03/13 19:01:00 BASE 1.21 316 1.70 323 0.2 100 0.2 79 0 999.6 NA 0.0000 9999 1310 0 0 0
2019/03/13 19:02:00 BASE 1.38 313 1.70 323 0.2 100 0.2 78 0 999.6 NA 0.0000 9999 1020 0 0 0
2019/03/13 19:03:00 BASE 1.42 312 1.70 323 0.2 100 0.2 77 0 999.6 NA 0.0000 9999 1350 0 0 0
2019/03/13 19:04:00 BASE 1.43 307 1.70 323 0.2 100 0.2 78 0 999.6 NA 0.0000 9999 1310 0 0 0
2019/03/13 19:05:00 BASE 1.27 303 1.70 323 0.2 100 0.2 79 0 999.6 NA 0.0000 9999 1250 0 0 0
2019/03/13 19:06:00 BASE 0.62 304 1.70 323 0.2 100 0.2 80 0 999.6 NA 0.0000 9999 1250 0 0 0
2019/03/13 19:07:00 BASE 0.27 300 1.70 323 0.2 100 0.2 79 0 999.6 NA 0.0000 9999 1210 0 0 0
2019/03/13 19:08:00 BASE 0.19 291 1.70 323 0.2 100 0.2 78 0 999.6 NA 0.0000 9999 1180 0 0 0
2019/03/13 19:09:00 BASE 0.00 281 1.65 290 0.2 100 0.2 78 0 999.5 NA 0.0000 9999 1210 0 0 0
2019/03/13 19:10:00 BASE 0.00 276 1.65 290 0.1 100 0.1 80 0 999.5 NA 0.0000 9999 1210 0 0 0
2019/03/13 19:11:00 BASE 0.00 277 1.65 290 0.0 100 0.0 81 0 999.6 NA 0.0000 9999 1250 0 0 0
2019/03/13 19:12:00 BASE 0.00 278 1.65 290 -0.0 100 -0.0 79 0 999.6 NA 0.0000 9999 1150 0 0 0
2019/03/13 19:13:00 BASE 0.00 275 1.65 290 -0.0 100 -0.0 78 0 999.6 NA 0.0000 9999 1150 0 0 0
2019/03/13 19:14:00 BASE 0.00 274 1.54 303 0.0 100 -0.0 78 0 999.6 NA 0.0000 9999 1150 0 0 0
2019/03/13 19:15:00 BASE 0.00 275 1.13 297 0.1 100 0.1 83 0 999.6 NA 0.0000 9999 1180 0 0 0
2019/03/13 19:16:00 BASE 0.00 273 1.13 297 0.1 100 0.1 91 0 999.6 NA 0.0000 9999 1150 0 0 0
2019/03/13 19:17:00 BASE 0.00 270 M M 0.1 100 0.1 95 0 999.6 NA 0.0000 9999 1080 0 0 0
2019/03/13 19:18:00 BASE 0.00 270 M M 0.2 100 0.2 95 0 999.6 NA 0.0000 9999 1050 0 0 0
2019/03/13 19:19:00 BASE 0.00 271 M M 0.2 100 0.2 92 0 999.6 NA 0.0000 9999 980 0 0 0
2019/03/13 19:20:00 BASE 0.00 284 M M 0.2 100 0.2 88 0 999.6 NA 0.0000 9999 950 0 0 0
2019/03/13 19:21:00 BASE 0.00 290 M M 0.3 100 0.3 84 0 999.6 NA 0.0000 9999 790 0 0 0
2019/03/13 19:22:00 BASE 0.00 286 M M 0.3 100 0.3 84 0 999.6 NA 0.0000 9999 720 0 0 0
2019/03/13 19:23:00 BASE 0.00 286 M M 0.3 100 0.3 84 0 999.6 NA 0.0000 9999 720 0 0 0
2019/03/13 19:24:00 BASE 0.00 286 M M 0.4 100 0.4 82 0 999.6 NA 0.0000 9999 980 0 0 0
2019/03/13 19:25:00 BASE 0.00 286 M M 0.3 100 0.3 79 0 999.6 NA 0.0000 9999 980 0 0 0
2019/03/13 19:26:00 BASE 0.00 252 M M 0.3 100 0.3 75 0 999.6 NA 0.0000 9999 950 0 0 0
2019/03/13 19:27:00 BASE 0.05 176 1.08 166 0.4 100 0.4 70 0 999.6 NA 0.0000 9999 1020 0 0 0
2019/03/13 19:28:00 BASE 0.25 168 1.34 174 0.4 100 0.4 67 0 999.6 NA 0.0000 9999 1080 0 0 0
2019/03/13 19:29:00 BASE 0.66 162 1.39 154 0.4 100 0.4 68 0 999.6 NA 0.0000 9999 1080 0 0 0
2019/03/13 19:30:00 BASE 0.96 155 1.54 155 0.4 100 0.4 69 0 999.5 NA 0.0000 9999 1020 0 0 0
2019/03/13 19:31:00 BASE 1.03 157 1.59 158 0.4 100 0.4 68 0 999.5 NA 0.0000 9999 1150 0 0 0
2019/03/13 19:32:00 BASE 0.82 152 1.59 158 0.4 100 0.4 64 0 999.5 NA 0.0000 9999 890 0 0 0
2019/03/13 19:33:00 BASE 0.39 138 1.59 158 0.4 100 0.4 57 0 999.5 NA 0.0000 9999 720 0 0 0
2019/03/13 19:34:00 BASE 0.09 128 1.59 158 0.4 100 0.4 50 0 999.6 NA 0.0000 9999 1150 0 0 0
2019/03/13 19:35:00 BASE 0.00 131 1.59 158 0.4 100 0.4 47 0 999.6 NA 0.0000 9999 1020 0 0 0
2019/03/13 19:36:00 BASE 0.00 128 1.59 158 0.4 100 0.4 45 0 999.7 NA 0.0000 9999 1180 0 0 0
2019/03/13 19:37:00 BASE 0.00 121 1.59 158 0.4 100 0.4 44 0 999.7 NA 0.0000 9999 1180 0 0 0
2019/03/13 19:38:00 BASE 0.00 120 1.59 158 0.3 100 0.3 45 0 999.6 NA 0.0000 9999 1150 0 0 0
2019/03/13 19:39:00 BASE 0.00 125 1.59 158 0.3 100 0.3 47 0 999.6 NA 0.0000 9999 1180 0 0 0
2019/03/13 19:40:00 BASE 0.20 130 1.59 158 0.3 100 0.3 51 0 999.6 NA 0.0000 9999 1180 0 0 0
2019/03/13 19:41:00 BASE 0.79 137 1.59 147 0.4 100 0.4 53 0 999.6 NA 0.0000 9999 1180 0 0 0
2019/03/13 19:42:00 BASE 1.28 142 1.59 147 0.4 100 0.4 51 0 999.6 NA 0.0000 9999 1180 0 0 0
2019/03/13 19:43:00 BASE 1.11 136 1.59 147 0.4 100 0.4 49 0 999.6 NA 0.0000 9999 1210 0 0 0
2019/03/13 19:44:00 BASE 0.94 125 1.59 147 0.4 100 0.4 50 0 999.6 NA 0.0000 9999 1250 0 0 0
2019/03/13 19:45:00 BASE 1.25 125 1.65 135 0.4 100 0.4 50 0 999.6 NA 0.0000 9999 1180 0 0 0
2019/03/13 19:46:00 BASE 1.43 135 1.65 135 0.4 100 0.4 48 0 999.6 NA 0.0000 9999 1280 0 0 0
2019/03/13 19:47:00 BASE 1.34 145 1.65 135 0.4 100 0.4 48 0 999.6 NA 0.0000 9999 1250 0 0 0
2019/03/13 19:48:00 BASE 1.82 148 2.93 143 0.3 100 0.3 47 0 999.6 NA 0.0000 9999 1280 0 0 0
2019/03/13 19:49:00 BASE 2.94 140 3.76 134 0.3 100 0.3 45 0 999.6 NA 0.0000 9999 1250 0 0 0
2019/03/13 19:50:00 BASE 3.57 134 3.76 126 0.3 100 0.3 41 0 999.6 NA 0.0000 9999 1250 0 0 0
2019/03/13 19:51:00 BASE 3.40 133 3.76 126 0.3 100 0.3 39 0 999.6 NA 0.0000 9999 1280 0 0 0
2019/03/13 19:52:00 BASE 2.98 138 3.76 126 0.2 100 0.2 37 0 999.6 NA 0.0000 9999 1250 0 0 0
2019/03/13 19:53:00 BASE 3.46 136 4.78 138 0.2 100 0.2 36 0 999.6 NA 0.0000 9999 980 0 0 0
2019/03/13 19:54:00 BASE 4.43 130 5.35 130 0.2 100 0.2 36 0 999.6 NA 0.0000 9999 920 0 0 0
2019/03/13 19:55:00 BASE 4.84 128 6.07 128 0.2 100 0.2 36 0 999.6 NA 0.0000 9999 850 0 0 0
2019/03/13 19:56:00 BASE 5.33 130 6.48 130 0.2 100 0.2 37 0 999.5 NA 0.0000 9999 750 0 0 0
2019/03/13 19:57:00 BASE 5.71 132 6.48 130 0.2 100 0.2 39 0 999.5 NA 0.0000 9999 690 0 0 0
2019/03/13 19:58:00 BASE 5.37 128 6.48 130 0.2 100 0.2 42 0 999.5 NA 0.0000 9999 790 0 0 0
2019/03/13 19:59:00 BASE 4.51 123 6.48 130 0.2 100 0.2 45 0 999.5 NA 0.0000 9999 1050 0 0 0
2019/03/13 20:00:00 BASE 4.10 125 6.48 130 0.2 100 0.2 46 0 999.5 NA 0.0000 9999 1150 0 0 0
2019/03/13 20:01:00 BASE 4.32 126 6.48 130 0.3 100 0.3 44 0 999.5 NA 0.0000 9999 1250 0 0 0
2019/03/13 20:02:00 BASE 4.90 129 6.48 130 0.3 100 0.3 42 0 999.5 NA 0.0000 9999 690 0 0 0
2019/03/13 20:03:00 BASE 5.21 133 6.48 130 0.3 100 0.3 38 0 999.5 NA 0.0000 9999 1210 0 0 0
2019/03/13 20:04:00 BASE 4.58 129 6.48 130 0.3 100 0.3 33 0 999.5 NA 0.0000 9999 1210 0 0 0
2019/03/13 20:05:00 BASE 3.66 125 6.48 130 0.4 100 0.4 30 0 999.6 NA 0.0000 9999 1210 0 0 0
2019/03/13 20:06:00 BASE 4.01 127 6.38 134 0.4 100 0.4 30 0 999.6 NA 0.0000 9999 1210 0 0 0
2019/03/13 20:07:00 BASE 4.43 127 6.12 129 0.4 100 0.4 31 0 999.6 NA 0.0000 9999 1210 0 0 0
2019/03/13 20:08:00 BASE 4.60 124 6.28 125 0.4 100 0.4 31 0 999.6 NA 0.0000 9999 1210 0 0 0
2019/03/13 20:09:00 BASE 5.52 129 6.28 125 0.4 100 0.4 30 0 999.6 NA 0.0000 9999 1250 0 0 0
2019/03/13 20:10:00 BASE 5.45 135 6.28 125 0.4 100 0.4 29 0 999.6 NA 0.0000 9999 1250 0 0 0
2019/03/13 20:11:00 BASE 5.11 135 6.28 125 0.4 100 0.4 29 0 999.6 NA 0.0000 9999 1250 0 0 0
2019/03/13 20:12:00 BASE 5.06 131 6.28 125 0.4 100 0.4 29 0 999.6 NA 0.0000 UP 9999 1280 0 0 0
2019/03/13 20:13:00 BASE 5.44 130 6.48 128 0.4 100 0.4 28 0 999.6 NA 0.0000 UP 9999 1280 0 0 0
2019/03/13 20:14:00 BASE 6.19 134 6.69 139 0.4 100 0.4 27 0 999.6 NA 0.0000 UP 9999 1280 0 0 0
2019/03/13 20:15:00 BASE 6.18 139 6.84 136 0.4 100 0.4 26 0 999.6 NA 0.0000 UP 9999 1250 0 0 0
2019/03/13 20:16:00 BASE 5.42 140 6.84 136 0.3 100 0.3 25 0 999.6 NA 0.0000 UP 9999 1250 0 0 0
2019/03/13 20:17:00 BASE 4.99 141 6.84 136 0.3 100 0.3 25 0 999.6 NA 0.0000 UP 9999 1180 0 0 0
2019/03/13 20:18:00 BASE 5.54 143 6.94 137 0.3 100 0.3 25 0 999.6 NA 0.0000 UP 9999 1210 0 0 0
2019/03/13 20:19:00 BASE 5.96 141 6.94 137 0.3 100 0.3 24 0 999.6 NA 0.0000 UP 9999 1180 0 0 0
2019/03/13 20:20:00 BASE 5.76 141 6.94 137 0.2 100 0.2 23 0 999.7 NA 0.0000 UP 9999 1120 0 0 0
2019/03/13 20:21:00 BASE 5.26 142 6.94 137 0.2 100 0.2 23 0 999.7 NA 0.0000 UP 9999 850 0 0 0
2019/03/13 20:22:00 BASE 4.57 139 6.94 137 0.2 100 0.2 24 0 999.7 NA 0.0000 UP 9999 690 0 0 0
2019/03/13 20:23:00 BASE 3.86 138 6.94 137 0.1 100 0.1 24 0 999.7 NA 0.0000 UP 9999 1120 0 0 0
2019/03/13 20:24:00 BASE 3.68 140 6.94 137 0.1 100 0.1 24 0 999.7 NA 0.0000 UP 9999 1020 0 0 0
2019/03/13 20:25:00 BASE 3.77 137 6.94 137 0.1 100 0.1 25 0 999.7 NA 0.0000 UP 8000 430 0 0 0
2019/03/13 20:26:00 BASE 3.59 133 6.94 137 0.1 100 0.1 25 0 999.7 NA 0.0000 UP BR 6000 360 0 0 0
2019/03/13 20:27:00 BASE 3.53 133 6.94 137 0.1 100 0.1 26 0 999.7 NA 0.0000 UP BR 4600 360 0 0 0
2019/03/13 20:28:00 BASE 3.70 135 6.74 146 0.1 100 0.1 25 0 999.7 NA 0.0000 UP BR 4400 430 0 0 0
2019/03/13 20:29:00 BASE 3.82 130 6.17 146 0.1 100 0.1 24 0 999.7 NA 0.0000 UP BR 5000 360 0 0 0
2019/03/13 20:30:00 BASE 3.67 126 5.76 138 0.1 100 0.1 22 0 999.7 NA 0.0000 UP BR 4400 390 0 0 0
2019/03/13 20:31:00 BASE 3.15 121 4.78 141 0.1 100 0.1 21 0 999.7 NA 0.0000 -SN BR 2800 360 0 0 0
2019/03/13 20:32:00 BASE 2.66 119 4.78 141 0.1 100 0.1 19 0 999.7 NA 0.0000 -SN BR 1600 360 0 0 0
2019/03/13 20:33:00 BASE 2.48 128 4.78 141 0.1 100 0.1 18 0 999.7 NA 0.0000 -SN BR 1200 1020 0 0 0
2019/03/13 20:34:00 BASE 2.50 133 4.78 141 0.2 100 0.2 18 0 999.6 NA 0.0000 -SN BR 1400 1020 0 0 0
2019/03/13 20:35:00 BASE 2.61 129 4.78 141 0.2 100 0.2 20 0 999.6 NA 0.0000 -SN BR 1800 1050 0 0 0
2019/03/13 20:36:00 BASE 2.61 121 4.78 141 0.2 100 0.2 21 0 999.6 NA 0.0000 -SN BR 2800 1050 0 0 0
2019/03/13 20:37:00 BASE 2.05 112 4.78 141 0.2 100 0.2 24 0 999.6 NA 0.0000 -SN BR 3700 980 0 0 0
2019/03/13 20:38:00 BASE 1.80 106 4.63 128 0.2 100 0.2 26 0 999.6 NA 0.0000 -SN BR 5000 750 0 0 0
2019/03/13 20:39:00 BASE 1.89 111 3.81 120 0.3 100 0.3 27 0 999.6 NA 0.0000 -SN BR 7000 620 0 0 0
2019/03/13 20:40:00 BASE 2.43 115 3.76 117 0.3 100 0.3 29 0 999.6 NA 0.0000 -SN BR 7000 330 0 0 0
2019/03/13 20:41:00 BASE 3.40 121 4.27 133 0.3 100 0.3 32 0 999.5 NA 0.0000 -SN BR 2900 0 0 0 1480
2019/03/13 20:42:00 BASE 3.64 126 4.27 133 0.3 100 0.3 33 0 999.5 NA 0.0000 -SN BR 1900 0 0 0 1510
2019/03/13 20:43:00 BASE 3.84 124 4.63 122 0.2 100 0.2 32 0 999.5 NA 0.0000 -SN BR 2000 0 0 0 1510
2019/03/13 20:44:00 BASE 4.35 123 5.61 124 0.2 100 0.2 30 0 999.4 NA 0.0000 -SN BR 2200 0 0 0 1540
2019/03/13 20:45:00 BASE 4.71 120 5.61 124 0.1 100 0.1 28 0 999.4 NA 0.0000 -SN BR 2300 0 0 0 1280
2019/03/13 20:46:00 BASE 4.21 121 5.61 124 0.1 100 0.1 24 0 999.5 NA 0.0000 -SN BR 1800 0 0 0 1210
2019/03/13 20:47:00 BASE 3.39 116 5.61 124 0.1 100 0.1 21 0 999.5 NA 0.0000 -SN BR 1500 0 0 0 1570
2019/03/13 20:48:00 BASE 2.71 110 5.61 124 0.1 100 0.1 18 0 999.5 NA 0.0000 -SN BR 1600 0 0 0 1900
2019/03/13 20:49:00 BASE 1.81 112 5.61 124 0.1 100 0.1 16 0 999.6 NA 0.0000 -SN BR 1900 0 0 0 1510
2019/03/13 20:50:00 BASE 1.29 126 5.61 124 0.2 100 0.2 16 0 999.6 NA 0.0000 -SN BR 2200 980 0 0 0
2019/03/13 20:51:00 BASE 0.91 144 5.61 124 0.2 100 0.2 16 0 999.6 NA 0.0000 -SN BR 3700 1250 0 0 0
2019/03/13 20:52:00 BASE 0.47 147 5.61 124 0.2 100 0.2 15 0 999.6 NA 0.2540 -SN BR 7000 1350 0 0 0
2019/03/13 20:53:00 BASE 1.10 146 5.61 124 0.2 100 0.2 14 0 999.6 NA 0.0000 -SN BR 8000 1280 0 0 0
2019/03/13 20:54:00 BASE 1.67 142 5.35 117 0.2 100 0.2 14 0 999.6 NA 0.0000 -SN BR 9999 1380 0 0 0
2019/03/13 20:55:00 BASE 1.17 126 4.89 119 0.1 100 0.1 15 0 999.5 NA 0.0000 -SN BR 9999 1410 0 0 0
2019/03/13 20:56:00 BASE 1.49 125 3.65 121 0.1 100 0.1 16 0 999.5 NA 0.0000 -SN BR 9999 1480 0 0 0
2019/03/13 20:57:00 BASE 2.05 134 2.88 131 0.1 100 0.1 17 0 999.5 NA 0.0000 -SN BR 9999 1440 0 0 0
2019/03/13 20:58:00 BASE 2.27 133 2.98 130 0.1 100 0.1 18 0 999.4 NA 0.0000 -SN BR 9999 1480 0 0 0
2019/03/13 20:59:00 BASE 2.56 138 3.04 154 0.1 100 0.1 19 0 999.4 NA 0.0000 -SN BR 9999 1440 0 0 0
2019/03/13 21:00:00 BASE 2.60 140 3.50 142 0.1 100 0.1 19 0 999.4 NA 0.0000 -SN BR 9999 1480 0 0 0
2019/03/13 21:01:00 BASE 2.59 137 3.50 142 0.1 100 0.1 19 0 999.5 NA 0.0000 -SN 9999 1480 0 0 0
2019/03/13 21:02:00 BASE 2.25 132 3.50 142 0.1 100 0.1 20 0 999.5 NA 0.0000 -SN 9999 1510 0 0 0
2019/03/13 21:03:00 BASE 2.19 130 3.50 142 0.1 100 0.1 23 0 999.4 NA 0.0000 -SN 9999 1510 0 0 0
2019/03/13 21:04:00 BASE 2.62 132 3.50 142 0.1 100 0.1 27 0 999.4 NA 0.0000 -SN 9999 1510 0 0 0
2019/03/13 21:05:00 BASE 2.92 134 3.50 142 0.1 100 0.1 30 0 999.4 NA 0.0000 -SN 9999 1480 0 0 0
2019/03/13 21:06:00 BASE 2.75 134 3.50 142 0.1 100 0.1 33 0 999.4 NA 0.0000 -SN 9999 1510 0 0 0
2019/03/13 21:07:00 BASE 2.44 133 3.50 142 0.1 100 0.1 37 0 999.4 NA 0.0000 9999 1440 0 0 0
2019/03/13 21:08:00 BASE 2.79 135 4.01 139 0.1 100 0.1 39 0 999.4 NA 0.0000 9999 1410 0 0 0
2019/03/13 21:09:00 BASE 3.36 132 4.01 139 0.0 100 0.0 37 0 999.4 NA 0.0000 9999 1440 0 0 0
2019/03/13 21:10:00 BASE 3.49 127 4.17 134 0.0 100 0.0 34 0 999.4 NA 0.0000 9999 1480 0 0 0
2019/03/13 21:11:00 BASE 3.16 127 4.17 134 0.0 100 0.0 32 0 999.4 NA 0.0000 9999 1440 0 0 0
2019/03/13 21:12:00 BASE 2.74 122 4.17 134 0.0 100 0.0 32 0 999.4 NA 0.0000 9999 1410 0 0 0
2019/03/13 21:13:00 BASE 2.62 116 4.17 134 0.0 100 0.0 32 0 999.4 NA 0.0000 9999 1410 0 0 0
2019/03/13 21:14:00 BASE 2.48 127 4.17 134 0.1 100 0.1 30 0 999.4 NA 0.0000 9999 1480 0 0 0
2019/03/13 21:15:00 BASE 2.24 134 4.17 134 0.1 100 0.1 29 0 999.4 NA 0.0000 9999 1410 0 0 0
2019/03/13 21:16:00 BASE 2.41 133 4.17 134 0.2 100 0.2 29 0 999.4 NA 0.0000 9999 1410 0 0 0
2019/03/13 21:17:00 BASE 3.23 139 5.09 138 0.2 100 0.2 30 0 999.4 NA 0.0000 9999 1410 0 0 0
2019/03/13 21:18:00 BASE 4.14 136 5.09 138 0.1 100 0.1 30 0 999.4 NA 0.0000 9999 1380 0 0 0
2019/03/13 21:19:00 BASE 4.41 134 5.09 138 0.0 100 0.0 30 0 999.4 NA 0.0000 9999 1380 0 0 0
2019/03/13 21:20:00 BASE 3.91 136 5.09 138 -0.0 100 -0.0 30 0 999.4 NA 0.0000 9999 1410 0 0 0
2019/03/13 21:21:00 BASE 3.08 131 5.09 138 -0.1 100 -0.1 29 0 999.4 NA 0.0000 9999 1480 0 0 0
2019/03/13 21:22:00 BASE 2.72 125 5.09 138 -0.1 100 -0.1 28 0 999.5 NA 0.0000 9999 1440 0 0 0
2019/03/13 21:23:00 BASE 2.36 123 5.09 138 -0.1 100 -0.1 28 0 999.5 NA 0.0000 9999 1350 0 0 0
2019/03/13 21:24:00 BASE 1.75 122 5.09 138 -0.1 100 -0.1 28 0 999.4 NA 0.0000 9999 1310 0 0 0
2019/03/13 21:25:00 BASE 1.13 124 5.09 138 -0.0 100 -0.0 28 0 999.4 NA 0.0000 9999 1410 0 0 0
2019/03/13 21:26:00 BASE 0.35 121 5.09 138 0.0 100 0.0 28 0 999.4 NA 0.0000 9999 1410 0 0 0
2019/03/13 21:27:00 BASE 0.49 82 4.99 130 0.1 100 0.1 29 0 999.4 NA 0.0000 9999 1410 0 0 0
2019/03/13 21:28:00 BASE 0.95 37 4.89 147 0.1 100 0.1 29 0 999.4 NA 0.0000 9999 1410 0 0 0
2019/03/13 21:29:00 BASE 0.64 33 4.22 136 0.1 100 0.1 30 0 999.4 NA 0.0000 9999 1440 0 0 0
2019/03/13 21:30:00 BASE 0.17 29 3.09 118 0.2 100 0.2 30 0 999.4 NA 0.0000 9999 1570 0 0 0
2019/03/13 21:31:00 BASE 0.00 10 3.09 118 0.2 100 0.2 31 0 999.3 NA 0.0000 9999 1480 0 0 0
2019/03/13 21:32:00 BASE 0.05 19 2.26 122 0.3 100 0.3 30 0 999.2 NA 0.0000 9999 1410 0 0 0
2019/03/13 21:33:00 BASE 0.73 48 1.85 119 0.3 100 0.3 28 0 999.2 NA 0.0000 9999 1440 0 0 0
2019/03/13 21:34:00 BASE 1.35 52 1.59 52 0.3 100 0.3 27 0 999.2 NA 0.0000 9999 1480 0 0 0
2019/03/13 21:35:00 BASE 1.00 49 1.59 52 0.4 100 0.4 27 0 999.2 NA 0.0000 9999 1380 0 0 0
2019/03/13 21:36:00 BASE 0.33 38 1.59 52 0.4 100 0.4 24 0 999.2 NA 0.0000 9999 1310 0 0 0
2019/03/13 21:37:00 BASE 0.00 25 1.59 52 0.3 100 0.3 23 0 999.2 NA 0.0000 9999 1280 0 0 0
2019/03/13 21:38:00 BASE 0.00 27 1.59 52 0.3 100 0.3 23 0 999.2 NA 0.0000 9999 1350 0 0 0
2019/03/13 21:39:00 BASE 0.00 47 1.59 52 0.3 100 0.3 20 0 999.1 NA 0.0000 9999 1350 0 0 0
2019/03/13 21:40:00 BASE 0.00 77 1.59 52 0.3 100 0.3 18 0 999.1 NA 0.0000 9999 1310 0 0 0
2019/03/13 21:41:00 BASE 0.00 101 1.59 52 0.3 100 0.3 15 0 999.1 NA 0.0000 9999 1350 0 0 0
2019/03/13 21:42:00 BASE 0.00 116 1.59 52 0.3 100 0.3 13 0 999.1 NA 0.0000 9999 1480 0 0 0
2019/03/13 21:43:00 BASE 0.00 131 1.59 52 0.3 100 0.3 12 0 999.1 NA 0.0000 9999 1350 0 0 0
2019/03/13 21:44:00 BASE 0.00 160 1.44 52 0.4 100 0.4 10 0 999.1 NA 0.0000 9999 1480 0 0 0
2019/03/13 21:45:00 BASE 0.04 197 1.03 227 0.4 100 0.4 10 0 999.2 NA 0.0000 9999 1440 0 0 0
2019/03/13 21:46:00 BASE 0.75 222 1.65 230 0.3 100 0.3 10 0 999.2 NA 0.0000 9999 1250 0 0 0
2019/03/13 21:47:00 BASE 1.50 226 1.95 225 0.3 100 0.3 10 0 999.2 NA 0.0000 9999 1380 0 0 0
2019/03/13 21:48:00 BASE 1.59 222 1.95 225 0.3 100 0.3 10 0 999.2 NA 0.0000 9999 1440 0 0 0
2019/03/13 21:49:00 BASE 1.64 213 1.95 225 0.3 100 0.3 10 0 999.2 NA 0.0000 9999 1540 0 0 0
2019/03/13 21:50:00 BASE 1.75 202 2.37 193 0.2 100 0.2 11 0 999.2 NA 0.0000 9999 1310 0 0 0
2019/03/13 21:51:00 BASE 1.85 195 2.37 193 0.2 100 0.2 11 0 999.2 NA 0.0000 9999 1610 0 0 0
2019/03/13 21:52:00 BASE 2.01 188 2.37 193 0.1 100 0.1 10 0 999.2 NA 0.0000 9999 1480 0 0 0
2019/03/13 21:53:00 BASE 2.08 183 2.37 193 0.1 100 0.1 9 0 999.2 NA 0.0000 9999 1440 0 0 0
2019/03/13 21:54:00 BASE 1.71 181 2.37 193 0.0 100 0.0 8 0 999.2 NA 0.0000 9999 1410 0 0 0
2019/03/13 21:55:00 BASE 1.13 183 2.37 193 -0.0 100 -0.0 7 0 999.3 NA 0.0000 9999 1080 0 0 0
2019/03/13 21:56:00 BASE 1.03 187 2.37 193 -0.1 100 -0.1 7 0 999.2 NA 0.0000 9999 1280 0 0 0
2019/03/13 21:57:00 BASE 1.41 182 2.37 193 -0.1 100 -0.1 8 0 999.2 NA 0.0000 9999 1380 0 0 0
2019/03/13 21:58:00 BASE 1.46 172 2.37 193 -0.1 100 -0.1 8 0 999.2 NA 0.0000 9999 1310 0 0 0
2019/03/13 21:59:00 BASE 1.42 167 2.37 193 -0.1 100 -0.1 8 0 999.2 NA 0.0000 9999 1250 0 0 0
2019/03/13 22:00:01 BASE 1.25 152 2.31 187 -0.1 100 -0.1 9 0 999.2 NA 0.0000 9999 1380 0 0 0
2019/03/13 22:01:00 BASE 0.97 134 2.31 187 -0.1 100 -0.1 9 0 999.2 NA 0.0000 9999 1280 0 0 0
2019/03/13 22:02:00 BASE 1.03 131 2.21 181 -0.0 100 -0.0 10 0 999.2 NA 0.0000 9999 1120 0 0 0
2019/03/13 22:03:00 BASE 1.32 148 2.62 199 -0.0 100 -0.0 10 0 999.2 NA 0.0000 9999 1020 0 0 0
2019/03/13 22:06:01 BASE M M M M 0.0 100 0.0 10 0 M NA 0.0000 M 980 0 0 0
2019/03/13 22:07:00 BASE M M M M 0.1 100 0.1 11 0 999.2 NA 0.0000 9999 950 0 0 0
2019/03/13 22:08:00 BASE 0.14 207 M M 0.2 100 0.2 10 0 999.2 NA 0.0000 9999 980 0 0 0
2019/03/13 22:09:00 BASE 0.35 240 M M 0.2 100 0.2 9 0 999.3 NA 0.0000 9999 950 0 0 0
2019/03/13 22:10:00 BASE 0.72 245 M M 0.3 100 0.3 7 0 999.4 NA 0.0000 9999 950 0 0 0
2019/03/13 22:11:00 BASE 1.62 263 M M 0.4 100 0.4 5 0 999.4 NA 0.0000 9999 890 0 0 0
2019/03/13 22:12:00 BASE 2.27 265 M M 0.4 100 0.4 5 0 999.4 NA 0.0000 9999 920 0 0 0
2019/03/13 22:13:00 BASE 2.79 279 M M 0.5 100 0.5 4 0 999.4 NA 0.0000 9999 950 0 0 0
2019/03/13 22:14:00 BASE 3.16 298 4.84 331 0.6 100 0.6 3 0 999.4 NA 0.0000 9999 890 0 0 0
2019/03/13 22:15:00 BASE 3.83 299 5.71 291 0.7 100 0.7 3 0 999.4 NA 0.0000 9999 820 0 0 0
2019/03/13 22:16:01 BASE 4.04 307 5.71 291 0.8 100 0.8 3 0 999.4 NA 0.0000 9999 850 0 0 0
2019/03/13 22:17:00 BASE 3.35 312 5.71 291 0.9 100 0.9 3 0 999.4 NA 0.0000 9999 850 0 0 0
2019/03/13 22:18:00 BASE 3.09 314 5.71 291 1.0 100 1.0 3 0 999.4 NA 0.0000 9999 720 0 0 0
2019/03/13 22:19:01 BASE 2.65 322 5.71 291 1.0 100 1.0 3 0 999.4 NA 0.0000 9999 720 0 0 0
2019/03/13 22:20:00 BASE 2.87 329 5.71 291 1.0 100 1.0 2 0 999.3 NA 0.0000 9999 720 0 0 0
2019/03/13 22:21:01 BASE 3.37 346 5.71 291 1.0 100 1.0 2 0 999.3 NA 0.0000 9999 720 0 0 0
2019/03/13 22:22:00 BASE 4.45 347 6.94 331 1.0 100 1.0 2 0 999.3 NA 0.0000 9999 850 0 0 0
2019/03/13 22:23:00 BASE 6.85 342 11.37 342 1.0 100 1.0 1 0 999.3 NA 0.0000 UP 9999 890 0 0 0
2019/03/13 22:24:00 BASE 9.95 346 14.92 342 1.1 100 1.1 1 0 999.2 NA 0.0000 UP 9999 790 0 0 0
2019/03/13 22:25:00 BASE 12.31 349 14.92 342 1.3 100 1.3 1 0 999.1 NA 0.0000 UP 9999 590 0 0 0
2019/03/13 22:26:00 BASE 13.25 351 14.92 342 1.5 100 1.5 2 0 999.1 NA 0.0000 UP 9999 490 0 0 0
2019/03/13 22:27:00 BASE 14.34 349 16.20 351 1.7 100 1.7 2 0 999.0 NA 0.0000 UP 9999 430 0 0 0
2019/03/13 22:28:00 BASE 14.75 348 16.41 349 1.9 100 1.9 2 0 999.0 NA 0.0000 UP 9999 390 0 0 0
2019/03/13 22:29:00 BASE 13.85 350 16.41 349 2.0 100 2.0 1 0 999.0 NA 0.0000 UP 9999 920 0 0 0
2019/03/13 22:30:00 BASE 13.51 345 16.46 350 2.0 100 2.0 1 0 999.0 NA 0.0000 UP 9999 750 0 0 0
2019/03/13 22:31:00 BASE 13.68 342 16.62 346 2.0 100 2.0 1 0 999.0 NA 0.0000 UP 9999 850 0 0 0
2019/03/13 22:32:00 BASE 13.68 350 16.62 346 2.0 100 2.0 1 0 999.0 NA 0.0000 UP 9999 890 0 0 0
2019/03/13 22:33:00 BASE 14.15 351 16.62 346 2.0 100 2.0 1 0 999.0 NA 0.0000 UP 9999 850 0 0 0
2019/03/13 22:34:00 BASE 15.47 349 18.78 343 2.0 100 2.0 1 0 998.9 NA 0.0000 UP 9999 850 0 0 0
2019/03/13 22:35:00 BASE 16.03 349 18.78 343 2.0 100 2.0 1 0 999.0 NA 0.0000 UP 9999 920 0 0 0
2019/03/13 22:36:00 BASE 15.03 351 18.78 343 2.0 100 2.0 1 0 999.0 NA 0.0000 UP 9999 890 0 0 0
2019/03/13 22:37:00 BASE 14.37 352 18.78 343 2.1 100 2.1 1 0 999.0 NA 0.0000 UP 9999 890 0 0 0
2019/03/13 22:38:00 BASE 14.40 347 18.78 343 2.1 100 2.1 1 0 999.0 NA 0.0000 UP 9999 790 0 0 0
2019/03/13 22:39:00 BASE 14.08 346 18.78 343 2.1 100 2.1 1 0 999.0 NA 0.0000 UP 9999 920 0 0 0
2019/03/13 22:40:00 BASE 13.16 349 18.78 343 2.1 100 2.1 1 0 999.1 NA 0.0000 UP 9999 850 0 0 0
2019/03/13 22:41:00 BASE 13.02 348 18.78 343 2.1 100 2.1 1 0 999.1 NA 0.0000 UP 9999 1050 0 0 0
2019/03/13 22:42:00 BASE 12.98 346 18.78 343 2.1 100 2.1 1 0 999.0 NA 0.0000 UP 9999 980 0 0 0
2019/03/13 22:43:00 BASE 12.26 349 18.78 343 2.1 100 2.1 0 0 999.0 NA 0.0000 UP 9999 980 0 0 0
2019/03/13 22:44:00 BASE 13.65 354 17.90 351 2.1 100 2.1 0 0 998.9 NA 0.0000 UP 9999 950 0 0 0
2019/03/13 22:45:00 BASE 15.42 353 16.98 337 2.1 100 2.1 0 0 998.9 NA 0.0000 UP 9999 1080 0 0 0
2019/03/13 22:46:00 BASE 14.97 347 16.98 337 2.2 100 2.2 0 0 998.9 NA 0.0000 UP 9999 1120 0 0 0
2019/03/13 22:47:00 BASE 14.99 353 17.13 354 2.2 100 2.2 0 0 998.8 NA 0.0000 UP 9999 1080 0 0 0
2019/03/13 22:48:00 BASE 15.70 355 17.75 352 2.2 100 2.2 0 0 998.7 NA 0.0000 UP 9999 1120 0 0 0
2019/03/13 22:49:00 BASE 16.86 357 19.39 1 2.2 100 2.2 0 0 998.7 NA 0.0000 UP 9999 1120 0 0 0
2019/03/13 22:50:00 BASE 17.98 1 20.06 355 2.3 100 2.3 0 0 998.7 NA 0.0000 UP 9999 1080 0 0 0
2019/03/13 22:51:00 BASE 17.04 0 20.06 355 2.3 100 2.3 0 0 998.8 NA 0.0000 UP 9999 1080 0 0 0
2019/03/13 22:52:00 BASE 16.57 2 20.06 355 2.3 100 2.3 0 0 998.8 NA 0.0000 UP 9999 1150 0 0 0
2019/03/13 22:53:00 BASE 17.74 4 20.06 355 2.3 100 2.3 1 0 998.7 NA 0.0000 UP 9999 1120 0 0 0
2019/03/13 22:54:00 BASE 18.40 4 20.06 355 2.4 100 2.4 1 0 998.7 NA 0.0000 UP 9999 950 0 0 0
2019/03/13 22:55:00 BASE 19.12 4 20.83 3 2.4 100 2.4 1 0 998.6 NA 0.0000 UP 9999 430 0 0 0
2019/03/13 22:56:00 BASE 19.20 3 20.83 3 2.4 100 2.4 1 0 998.7 NA 0.0000 UP 9999 330 1050 0 0
2019/03/13 22:57:00 BASE 18.31 2 20.83 3 2.4 100 2.4 1 0 998.7 NA 0.0000 UP 9999 330 1080 0 0
2019/03/13 22:58:00 BASE 17.59 0 20.83 3 2.4 100 2.4 1 0 998.7 NA 0.0000 UP 9999 390 0 0 0
2019/03/13 22:59:00 BASE 17.29 358 20.83 3 2.4 100 2.4 1 0 998.7 NA 0.0000 UP 9999 980 0 0 0
2019/03/13 23:00:00 BASE 17.28 356 20.83 3 2.4 100 2.4 1 0 998.6 NA 0.0000 UP 9999 1080 0 0 0
2019/03/13 23:01:00 BASE 17.20 357 20.83 3 2.4 100 2.4 1 0 998.5 NA 0.0000 UP 9999 1020 0 0 0
2019/03/13 23:02:00 BASE 17.73 1 20.83 3 2.4 100 2.4 0 0 998.4 NA 0.0000 UP 9999 430 0 0 0
2019/03/13 23:03:00 BASE 18.05 3 20.83 3 2.4 100 2.4 0 0 998.4 NA 0.0000 UP 9999 460 1480 0 0
2019/03/13 23:04:00 BASE 17.59 4 20.83 3 2.4 100 2.4 0 0 998.4 NA 0.0000 UP 9999 1050 0 0 0
2019/03/13 23:05:00 BASE 17.07 4 20.17 3 2.4 100 2.4 0 0 998.4 NA 0.0000 UP 9999 430 0 0 0
2019/03/13 23:06:00 BASE 17.13 2 19.81 6 2.4 100 2.4 0 0 998.4 NA 0.0000 UP 9999 1050 0 0 0
2019/03/13 23:07:00 BASE 18.00 2 20.11 7 2.4 100 2.4 0 0 998.3 NA 0.0000 UP 9999 430 0 0 0
2019/03/13 23:08:00 BASE 19.14 6 21.71 8 2.4 100 2.4 0 0 998.4 NA 0.0000 UP 9999 390 0 0 0
2019/03/13 23:09:00 BASE 19.64 8 21.71 8 2.4 100 2.4 0 0 998.4 NA 0.0000 UP 9999 590 0 0 0
2019/03/13 23:10:00 BASE 19.09 7 21.71 8 2.5 100 2.5 0 0 998.4 NA 0.0000 UP 9999 490 0 0 0
2019/03/13 23:11:00 BASE 19.21 6 21.71 8 2.5 100 2.5 0 0 998.3 NA 0.0000 UP 9999 920 0 0 0
2019/03/13 23:12:00 BASE 20.12 7 21.71 8 2.5 100 2.5 0 0 998.3 NA 0.0000 UP 9999 720 0 0 0
2019/03/13 23:13:00 BASE 20.51 8 23.20 8 2.5 100 2.5 0 0 998.4 NA 0.0000 UP 9999 850 0 0 0
2019/03/13 23:14:00 BASE 19.80 9 23.20 8 2.5 100 2.5 0 0 998.4 NA 0.0000 UP 9999 890 0 0 0
2019/03/13 23:15:00 BASE 19.28 9 23.20 8 2.5 100 2.5 0 0 998.4 NA 0.0000 UP 9999 890 0 0 0
2019/03/13 23:16:00 BASE 19.00 9 23.20 8 2.6 100 2.6 0 0 998.4 NA 0.0000 UP 9999 890 0 0 0
2019/03/13 23:17:00 BASE 19.07 10 23.20 8 2.6 100 2.6 0 0 998.4 NA 0.0000 UP 9999 950 0 0 0
2019/03/13 23:18:00 BASE 18.95 10 23.20 8 2.6 100 2.6 0 0 998.4 NA 0.0000 9999 890 0 0 0
2019/03/13 23:19:00 BASE 18.35 7 23.20 8 2.6 100 2.6 0 0 998.4 NA 0.0000 9999 950 0 0 0
2019/03/13 23:20:01 BASE 17.82 8 23.20 8 2.6 100 2.6 0 0 998.5 NA 0.0000 9999 950 0 0 0
2019/03/13 23:21:00 BASE 17.51 6 23.20 8 2.6 100 2.6 0 0 998.5 NA 0.0000 9999 920 0 0 0
2019/03/13 23:22:00 BASE 17.52 5 23.20 8 2.6 100 2.6 0 0 998.5 NA 0.0000 9999 920 0 0 0
2019/03/13 23:23:01 BASE 16.73 5 20.83 10 2.7 100 2.7 0 0 998.5 NA 0.0000 9999 950 0 0 0
2019/03/13 23:24:01 BASE 16.34 359 20.83 10 2.7 100 2.7 0 0 998.5 NA 0.0000 9999 1020 0 0 0
2019/03/13 23:25:01 BASE 17.08 1 20.83 10 2.7 100 2.7 0 0 998.4 NA 0.0000 9999 1020 0 0 0
2019/03/13 23:26:01 BASE 16.61 10 20.83 10 2.7 100 2.7 0 0 998.4 NA 0.0000 9999 1120 0 0 0
2019/03/13 23:27:01 BASE 16.24 360 22.53 352 2.7 100 2.7 0 0 998.4 NA 0.0000 9999 1120 0 0 0
2019/03/13 23:28:01 BASE 16.24 352 22.53 352 2.7 100 2.7 0 0 998.4 NA 0.0000 9999 1150 0 0 0
2019/03/13 23:29:01 BASE 15.83 356 22.53 352 2.7 100 2.7 0 0 998.4 NA 0.0000 9999 1080 0 0 0
2019/03/13 23:30:01 BASE 16.21 359 22.53 352 2.7 100 2.7 0 0 998.4 NA 0.0000 9999 1020 0 0 0
2019/03/13 23:31:00 BASE 16.17 5 22.53 352 2.7 100 2.7 0 0 998.4 NA 0.0000 9999 1020 0 0 0
2019/03/13 23:32:00 BASE 16.12 6 22.53 352 2.7 100 2.7 0 0 998.4 NA 0.0000 9999 950 0 0 0
2019/03/13 23:33:00 BASE 16.57 4 22.53 352 2.8 100 2.8 0 0 998.3 NA 0.0000 UP 9999 1020 0 0 0
2019/03/13 23:34:00 BASE 16.44 4 22.53 352 2.8 100 2.8 0 0 998.3 NA 0.0000 UP 9999 1020 0 0 0
2019/03/13 23:35:00 BASE 16.99 4 22.53 352 2.8 100 2.8 0 0 998.2 NA 0.0000 UP 9999 490 0 0 0
2019/03/13 23:36:00 BASE 17.69 4 22.53 352 2.8 100 2.8 0 0 998.2 NA 0.0000 UP 9999 430 0 0 0
2019/03/13 23:37:00 BASE 17.73 3 19.81 360 2.8 100 2.8 0 0 998.2 NA 0.0000 UP 9999 430 0 0 0
2019/03/13 23:38:00 BASE 17.75 2 19.81 360 2.8 100 2.8 0 0 998.2 NA 0.0000 UP 9999 1050 0 0 0
2019/03/13 23:39:00 BASE 17.31 4 19.81 360 2.8 100 2.8 0 0 998.2 NA 0.0000 UP 9999 1120 0 0 0
2019/03/13 23:40:00 BASE 16.61 359 19.81 360 2.8 100 2.8 0 0 998.2 NA 0.0000 UP 9999 1150 0 0 0
2019/03/13 23:41:00 BASE 16.88 358 19.81 360 2.7 100 2.7 0 0 998.1 NA 0.0000 UP 9999 1280 0 0 0
2019/03/13 23:42:00 BASE 17.44 1 19.81 360 2.8 100 2.8 0 0 998.1 NA 0.0000 UP 9999 1280 0 0 0
2019/03/13 23:43:00 BASE 17.19 360 19.81 360 2.8 100 2.8 0 0 998.1 NA 0.0000 UP 9999 1310 0 0 0
2019/03/13 23:44:00 BASE 17.04 353 19.81 360 2.8 100 2.8 0 0 998.1 NA 0.0000 UP 9999 1280 0 0 0
2019/03/13 23:45:00 BASE 16.68 353 19.24 8 2.8 100 2.8 0 0 998.1 NA 0.0000 UP 9999 1180 0 0 0
2019/03/13 23:46:00 BASE 16.98 358 19.24 8 2.8 100 2.8 0 0 998.1 NA 0.0000 UP 9999 1310 0 0 0
2019/03/13 23:47:00 BASE 16.96 354 19.09 7 2.8 100 2.8 0 0 998.0 NA 0.0000 UP 9999 1310 0 0 0
2019/03/13 23:48:00 BASE 17.13 360 19.09 8 2.8 100 2.8 0 0 998.0 NA 0.0000 UP 9999 1310 0 0 0
2019/03/13 23:49:00 BASE 17.78 8 19.81 6 2.9 100 2.9 0 0 997.9 NA 0.0000 9999 1380 0 0 0
2019/03/13 23:50:00 BASE 17.71 5 19.81 6 2.9 100 2.9 0 0 997.9 NA 0.0000 9999 1350 0 0 0
2019/03/13 23:51:00 BASE 17.52 354 20.37 269 2.9 100 2.9 0 0 997.9 NA 0.0000 UP 9999 1410 0 0 0
2019/03/13 23:52:00 BASE 17.73 357 20.37 269 2.9 100 2.9 0 0 997.9 NA 0.0000 UP 9999 1410 0 0 0
2019/03/13 23:53:00 BASE 17.36 5 20.37 269 3.0 100 3.0 0 0 997.9 NA 0.0000 UP 9999 1410 0 0 0
2019/03/13 23:54:00 BASE 17.26 6 20.37 269 3.0 100 3.0 0 0 998.0 NA 0.0000 UP 9999 1410 0 0 0
2019/03/13 23:55:00 BASE 18.27 6 20.37 269 3.0 100 3.0 0 0 997.9 NA 0.0000 UP 9999 1440 0 0 0
2019/03/13 23:56:00 BASE 19.27 3 21.20 1 3.0 100 3.0 0 0 997.9 NA 0.0000 UP 9999 1480 0 0 0
2019/03/13 23:57:00 BASE 19.01 3 21.20 1 3.0 100 3.0 0 0 998.0 NA 0.0000 UP 9999 1380 0 0 0
2019/03/13 23:58:00 BASE 18.39 3 21.20 1 3.1 100 3.1 0 0 998.0 NA 0.0000 UP 9999 1440 0 0 0
2019/03/13 23:59:00 BASE 19.55 5 22.28 5 3.1 100 3.1 0 0 998.0 NA 0.0000 UP 9999 1440 0 0 0